Darstellungsparameter: Aktuell verwendete Einstellungen:
Skalierung der Graphiken ... ?
xyx+y,   Skalierungsfaktor:      Skalierung: Modus: x, Faktor: 1
Darstellungszeitraum ... ?
Vom - - bis: - -   Zeitraum: 29.11.2008 - 29.05.2009
Min/Max/Avg-Anzeige ... ?
Zeige MMA aktuell
Zeige MMA Monat
Zeige MMA alles
Zeige --A aktuell
Zeige --A Monat
Zeige --A alles
Keine MMA-Anzeige
MMA:
Keine MMA-Graphiken
MMA-Basis: 29.11.2008 - 29.05.2009
Quicknavigation für Darstellung... ?
Tage:      1T, 2T, 3T, 5T -1T -2T -3T -5T +1T +2T +3T +5T
Wochen: 1W, 2W, 3W -1W -2W -3W +1W +2W +3W
Monate: 1M, 3M, 6M -1M -3M -6M +1M +3M +6M
Jahre:    1J, 3J, 5J, 10J -1J -3J -5J -10J +1J +3J +5J +10J
Nutze für die Darstellung ... ?
Originaldaten oder Mittelwerte auf ...
Stundenbasis Tagesbasis Wochenbasis
Monatsbasis Jahresbasis      Datenbasis: Original-Daten
Darstellen als:
Statistik (Auto) Statistik J:M      Darstellung:
Zur Graphik,    zurück zur Übersicht aller Sensoren.
 
Tabellarische Datenbersicht: ?
 
Sensor: Nr:Datum:Temp:Abs-Feuchte:Windchill:Wind:
Aussen-T/F 1 29-11-2008 00:05:03 0.4 C 3.88 g/m*3 0.4 C 0 km/h
2 29-11-2008 00:17:03 0.4 C 3.88 g/m*3 0.4 C 0 km/h
3 29-11-2008 00:29:03 0.3 C 3.86 g/m*3 0.3 C 0 km/h
4 29-11-2008 00:41:02 0.2 C 3.83 g/m*3 0.2 C 0 km/h
5 29-11-2008 00:53:02 0.3 C 3.91 g/m*3 0.3 C 0 km/h
6 29-11-2008 01:05:02 0.3 C 3.91 g/m*3 0.3 C 0 km/h
7 29-11-2008 01:17:02 0.3 C 3.91 g/m*3 0.3 C 0 km/h
8 29-11-2008 01:29:02 0.3 C 3.91 g/m*3 0.3 C 0 km/h
9 29-11-2008 01:41:02 0.3 C 3.91 g/m*3 0.3 C 0 km/h
10 29-11-2008 01:53:02 0.3 C 3.91 g/m*3 0.3 C 0 km/h
11 29-11-2008 02:05:02 0.3 C 3.91 g/m*3 0.3 C 0 km/h
12 29-11-2008 02:17:02 0.2 C 3.88 g/m*3 0.2 C 0 km/h
13 29-11-2008 02:29:02 0.2 C 3.93 g/m*3 0.2 C 0 km/h
14 29-11-2008 02:41:03 0.2 C 3.93 g/m*3 0.2 C 0 km/h
15 29-11-2008 02:54:04 0.3 C 3.96 g/m*3 0.3 C 0 km/h
16 29-11-2008 03:06:04 0.3 C 3.91 g/m*3 0.3 C 0 km/h
17 29-11-2008 03:18:03 0.3 C 3.91 g/m*3 0.3 C 0 km/h
18 29-11-2008 03:30:03 0.2 C 3.88 g/m*3 0.2 C 0 km/h
19 29-11-2008 03:42:01 0.1 C 3.85 g/m*3 0.1 C 0 km/h
20 29-11-2008 03:54:01 0.1 C 3.85 g/m*3 0.1 C 0 km/h
21 29-11-2008 04:06:01 0.1 C 3.85 g/m*3 0.1 C 0 km/h
22 29-11-2008 04:18:01 0.1 C 3.9 g/m*3 0.1 C 0 km/h
23 29-11-2008 04:30:01 0.3 C 3.96 g/m*3 0.3 C 0 km/h
24 29-11-2008 04:42:01 0.4 C 3.93 g/m*3 0.4 C 0 km/h
25 29-11-2008 04:54:01 0.4 C 3.93 g/m*3 0.4 C 0 km/h
Sensor: Nr:Datum:Temp:Abs-Feuchte:Windchill:Wind:
Aussen-T/F 26 29-11-2008 05:06:02 0.4 C 3.88 g/m*3 0.4 C 0 km/h
27 29-11-2008 05:18:01 0.2 C 3.83 g/m*3 0.2 C 0 km/h
28 29-11-2008 05:30:01 0.2 C 3.88 g/m*3 0.2 C 0 km/h
29 29-11-2008 05:42:02 0.2 C 3.88 g/m*3 0.2 C 0 km/h
30 29-11-2008 05:54:02 0.2 C 3.88 g/m*3 0.2 C 0 km/h
31 29-11-2008 06:06:02 0.3 C 3.96 g/m*3 0.3 C 0 km/h
32 29-11-2008 06:18:02 0.3 C 3.96 g/m*3 0.3 C 0 km/h
33 29-11-2008 06:30:02 0.2 C 3.93 g/m*3 0.2 C 0 km/h
34 29-11-2008 06:42:02 -0.1 C 3.85 g/m*3 -0.1 C 0 km/h
35 29-11-2008 06:54:02 -0.3 C 3.84 g/m*3 -0.3 C 0 km/h
36 29-11-2008 07:06:02 -0.3 C 3.89 g/m*3 -0.3 C 0 km/h
37 29-11-2008 07:18:02 -0.2 C 3.92 g/m*3 -0.2 C 0 km/h
38 29-11-2008 07:30:02 -0.1 C 3.99 g/m*3 -0.1 C 0 km/h
39 29-11-2008 07:42:02 0 C 4.02 g/m*3 0 C 0 km/h
40 29-11-2008 07:54:02 0.1 C 4.05 g/m*3 0.1 C 0 km/h
41 29-11-2008 08:06:02 0.1 C 4.05 g/m*3 0.1 C 0 km/h
42 29-11-2008 08:18:02 0.2 C 4.08 g/m*3 0.2 C 0 km/h
43 29-11-2008 08:30:02 0.2 C 4.13 g/m*3 0.2 C 0 km/h
44 29-11-2008 08:42:01 0 C 4.07 g/m*3 0 C 0 km/h
45 29-11-2008 08:54:01 0.4 C 4.18 g/m*3 0.4 C 0 km/h
46 29-11-2008 09:06:02 0.5 C 4.21 g/m*3 0.5 C 0 km/h
47 29-11-2008 09:18:01 0.7 C 4.27 g/m*3 0.7 C 0 km/h
48 29-11-2008 09:30:01 1 C 4.26 g/m*3 1 C 0 km/h
49 29-11-2008 09:42:02 1.2 C 4.26 g/m*3 1.2 C 0 km/h
50 29-11-2008 09:54:02 1.3 C 4.24 g/m*3 1.3 C 0 km/h
Sensor: Nr:Datum:Temp:Abs-Feuchte:Windchill:Wind:
Aussen-T/F 51 29-11-2008 10:06:03 1.5 C 4.3 g/m*3 1.5 C 0 km/h
52 29-11-2008 10:18:02 1.6 C 4.27 g/m*3 1.6 C 0 km/h
53 29-11-2008 10:30:02 1.6 C 4.27 g/m*3 1.6 C 0 km/h
54 29-11-2008 10:42:02 1.9 C 4.3 g/m*3 1.9 C 0 km/h
55 29-11-2008 10:54:02 2.3 C 4.37 g/m*3 2.3 C 0 km/h
56 29-11-2008 11:06:02 2.4 C 4.23 g/m*3 2.4 C 0 km/h
57 29-11-2008 11:18:03 2.3 C 4.14 g/m*3 2.3 C 0 km/h
58 29-11-2008 11:30:03 2.2 C 4.11 g/m*3 2.2 C 0 km/h
59 29-11-2008 11:42:02 2.3 C 4.2 g/m*3 2.3 C 0 km/h
60 29-11-2008 11:54:02 2.3 C 4.2 g/m*3 2.3 C 0 km/h
61 29-11-2008 12:06:02 2.4 C 4.28 g/m*3 2.4 C 0 km/h
62 29-11-2008 12:18:02 2.8 C 4.4 g/m*3 2.8 C 0 km/h
63 29-11-2008 12:30:02 3.3 C 4.43 g/m*3 3.3 C 0 km/h
64 29-11-2008 12:42:02 3.8 C 4.45 g/m*3 3.8 C 0 km/h
65 29-11-2008 12:54:02 4.4 C 4.37 g/m*3 4.4 C 0 km/h
66 29-11-2008 13:06:02 4.7 C 4.33 g/m*3 4.7 C 0 km/h
67 29-11-2008 13:18:02 4.7 C 4.13 g/m*3 4.7 C 0 km/h
68 29-11-2008 13:30:02 4.5 C 4.14 g/m*3 4.5 C 0 km/h
69 29-11-2008 13:42:02 4.3 C 4.09 g/m*3 4.3 C 0 km/h
70 29-11-2008 13:54:02 4.4 C 4.11 g/m*3 4.4 C 0 km/h
71 29-11-2008 14:06:03 4.5 C 4.14 g/m*3 4.5 C 0 km/h
72 29-11-2008 14:18:02 4.6 C 4.17 g/m*3 4.6 C 0 km/h
73 29-11-2008 14:30:02 4.6 C 4.17 g/m*3 4.6 C 0 km/h
74 29-11-2008 14:42:02 4.5 C 4.21 g/m*3 4.5 C 0 km/h
75 29-11-2008 14:54:02 4.5 C 4.27 g/m*3 4.5 C 0 km/h
Sensor: Nr:Datum:Temp:Abs-Feuchte:Windchill:Wind:
Aussen-T/F 76 29-11-2008 15:06:02 4.1 C 4.29 g/m*3 4.1 C 0 km/h
77 29-11-2008 15:18:02 3.7 C 4.24 g/m*3 3.7 C 0 km/h
78 29-11-2008 15:30:02 3.4 C 4.34 g/m*3 3.4 C 0 km/h
79 29-11-2008 15:42:03 3.2 C 4.28 g/m*3 3.2 C 0 km/h
80 29-11-2008 15:54:03 2.8 C 4.28 g/m*3 2.8 C 0 km/h
81 29-11-2008 16:06:03 2.6 C 4.28 g/m*3 2.6 C 0 km/h
82 29-11-2008 16:18:02 2.4 C 4.28 g/m*3 2.4 C 0 km/h
83 29-11-2008 16:30:02 2.2 C 4.28 g/m*3 2.2 C 0 km/h
84 29-11-2008 16:42:03 1.9 C 4.3 g/m*3 1.9 C 0 km/h
85 29-11-2008 16:54:04 1.8 C 4.33 g/m*3 1.8 C 0 km/h
86 29-11-2008 17:06:04 1.7 C 4.3 g/m*3 1.7 C 0 km/h
87 29-11-2008 17:18:02 1.5 C 4.3 g/m*3 1.5 C 0 km/h
88 29-11-2008 17:30:02 1.4 C 4.27 g/m*3 1.4 C 0 km/h
89 29-11-2008 17:42:03 1.7 C 4.41 g/m*3 1.7 C 0 km/h
90 29-11-2008 17:54:02 1.5 C 4.35 g/m*3 1.5 C 0 km/h
91 29-11-2008 18:06:02 1.4 C 4.32 g/m*3 1.4 C 0 km/h
92 29-11-2008 18:18:02 1.1 C 4.23 g/m*3 1.1 C 0 km/h
93 29-11-2008 18:30:02 0.8 C 4.25 g/m*3 0.8 C 0 km/h
94 29-11-2008 18:42:03 0.5 C 4.21 g/m*3 0.5 C 0 km/h
95 29-11-2008 18:54:02 0.4 C 4.23 g/m*3 0.4 C 0 km/h
96 29-11-2008 19:06:02 0.3 C 4.25 g/m*3 0.3 C 0 km/h
97 29-11-2008 19:18:02 0.2 C 4.27 g/m*3 0.2 C 0 km/h
98 29-11-2008 19:30:02 0 C 4.22 g/m*3 0 C 0 km/h
99 29-11-2008 19:42:02 0.1 C 4.29 g/m*3 0.1 C 0 km/h
100 29-11-2008 19:54:02 -0.2 C 4.21 g/m*3 -0.2 C 0 km/h
Sensor: Nr:Datum:Temp:Abs-Feuchte:Windchill:Wind:
Aussen-T/F 101 29-11-2008 20:06:03 -0.2 C 4.21 g/m*3 -0.2 C 0 km/h
102 29-11-2008 20:18:02 -0.4 C 4.19 g/m*3 -0.4 C 0 km/h
103 29-11-2008 20:30:02 -0.5 C 4.17 g/m*3 -0.5 C 0 km/h
104 29-11-2008 20:42:02 -0.5 C 4.17 g/m*3 -0.5 C 0 km/h
105 29-11-2008 20:54:02 -0.6 C 4.18 g/m*3 -0.6 C 0 km/h
106 29-11-2008 21:06:03 -0.6 C 4.18 g/m*3 -0.6 C 0 km/h
107 29-11-2008 21:18:02 -0.7 C 4.15 g/m*3 -0.7 C 0 km/h
108 29-11-2008 21:30:02 -0.7 C 4.2 g/m*3 -0.7 C 0 km/h
109 29-11-2008 21:42:02 -1 C 4.07 g/m*3 -1 C 0 km/h
110 29-11-2008 21:54:01 -1 C 4.11 g/m*3 -1 C 0 km/h
111 29-11-2008 22:06:02 -0.9 C 4.14 g/m*3 -0.9 C 0 km/h
112 29-11-2008 22:18:02 -0.9 C 4.14 g/m*3 -0.9 C 0 km/h
113 29-11-2008 22:30:02 -1.1 C 4.09 g/m*3 -1.1 C 0 km/h
114 29-11-2008 22:42:02 -1.2 C 4.06 g/m*3 -1.2 C 0 km/h
115 29-11-2008 22:54:02 -1.2 C 4.1 g/m*3 -1.2 C 0 km/h
116 29-11-2008 23:06:04 -1.3 C 4.03 g/m*3 -1.3 C 0 km/h
117 29-11-2008 23:18:02 -1.4 C 4 g/m*3 -1.4 C 0 km/h
118 29-11-2008 23:30:02 -1.4 C 4.04 g/m*3 -1.4 C 0 km/h
119 29-11-2008 23:42:02 -1.4 C 4.04 g/m*3 -1.4 C 0 km/h
120 29-11-2008 23:54:02 -1.6 C 3.99 g/m*3 -1.6 C 0 km/h
121 30-11-2008 00:06:02 -1.6 C 3.99 g/m*3 -1.6 C 0 km/h
122 30-11-2008 00:18:02 -1.5 C 4.02 g/m*3 -1.5 C 0 km/h
123 30-11-2008 00:30:02 -1.5 C 4.06 g/m*3 -1.5 C 0 km/h
124 30-11-2008 00:42:02 -1.4 C 4.09 g/m*3 -1.4 C 0 km/h
125 30-11-2008 00:54:01 -1.5 C 4.06 g/m*3 -1.5 C 0 km/h
Sensor: Nr:Datum:Temp:Abs-Feuchte:Windchill:Wind:
Aussen-T/F 126 30-11-2008 01:06:02 -1.5 C 4.06 g/m*3 -1.5 C 0 km/h
127 30-11-2008 01:18:01 -1.6 C 4.03 g/m*3 -1.6 C 0 km/h
128 30-11-2008 01:30:01 -1.7 C 4 g/m*3 -1.7 C 0 km/h
129 30-11-2008 01:42:02 -1.7 C 4 g/m*3 -1.7 C 0 km/h
130 30-11-2008 01:54:02 -1.8 C 3.98 g/m*3 -1.8 C 0 km/h
131 30-11-2008 02:06:02 -1.7 C 4 g/m*3 -1.7 C 0 km/h
132 30-11-2008 02:18:02 -1.6 C 4.03 g/m*3 -1.6 C 0 km/h
133 30-11-2008 02:30:02 -1.5 C 4.06 g/m*3 -1.5 C 0 km/h
134 30-11-2008 02:42:02 -1.4 C 4.09 g/m*3 -1.4 C 0 km/h
135 30-11-2008 02:55:04 -1.5 C 4.06 g/m*3 -1.5 C 0 km/h
136 30-11-2008 03:07:04 -1.3 C 4.16 g/m*3 -1.3 C 0 km/h
137 30-11-2008 03:19:03 -1.2 C 4.19 g/m*3 -1.2 C 0 km/h
138 30-11-2008 03:31:02 -1.1 C 4.22 g/m*3 -1.1 C 0 km/h
139 30-11-2008 03:43:02 -1.1 C 4.22 g/m*3 -1.1 C 0 km/h
140 30-11-2008 03:55:02 -1.1 C 4.22 g/m*3 -1.1 C 0 km/h
141 30-11-2008 04:07:01 -1 C 4.25 g/m*3 -1 C 0 km/h
142 30-11-2008 04:19:02 -1 C 4.25 g/m*3 -1 C 0 km/h
143 30-11-2008 04:31:01 -0.9 C 4.28 g/m*3 -0.9 C 0 km/h
144 30-11-2008 04:43:01 -0.6 C 4.37 g/m*3 -0.6 C 0 km/h
145 30-11-2008 04:55:02 -0.6 C 4.37 g/m*3 -0.6 C 0 km/h
146 30-11-2008 05:07:01 -0.5 C 4.4 g/m*3 -0.5 C 0 km/h
147 30-11-2008 05:19:02 -0.3 C 4.46 g/m*3 -0.3 C 0 km/h
148 30-11-2008 05:31:01 0 C 4.55 g/m*3 0 C 0 km/h
149 30-11-2008 05:43:01 0.4 C 4.43 g/m*3 0.4 C 0 km/h
150 30-11-2008 05:55:02 0.2 C 4.32 g/m*3 0.2 C 0 km/h
Sensor: Nr:Datum:Temp:Abs-Feuchte:Windchill:Wind:
Aussen-T/F 151 30-11-2008 06:07:01 0.2 C 4.27 g/m*3 0.2 C 0 km/h
152 30-11-2008 06:19:02 0.2 C 4.32 g/m*3 0.2 C 0 km/h
153 30-11-2008 06:31:01 0.3 C 4.35 g/m*3 0.3 C 0 km/h
154 30-11-2008 06:43:01 0.3 C 4.35 g/m*3 0.3 C 0 km/h
155 30-11-2008 06:55:02 0.3 C 4.35 g/m*3 0.3 C 0 km/h
156 30-11-2008 07:07:02 0.3 C 4.35 g/m*3 0.3 C 0 km/h
157 30-11-2008 07:19:03 0.2 C 4.37 g/m*3 0.2 C 0 km/h
158 30-11-2008 07:31:02 0.2 C 4.37 g/m*3 0.2 C 0 km/h
159 30-11-2008 07:43:02 0.2 C 4.42 g/m*3 0.2 C 0 km/h
160 30-11-2008 07:55:02 0.2 C 4.47 g/m*3 0.2 C 0 km/h
161 30-11-2008 08:07:02 0.2 C 4.47 g/m*3 0.2 C 0 km/h
162 30-11-2008 08:19:02 0.2 C 4.47 g/m*3 0.2 C 0 km/h
163 30-11-2008 08:31:02 0.3 C 4.55 g/m*3 0.3 C 0 km/h
164 30-11-2008 08:43:02 0.3 C 4.55 g/m*3 0.3 C 0 km/h
165 30-11-2008 08:55:01 0.4 C 4.58 g/m*3 0.4 C 0 km/h
166 30-11-2008 09:07:02 0.5 C 4.61 g/m*3 0.5 C 0 km/h
167 30-11-2008 09:19:01 0.7 C 4.68 g/m*3 0.7 C 0 km/h
168 30-11-2008 09:31:01 1.2 C 4.79 g/m*3 1.2 C 0 km/h
169 30-11-2008 09:43:01 1.4 C 4.85 g/m*3 1.4 C 0 km/h
170 30-11-2008 09:55:02 1.2 C 4.74 g/m*3 1.2 C 0 km/h
171 30-11-2008 10:07:01 1 C 4.67 g/m*3 1 C 0 km/h
172 30-11-2008 10:19:02 1.3 C 4.82 g/m*3 1.3 C 0 km/h
173 30-11-2008 10:31:02 1.8 C 4.93 g/m*3 1.8 C 0 km/h
174 30-11-2008 10:43:02 2.2 C 5.01 g/m*3 2.2 C 0 km/h
175 30-11-2008 10:55:02 2.4 C 5.08 g/m*3 2.4 C 0 km/h
Sensor: Nr:Datum:Temp:Abs-Feuchte:Windchill:Wind:
Aussen-T/F 176 30-11-2008 11:07:02 2 C 4.89 g/m*3 2 C 0 km/h
177 30-11-2008 11:19:02 2.1 C 4.87 g/m*3 2.1 C 0 km/h
178 30-11-2008 11:31:02 2.3 C 4.93 g/m*3 2.3 C 0 km/h
179 30-11-2008 11:43:02 2.3 C 4.82 g/m*3 2.3 C 0 km/h
180 30-11-2008 11:55:02 2.3 C 4.82 g/m*3 2.3 C 0 km/h
181 30-11-2008 12:07:02 2.1 C 4.76 g/m*3 2.1 C 0 km/h
182 30-11-2008 12:19:01 2.1 C 4.81 g/m*3 2.1 C 0 km/h
183 30-11-2008 12:31:01 2.3 C 4.93 g/m*3 2.3 C 0 km/h
184 30-11-2008 12:43:01 2.6 C 5.09 g/m*3 2.6 C 0 km/h
185 30-11-2008 12:55:01 3.6 C 5.45 g/m*3 3.6 C 0 km/h
186 30-11-2008 13:07:01 3.9 C 5.49 g/m*3 3.9 C 0 km/h
187 30-11-2008 13:19:02 4.3 C 5.58 g/m*3 4.3 C 0 km/h
188 30-11-2008 13:31:01 4.3 C 5.58 g/m*3 4.3 C 0 km/h
189 30-11-2008 13:43:02 4.1 C 5.5 g/m*3 4.1 C 0 km/h
190 30-11-2008 13:55:03 4.2 C 5.61 g/m*3 4.2 C 0 km/h
191 30-11-2008 14:07:02 4.3 C 5.64 g/m*3 4.3 C 0 km/h
192 30-11-2008 14:19:03 4.3 C 5.64 g/m*3 4.3 C 0 km/h
193 30-11-2008 14:31:05 4.7 C 5.8 g/m*3 4.7 C 0 km/h
194 30-11-2008 14:43:05 4.5 C 5.65 g/m*3 4.5 C 0 km/h
195 30-11-2008 14:55:02 4.4 C 5.55 g/m*3 4.4 C 0 km/h
196 30-11-2008 15:07:05 4.2 C 5.48 g/m*3 4.2 C 0 km/h
197 30-11-2008 15:19:03 4.1 C 5.44 g/m*3 4.1 C 0 km/h
198 30-11-2008 15:31:03 4.1 C 5.44 g/m*3 4.1 C 0 km/h
199 30-11-2008 15:43:03 4 C 5.34 g/m*3 4 C 0 km/h
200 30-11-2008 15:55:02 4 C 5.28 g/m*3 4 C 0 km/h
Sensor: Nr:Datum:Temp:Abs-Feuchte:Windchill:Wind:
Aussen-T/F 201 30-11-2008 16:07:03 3.8 C 5.21 g/m*3 3.8 C 0 km/h
202 30-11-2008 16:19:03 3.8 C 5.21 g/m*3 3.8 C 0 km/h
203 30-11-2008 16:31:09 3.9 C 5.18 g/m*3 3.9 C 0 km/h
204 30-11-2008 16:43:09 3.8 C 5.14 g/m*3 3.8 C 0 km/h
205 30-11-2008 16:55:05 3.9 C 5.18 g/m*3 3.9 C 0 km/h
206 30-11-2008 17:07:05 3.9 C 5.18 g/m*3 3.9 C 0 km/h
207 30-11-2008 17:19:03 3.8 C 5.08 g/m*3 3.8 C 0 km/h
208 30-11-2008 17:31:07 3 C 4.93 g/m*3 3 C 0 km/h
209 30-11-2008 17:43:07 2.4 C 4.85 g/m*3 2.4 C 0 km/h
210 30-11-2008 17:55:03 2.1 C 4.87 g/m*3 2.1 C 0 km/h
211 30-11-2008 18:07:07 1.7 C 4.79 g/m*3 1.7 C 0 km/h
212 30-11-2008 18:19:02 1.6 C 4.81 g/m*3 1.6 C 0 km/h
213 30-11-2008 18:31:03 1.4 C 4.8 g/m*3 1.4 C 0 km/h
214 30-11-2008 18:43:03 1.3 C 4.82 g/m*3 1.3 C 0 km/h
215 30-11-2008 18:55:03 1.2 C 4.84 g/m*3 1.2 C 0 km/h
216 30-11-2008 19:07:02 1.1 C 4.81 g/m*3 1.1 C 0 km/h
217 30-11-2008 19:19:02 1 C 4.83 g/m*3 1 C 0 km/h
218 30-11-2008 19:31:01 0.8 C 4.76 g/m*3 0.8 C 0 km/h
219 30-11-2008 19:43:01 0.8 C 4.81 g/m*3 0.8 C 0 km/h
220 30-11-2008 19:55:02 0.7 C 4.78 g/m*3 0.7 C 0 km/h
221 30-11-2008 20:07:02 0.6 C 4.75 g/m*3 0.6 C 0 km/h
222 30-11-2008 20:19:02 0.6 C 4.75 g/m*3 0.6 C 0 km/h
223 30-11-2008 20:31:01 0.6 C 4.75 g/m*3 0.6 C 0 km/h
224 30-11-2008 20:43:01 0.4 C 4.68 g/m*3 0.4 C 0 km/h
225 30-11-2008 20:55:01 1.3 C 5.03 g/m*3 1.3 C 0 km/h
Sensor: Nr:Datum:Temp:Abs-Feuchte:Windchill:Wind:
Aussen-T/F 226 30-11-2008 21:07:02 1.7 C 5.17 g/m*3 1.7 C 0 km/h
227 30-11-2008 21:19:01 1.4 C 5.01 g/m*3 1.4 C 0 km/h
228 30-11-2008 21:31:02 1.5 C 5.05 g/m*3 1.5 C 0 km/h
229 30-11-2008 21:43:02 1.5 C 5.05 g/m*3 1.5 C 0 km/h
230 30-11-2008 21:55:02 1.5 C 5.05 g/m*3 1.5 C 0 km/h
231 30-11-2008 22:07:02 1.3 C 4.98 g/m*3 1.3 C 0 km/h
232 30-11-2008 22:19:02 1.2 C 4.89 g/m*3 1.2 C 0 km/h
233 30-11-2008 22:31:02 0.9 C 4.85 g/m*3 0.9 C 0 km/h
234 30-11-2008 22:43:02 0.6 C 4.7 g/m*3 0.6 C 0 km/h
235 30-11-2008 22:55:01 0.7 C 4.78 g/m*3 0.7 C 0 km/h
236 30-11-2008 23:08:02 0.6 C 4.75 g/m*3 0.6 C 0 km/h
237 30-11-2008 23:20:02 0.5 C 4.71 g/m*3 0.5 C 0 km/h
238 30-11-2008 23:32:02 0.2 C 4.62 g/m*3 0.2 C 0 km/h
239 30-11-2008 23:44:03 0.1 C 4.59 g/m*3 0.1 C 0 km/h
240 30-11-2008 23:56:03 0.2 C 4.62 g/m*3 0.2 C 0 km/h
241 01-12-2008 00:08:03 0.2 C 4.67 g/m*3 0.2 C 0 km/h
242 01-12-2008 00:20:03 0.2 C 4.67 g/m*3 0.2 C 0 km/h
243 01-12-2008 00:32:03 0.1 C 4.63 g/m*3 0.1 C 0 km/h
244 01-12-2008 00:44:03 -0.2 C 4.54 g/m*3 -0.2 C 0 km/h
245 01-12-2008 00:56:03 -0.4 C 4.48 g/m*3 -0.4 C 0 km/h
246 01-12-2008 01:08:03 -0.5 C 4.45 g/m*3 -0.5 C 0 km/h
247 01-12-2008 01:20:03 -0.5 C 4.45 g/m*3 -0.5 C 0 km/h
248 01-12-2008 01:32:03 -0.6 C 4.42 g/m*3 -0.6 C 0 km/h
249 01-12-2008 01:44:03 -0.9 C 4.32 g/m*3 -0.9 C 0 km/h
250 01-12-2008 01:56:03 -1 C 4.29 g/m*3 -1 C 0 km/h
Sensor: Nr:Datum:Temp:Abs-Feuchte:Windchill:Wind:
Aussen-T/F 251 01-12-2008 02:08:03 -1.1 C 4.26 g/m*3 -1.1 C 0 km/h
252 01-12-2008 02:20:03 -1.2 C 4.24 g/m*3 -1.2 C 0 km/h
253 01-12-2008 02:32:03 -1.2 C 4.24 g/m*3 -1.2 C 0 km/h
254 01-12-2008 02:44:03 -1.2 C 4.24 g/m*3 -1.2 C 0 km/h
255 01-12-2008 02:56:03 -1.2 C 4.24 g/m*3 -1.2 C 0 km/h
256 01-12-2008 03:08:03 -1.4 C 4.18 g/m*3 -1.4 C 0 km/h
257 01-12-2008 03:20:03 -1.5 C 4.15 g/m*3 -1.5 C 0 km/h
258 01-12-2008 03:32:04 -1.4 C 4.18 g/m*3 -1.4 C 0 km/h
259 01-12-2008 03:44:04 -1.4 C 4.18 g/m*3 -1.4 C 0 km/h
260 01-12-2008 03:56:04 -1.4 C 4.18 g/m*3 -1.4 C 0 km/h
261 01-12-2008 04:08:04 -1.4 C 4.18 g/m*3 -1.4 C 0 km/h
262 01-12-2008 04:20:04 -1.5 C 4.15 g/m*3 -1.5 C 0 km/h
263 01-12-2008 04:32:04 -1.4 C 4.18 g/m*3 -1.4 C 0 km/h
264 01-12-2008 04:44:04 -1.4 C 4.18 g/m*3 -1.4 C 0 km/h
265 01-12-2008 04:56:04 -1.4 C 4.18 g/m*3 -1.4 C 0 km/h
266 01-12-2008 05:08:04 -1.5 C 4.15 g/m*3 -1.5 C 0 km/h
267 01-12-2008 05:20:04 -1.6 C 4.12 g/m*3 -1.6 C 0 km/h
268 01-12-2008 05:32:04 -1.6 C 4.12 g/m*3 -1.6 C 0 km/h
269 01-12-2008 05:44:04 -1.7 C 4.09 g/m*3 -1.7 C 0 km/h
270 01-12-2008 05:56:04 -1.7 C 4.09 g/m*3 -1.7 C 0 km/h
271 01-12-2008 06:08:04 -1.8 C 4.06 g/m*3 -1.8 C 0 km/h
272 01-12-2008 06:20:04 -1.9 C 4.03 g/m*3 -1.9 C 0 km/h
273 01-12-2008 06:32:04 -2 C 4 g/m*3 -2 C 0 km/h
274 01-12-2008 06:44:04 -2 C 4 g/m*3 -2 C 0 km/h
275 01-12-2008 06:56:04 -2 C 4 g/m*3 -2 C 0 km/h
Sensor: Nr:Datum:Temp:Abs-Feuchte:Windchill:Wind:
Aussen-T/F 276 01-12-2008 07:08:02 -2 C 4 g/m*3 -2 C 0 km/h
277 01-12-2008 07:20:02 -2.1 C 3.98 g/m*3 -2.1 C 0 km/h
278 01-12-2008 07:32:02 -2.1 C 3.98 g/m*3 -2.1 C 0 km/h
279 01-12-2008 07:44:02 -2.1 C 3.98 g/m*3 -2.1 C 0 km/h
280 01-12-2008 07:56:02 -2 C 4 g/m*3 -2 C 0 km/h
281 01-12-2008 08:08:03 -2.1 C 3.98 g/m*3 -2.1 C 0 km/h
282 01-12-2008 08:20:02 -2.1 C 3.98 g/m*3 -2.1 C 0 km/h
283 01-12-2008 08:32:02 -2.1 C 3.98 g/m*3 -2.1 C 0 km/h
284 01-12-2008 08:44:02 -2 C 4 g/m*3 -2 C 0 km/h
285 01-12-2008 08:56:02 -2 C 4 g/m*3 -2 C 0 km/h
286 01-12-2008 09:08:02 -1.9 C 4.03 g/m*3 -1.9 C 0 km/h
287 01-12-2008 09:20:02 -1.7 C 4.09 g/m*3 -1.7 C 0 km/h
288 01-12-2008 09:32:02 -1.6 C 4.12 g/m*3 -1.6 C 0 km/h
289 01-12-2008 09:44:02 -1.3 C 4.21 g/m*3 -1.3 C 0 km/h
290 01-12-2008 09:56:02 -1.2 C 4.24 g/m*3 -1.2 C 0 km/h
291 01-12-2008 10:08:01 -1.1 C 4.26 g/m*3 -1.1 C 0 km/h
292 01-12-2008 10:20:02 -0.9 C 4.32 g/m*3 -0.9 C 0 km/h
293 01-12-2008 10:32:01 -0.7 C 4.39 g/m*3 -0.7 C 0 km/h
294 01-12-2008 10:44:01 -0.7 C 4.39 g/m*3 -0.7 C 0 km/h
295 01-12-2008 10:56:03 -0.6 C 4.42 g/m*3 -0.6 C 0 km/h
296 01-12-2008 11:08:02 -0.6 C 4.42 g/m*3 -0.6 C 0 km/h
297 01-12-2008 11:20:02 -0.4 C 4.48 g/m*3 -0.4 C 0 km/h
298 01-12-2008 11:32:02 -0.1 C 4.57 g/m*3 -0.1 C 0 km/h
299 01-12-2008 11:44:02 0.1 C 4.63 g/m*3 0.1 C 0 km/h
300 01-12-2008 11:56:02 0 C 4.6 g/m*3 0 C 0 km/h
Sensor: Nr:Datum:Temp:Abs-Feuchte:Windchill:Wind:
Aussen-T/F 301 01-12-2008 12:08:03 0 C 4.55 g/m*3 0 C 0 km/h
302 01-12-2008 12:20:02 0.4 C 4.73 g/m*3 0.4 C 0 km/h
303 01-12-2008 12:32:02 0.4 C 4.68 g/m*3 0.4 C 0 km/h
304 01-12-2008 12:44:02 0.6 C 4.7 g/m*3 0.6 C 0 km/h
305 01-12-2008 12:56:02 0.7 C 4.73 g/m*3 0.7 C 0 km/h
306 01-12-2008 13:08:01 0.9 C 4.74 g/m*3 0.9 C 0 km/h
307 01-12-2008 13:20:02 1.2 C 4.79 g/m*3 1.2 C 0 km/h
308 01-12-2008 13:32:02 1.4 C 4.8 g/m*3 1.4 C 0 km/h
309 01-12-2008 13:44:02 1.5 C 4.78 g/m*3 1.5 C 0 km/h
310 01-12-2008 13:56:02 1.6 C 4.81 g/m*3 1.6 C 0 km/h
311 01-12-2008 14:08:03 1.3 C 4.72 g/m*3 1.3 C 0 km/h
312 01-12-2008 14:20:02 1.3 C 4.72 g/m*3 1.3 C 0 km/h
313 01-12-2008 14:32:02 1.3 C 4.72 g/m*3 1.3 C 0 km/h
314 01-12-2008 14:44:02 1.3 C 4.72 g/m*3 1.3 C 0 km/h
315 01-12-2008 14:56:02 1.4 C 4.75 g/m*3 1.4 C 0 km/h
316 01-12-2008 15:08:02 1.6 C 4.81 g/m*3 1.6 C 0 km/h
317 01-12-2008 15:20:02 1.6 C 4.81 g/m*3 1.6 C 0 km/h
318 01-12-2008 15:32:01 1.8 C 4.82 g/m*3 1.8 C 0 km/h
319 01-12-2008 15:44:01 1.8 C 4.77 g/m*3 1.8 C 0 km/h
320 01-12-2008 15:56:01 1.8 C 4.77 g/m*3 1.8 C 0 km/h
321 01-12-2008 16:08:02 2 C 4.83 g/m*3 2 C 0 km/h
322 01-12-2008 16:20:01 2.1 C 4.81 g/m*3 2.1 C 0 km/h
323 01-12-2008 16:32:02 2.1 C 4.81 g/m*3 2.1 C 0 km/h
324 01-12-2008 16:44:02 2.1 C 4.81 g/m*3 2.1 C 0 km/h
325 01-12-2008 16:56:03 2 C 4.78 g/m*3 2 C 0 km/h
Sensor: Nr:Datum:Temp:Abs-Feuchte:Windchill:Wind:
Aussen-T/F 326 01-12-2008 17:08:02 2 C 4.78 g/m*3 2 C 0 km/h
327 01-12-2008 17:20:02 1.9 C 4.8 g/m*3 1.9 C 0 km/h
328 01-12-2008 17:32:02 1.7 C 4.79 g/m*3 1.7 C 0 km/h
329 01-12-2008 17:44:02 1.7 C 4.85 g/m*3 1.7 C 0 km/h
330 01-12-2008 17:56:03 1.7 C 4.85 g/m*3 1.7 C 0 km/h
331 01-12-2008 18:08:02 1.7 C 4.85 g/m*3 1.7 C 0 km/h
332 01-12-2008 18:20:02 1.6 C 4.81 g/m*3 1.6 C 0 km/h
333 01-12-2008 18:32:03 1.6 C 4.87 g/m*3 1.6 C 0 km/h
334 01-12-2008 18:44:03 1.7 C 4.9 g/m*3 1.7 C 0 km/h
335 01-12-2008 18:56:02 1.7 C 4.9 g/m*3 1.7 C 0 km/h
336 01-12-2008 19:08:02 1.7 C 4.9 g/m*3 1.7 C 0 km/h
337 01-12-2008 19:20:02 1.8 C 4.93 g/m*3 1.8 C 0 km/h
338 01-12-2008 19:32:02 2 C 4.95 g/m*3 2 C 0 km/h
339 01-12-2008 19:44:02 2 C 4.95 g/m*3 2 C 0 km/h
340 01-12-2008 19:56:01 2.1 C 4.98 g/m*3 2.1 C 0 km/h
341 01-12-2008 20:08:01 2.2 C 4.96 g/m*3 2.2 C 0 km/h
342 01-12-2008 20:20:01 2.3 C 4.99 g/m*3 2.3 C 0 km/h
343 01-12-2008 20:32:01 2.4 C 4.97 g/m*3 2.4 C 0 km/h
344 01-12-2008 20:44:01 2.3 C 4.93 g/m*3 2.3 C 0 km/h
345 01-12-2008 20:56:02 2.3 C 4.93 g/m*3 2.3 C 0 km/h
346 01-12-2008 21:08:02 2.3 C 4.93 g/m*3 2.3 C 0 km/h
347 01-12-2008 21:20:02 2.4 C 4.97 g/m*3 2.4 C 0 km/h
348 01-12-2008 21:32:02 2.4 C 4.97 g/m*3 2.4 C 0 km/h
349 01-12-2008 21:44:02 2.4 C 4.97 g/m*3 2.4 C 0 km/h
350 01-12-2008 21:56:02 2.5 C 5 g/m*3 2.5 C 0 km/h
Sensor: Nr:Datum:Temp:Abs-Feuchte:Windchill:Wind:
Aussen-T/F 351 01-12-2008 22:08:01 2.6 C 5.03 g/m*3 2.6 C 0 km/h
352 01-12-2008 22:20:01 2.6 C 5.03 g/m*3 2.6 C 0 km/h
353 01-12-2008 22:33:01 2.6 C 5.03 g/m*3 2.6 C 0 km/h
354 01-12-2008 22:45:02 2.7 C 5.07 g/m*3 2.7 C 0 km/h
355 01-12-2008 22:57:02 2.7 C 5.07 g/m*3 2.7 C 0 km/h
356 01-12-2008 23:09:02 2.7 C 5.07 g/m*3 2.7 C 0 km/h
357 01-12-2008 23:21:02 2.7 C 5.13 g/m*3 2.7 C 0 km/h
358 01-12-2008 23:33:02 2.7 C 5.13 g/m*3 2.7 C 0 km/h
359 01-12-2008 23:45:02 2.7 C 5.19 g/m*3 2.7 C 0 km/h
360 01-12-2008 23:57:02 2.7 C 5.19 g/m*3 2.7 C 0 km/h
361 02-12-2008 00:09:02 2.7 C 5.24 g/m*3 2.7 C 0 km/h
362 02-12-2008 00:21:02 2.6 C 5.27 g/m*3 2.6 C 0 km/h
363 02-12-2008 00:33:02 2.5 C 5.23 g/m*3 2.5 C 0 km/h
364 02-12-2008 00:45:02 2.5 C 5.29 g/m*3 2.5 C 0 km/h
365 02-12-2008 00:57:02 2.4 C 5.31 g/m*3 2.4 C 0 km/h
366 02-12-2008 01:09:02 2.4 C 5.31 g/m*3 2.4 C 0 km/h
367 02-12-2008 01:21:02 2.3 C 5.27 g/m*3 2.3 C 0 km/h
368 02-12-2008 01:33:02 2.3 C 5.27 g/m*3 2.3 C 0 km/h
369 02-12-2008 01:45:02 2.3 C 5.27 g/m*3 2.3 C 0 km/h
370 02-12-2008 01:57:02 2.3 C 5.27 g/m*3 2.3 C 0 km/h
371 02-12-2008 02:09:02 2.3 C 5.27 g/m*3 2.3 C 0 km/h
372 02-12-2008 02:21:02 2.3 C 5.27 g/m*3 2.3 C 0 km/h
373 02-12-2008 02:33:03 2.3 C 5.27 g/m*3 2.3 C 0 km/h
374 02-12-2008 02:45:03 2.2 C 5.29 g/m*3 2.2 C 0 km/h
375 02-12-2008 02:57:03 2.2 C 5.29 g/m*3 2.2 C 0 km/h
Sensor: Nr:Datum:Temp:Abs-Feuchte:Windchill:Wind:
Aussen-T/F 376 02-12-2008 03:09:03 2.2 C 5.29 g/m*3 2.2 C 0 km/h
377 02-12-2008 03:21:03 2.2 C 5.29 g/m*3 2.2 C 0 km/h
378 02-12-2008 03:33:03 2.2 C 5.29 g/m*3 2.2 C 0 km/h
379 02-12-2008 03:45:03 2.2 C 5.29 g/m*3 2.2 C 0 km/h
380 02-12-2008 03:57:03 2.2 C 5.29 g/m*3 2.2 C 0 km/h
381 02-12-2008 04:09:03 2.2 C 5.29 g/m*3 2.2 C 0 km/h
382 02-12-2008 04:21:03 2.2 C 5.29 g/m*3 2.2 C 0 km/h
383 02-12-2008 04:33:03 2.2 C 5.29 g/m*3 2.2 C 0 km/h
384 02-12-2008 04:45:03 2.2 C 5.29 g/m*3 2.2 C 0 km/h
385 02-12-2008 04:57:03 2.3 C 5.33 g/m*3 2.3 C 0 km/h
386 02-12-2008 05:09:03 2.3 C 5.33 g/m*3 2.3 C 0 km/h
387 02-12-2008 05:21:03 2.2 C 5.24 g/m*3 2.2 C 0 km/h
388 02-12-2008 05:33:03 2.1 C 5.26 g/m*3 2.1 C 0 km/h
389 02-12-2008 05:45:03 2.2 C 5.29 g/m*3 2.2 C 0 km/h
390 02-12-2008 05:57:03 2.2 C 5.29 g/m*3 2.2 C 0 km/h
391 02-12-2008 06:09:03 2.2 C 5.35 g/m*3 2.2 C 0 km/h
392 02-12-2008 06:21:04 2.3 C 5.39 g/m*3 2.3 C 0 km/h
393 02-12-2008 06:33:04 2.3 C 5.39 g/m*3 2.3 C 0 km/h
394 02-12-2008 06:45:04 2.3 C 5.39 g/m*3 2.3 C 0 km/h
395 02-12-2008 06:57:04 2.4 C 5.42 g/m*3 2.4 C 0 km/h
396 02-12-2008 07:09:01 2.4 C 5.42 g/m*3 2.4 C 0 km/h
397 02-12-2008 07:21:01 2.4 C 5.42 g/m*3 2.4 C 0 km/h
398 02-12-2008 07:33:01 2.3 C 5.39 g/m*3 2.3 C 0 km/h
399 02-12-2008 07:45:02 2.3 C 5.39 g/m*3 2.3 C 0 km/h
400 02-12-2008 07:57:03 2.3 C 5.39 g/m*3 2.3 C 0 km/h
Sensor: Nr:Datum:Temp:Abs-Feuchte:Windchill:Wind:
Aussen-T/F 401 02-12-2008 08:09:02 2.4 C 5.42 g/m*3 2.4 C 0 km/h
402 02-12-2008 08:21:02 2.4 C 5.42 g/m*3 2.4 C 0 km/h
403 02-12-2008 08:33:02 2.4 C 5.42 g/m*3 2.4 C 0 km/h
404 02-12-2008 08:45:02 2.4 C 5.42 g/m*3 2.4 C 0 km/h
405 02-12-2008 08:57:02 2.5 C 5.46 g/m*3 2.5 C 0 km/h
406 02-12-2008 09:09:02 2.6 C 5.5 g/m*3 2.6 C 0 km/h
407 02-12-2008 09:21:02 2.6 C 5.5 g/m*3 2.6 C 0 km/h
408 02-12-2008 09:33:02 2.7 C 5.54 g/m*3 2.7 C 0 km/h
409 02-12-2008 09:45:02 2.7 C 5.48 g/m*3 2.7 C 0 km/h
410 02-12-2008 09:57:02 2.8 C 5.51 g/m*3 2.8 C 0 km/h
411 02-12-2008 10:09:02 3 C 5.53 g/m*3 3 C 0 km/h
412 02-12-2008 10:21:01 3.1 C 5.57 g/m*3 3.1 C 0 km/h
413 02-12-2008 10:33:02 3.3 C 5.64 g/m*3 3.3 C 0 km/h
414 02-12-2008 10:45:02 3.3 C 5.58 g/m*3 3.3 C 0 km/h
415 02-12-2008 10:57:02 3.4 C 5.62 g/m*3 3.4 C 0 km/h
416 02-12-2008 11:09:02 3.4 C 5.56 g/m*3 3.4 C 0 km/h
417 02-12-2008 11:21:02 3.4 C 5.62 g/m*3 3.4 C 0 km/h
418 02-12-2008 11:33:02 3.6 C 5.69 g/m*3 3.6 C 0 km/h
419 02-12-2008 11:45:02 3.7 C 5.67 g/m*3 3.7 C 0 km/h
420 02-12-2008 11:57:02 3.9 C 5.75 g/m*3 3.9 C 0 km/h
421 02-12-2008 12:09:02 4.3 C 5.77 g/m*3 4.3 C 0 km/h
422 02-12-2008 12:21:02 4.3 C 5.71 g/m*3 4.3 C 0 km/h
423 02-12-2008 12:33:02 4.4 C 5.68 g/m*3 4.4 C 0 km/h
424 02-12-2008 12:45:02 4.4 C 5.62 g/m*3 4.4 C 0 km/h
425 02-12-2008 12:57:02 4.4 C 5.55 g/m*3 4.4 C 0 km/h
Sensor: Nr:Datum:Temp:Abs-Feuchte:Windchill:Wind:
Aussen-T/F 426 02-12-2008 13:09:02 4.4 C 5.55 g/m*3 4.4 C 0 km/h
427 02-12-2008 13:21:01 4.2 C 5.35 g/m*3 4.2 C 0 km/h
428 02-12-2008 13:33:02 4.1 C 5.18 g/m*3 4.1 C 0 km/h
429 02-12-2008 13:45:03 4.2 C 5.15 g/m*3 4.2 C 0 km/h
430 02-12-2008 13:57:03 4 C 4.96 g/m*3 4 C 0 km/h
431 02-12-2008 14:09:02 3.8 C 4.96 g/m*3 3.8 C 0 km/h
432 02-12-2008 14:21:02 3.7 C 4.92 g/m*3 3.7 C 0 km/h
433 02-12-2008 14:33:03 3.7 C 4.92 g/m*3 3.7 C 0 km/h
434 02-12-2008 14:45:02 3.7 C 4.86 g/m*3 3.7 C 0 km/h
435 02-12-2008 14:57:02 3.9 C 4.8 g/m*3 3.9 C 0 km/h
436 02-12-2008 15:09:02 4 C 4.64 g/m*3 4 C 0 km/h
437 02-12-2008 15:21:01 3.8 C 4.39 g/m*3 3.8 C 0 km/h
438 02-12-2008 15:33:02 3.7 C 4.36 g/m*3 3.7 C 0 km/h
439 02-12-2008 15:45:02 3.6 C 4.27 g/m*3 3.6 C 0 km/h
440 02-12-2008 15:57:02 3.3 C 4.31 g/m*3 3.3 C 0 km/h
441 02-12-2008 16:09:03 3.3 C 4.37 g/m*3 3.3 C 0 km/h
442 02-12-2008 16:21:03 3.3 C 4.43 g/m*3 3.3 C 0 km/h
443 02-12-2008 16:33:02 3.1 C 4.49 g/m*3 3.1 C 0 km/h
444 02-12-2008 16:45:02 2.9 C 4.55 g/m*3 2.9 C 0 km/h
445 02-12-2008 16:57:02 2.8 C 4.69 g/m*3 2.8 C 0 km/h
446 02-12-2008 17:09:02 2.9 C 4.72 g/m*3 2.9 C 0 km/h
447 02-12-2008 17:21:02 2.9 C 4.78 g/m*3 2.9 C 0 km/h
448 02-12-2008 17:33:01 3 C 4.7 g/m*3 3 C 0 km/h
449 02-12-2008 17:45:02 3.1 C 4.61 g/m*3 3.1 C 0 km/h
450 02-12-2008 17:57:02 3.1 C 4.43 g/m*3 3.1 C 0 km/h
Sensor: Nr:Datum:Temp:Abs-Feuchte:Windchill:Wind:
Aussen-T/F 451 02-12-2008 18:09:01 3 C 4.28 g/m*3 3 C 0 km/h
452 02-12-2008 18:21:02 2.9 C 4.31 g/m*3 2.9 C 0 km/h
453 02-12-2008 18:33:02 2.7 C 4.25 g/m*3 2.7 C 0 km/h
454 02-12-2008 18:45:02 2.7 C 4.31 g/m*3 2.7 C 0 km/h
455 02-12-2008 18:57:02 2.6 C 4.28 g/m*3 2.6 C 0 km/h
456 02-12-2008 19:09:03 2.6 C 4.34 g/m*3 2.6 C 0 km/h
457 02-12-2008 19:21:02 2.7 C 4.37 g/m*3 2.7 C 0 km/h
458 02-12-2008 19:33:02 2.8 C 4.4 g/m*3 2.8 C 0 km/h
459 02-12-2008 19:45:02 2.8 C 4.46 g/m*3 2.8 C 0 km/h
460 02-12-2008 19:57:02 3 C 4.4 g/m*3 3 C 0 km/h
461 02-12-2008 20:09:03 3.1 C 4.37 g/m*3 3.1 C 0 km/h
462 02-12-2008 20:21:02 3.1 C 4.37 g/m*3 3.1 C 0 km/h
463 02-12-2008 20:33:02 3 C 4.34 g/m*3 3 C 0 km/h
464 02-12-2008 20:45:02 3 C 4.22 g/m*3 3 C 0 km/h
465 02-12-2008 20:57:02 2.7 C 4.25 g/m*3 2.7 C 0 km/h
466 02-12-2008 21:09:02 2.5 C 4.2 g/m*3 2.5 C 0 km/h
467 02-12-2008 21:21:02 2.3 C 4.2 g/m*3 2.3 C 0 km/h
468 02-12-2008 21:33:02 2.2 C 4.17 g/m*3 2.2 C 0 km/h
469 02-12-2008 21:45:02 1.8 C 4.11 g/m*3 1.8 C 0 km/h
470 02-12-2008 21:57:02 1.5 C 4.08 g/m*3 1.5 C 0 km/h
471 02-12-2008 22:09:02 1.4 C 4.16 g/m*3 1.4 C 0 km/h
472 02-12-2008 22:22:05 1.8 C 4.22 g/m*3 1.8 C 0 km/h
473 02-12-2008 22:34:05 2.2 C 4.11 g/m*3 2.2 C 0 km/h
474 02-12-2008 22:46:05 2.3 C 4.08 g/m*3 2.3 C 0 km/h
475 02-12-2008 22:58:05 2.2 C 4.11 g/m*3 2.2 C 0 km/h
Sensor: Nr:Datum:Temp:Abs-Feuchte:Windchill:Wind:
Aussen-T/F 476 02-12-2008 23:10:05 2.3 C 4.08 g/m*3 2.3 C 0 km/h
477 02-12-2008 23:22:05 2.3 C 4.08 g/m*3 2.3 C 0 km/h
478 02-12-2008 23:34:05 2.5 C 4.02 g/m*3 2.5 C 0 km/h
479 02-12-2008 23:46:05 2.7 C 4.02 g/m*3 2.7 C 0 km/h
480 02-12-2008 23:58:05 2.6 C 3.99 g/m*3 2.6 C 0 km/h
481 03-12-2008 00:10:05 2.6 C 3.99 g/m*3 2.6 C 0 km/h
482 03-12-2008 00:22:05 2.7 C 4.02 g/m*3 2.7 C 0 km/h
483 03-12-2008 00:34:05 2.3 C 4.14 g/m*3 2.3 C 0 km/h
484 03-12-2008 00:46:06 1.9 C 4.36 g/m*3 1.9 C 0 km/h
485 03-12-2008 00:58:06 1.7 C 4.52 g/m*3 1.7 C 0 km/h
486 03-12-2008 01:10:06 1.8 C 4.66 g/m*3 1.8 C 0 km/h
487 03-12-2008 01:22:06 1.7 C 4.68 g/m*3 1.7 C 0 km/h
488 03-12-2008 01:34:06 1.8 C 4.77 g/m*3 1.8 C 0 km/h
489 03-12-2008 01:46:06 1.9 C 4.8 g/m*3 1.9 C 0 km/h
490 03-12-2008 01:58:06 2 C 4.78 g/m*3 2 C 0 km/h
491 03-12-2008 02:10:06 1.6 C 4.76 g/m*3 1.6 C 0 km/h
492 03-12-2008 02:22:06 1.7 C 4.85 g/m*3 1.7 C 0 km/h
493 03-12-2008 02:34:06 1.7 C 4.85 g/m*3 1.7 C 0 km/h
494 03-12-2008 02:46:06 1.7 C 4.85 g/m*3 1.7 C 0 km/h
495 03-12-2008 02:58:06 2 C 4.95 g/m*3 2 C 0 km/h
496 03-12-2008 03:10:06 1.9 C 4.97 g/m*3 1.9 C 0 km/h
497 03-12-2008 03:22:06 1.9 C 4.97 g/m*3 1.9 C 0 km/h
498 03-12-2008 03:34:06 1.9 C 4.97 g/m*3 1.9 C 0 km/h
499 03-12-2008 03:46:06 2 C 5 g/m*3 2 C 0 km/h
500 03-12-2008 03:58:06 2 C 5 g/m*3 2 C 0 km/h
Sensor: Nr:Datum:Temp:Abs-Feuchte:Windchill:Wind:
Aussen-T/F 501 03-12-2008 04:10:07 2 C 5 g/m*3 2 C 0 km/h
502 03-12-2008 04:22:07 2 C 5 g/m*3 2 C 0 km/h
503 03-12-2008 04:34:07 2 C 5.06 g/m*3 2 C 0 km/h
504 03-12-2008 04:46:07 2 C 5.06 g/m*3 2 C 0 km/h
505 03-12-2008 04:58:07 2 C 5.06 g/m*3 2 C 0 km/h
506 03-12-2008 05:10:07 2 C 5.06 g/m*3 2 C 0 km/h
507 03-12-2008 05:22:07 2 C 5.06 g/m*3 2 C 0 km/h
508 03-12-2008 05:34:07 2 C 5.06 g/m*3 2 C 0 km/h
509 03-12-2008 05:46:07 2 C 5.11 g/m*3 2 C 0 km/h
510 03-12-2008 05:58:07 2.2 C 5.18 g/m*3 2.2 C 0 km/h
511 03-12-2008 06:10:07 2.1 C 5.09 g/m*3 2.1 C 0 km/h
512 03-12-2008 06:22:07 2.1 C 5.09 g/m*3 2.1 C 0 km/h
513 03-12-2008 06:34:05 2.1 C 5.09 g/m*3 2.1 C 0 km/h
514 03-12-2008 06:46:03 2.1 C 5.09 g/m*3 2.1 C 0 km/h
515 03-12-2008 06:58:03 2.1 C 5.09 g/m*3 2.1 C 0 km/h
516 03-12-2008 07:10:03 2.1 C 5.09 g/m*3 2.1 C 0 km/h
517 03-12-2008 07:22:03 2.1 C 5.09 g/m*3 2.1 C 0 km/h
518 03-12-2008 07:34:02 2.1 C 5.09 g/m*3 2.1 C 0 km/h
519 03-12-2008 07:46:02 2.1 C 5.09 g/m*3 2.1 C 0 km/h
520 03-12-2008 07:58:02 2.1 C 5.09 g/m*3 2.1 C 0 km/h
521 03-12-2008 08:10:01 2.1 C 5.09 g/m*3 2.1 C 0 km/h
522 03-12-2008 08:22:02 2 C 5.06 g/m*3 2 C 0 km/h
523 03-12-2008 08:34:01 2 C 5.06 g/m*3 2 C 0 km/h
524 03-12-2008 08:46:01 2.1 C 5.09 g/m*3 2.1 C 0 km/h
525 03-12-2008 08:58:01 2.1 C 5.04 g/m*3 2.1 C 0 km/h
Sensor: Nr:Datum:Temp:Abs-Feuchte:Windchill:Wind:
Aussen-T/F 526 03-12-2008 09:10:02 2.1 C 5.04 g/m*3 2.1 C 0 km/h
527 03-12-2008 09:22:02 2.2 C 5.07 g/m*3 2.2 C 0 km/h
528 03-12-2008 09:34:02 2.2 C 5.07 g/m*3 2.2 C 0 km/h
529 03-12-2008 09:46:02 2.2 C 5.07 g/m*3 2.2 C 0 km/h
530 03-12-2008 09:58:02 2.3 C 5.1 g/m*3 2.3 C 0 km/h
531 03-12-2008 10:10:03 2.4 C 5.14 g/m*3 2.4 C 0 km/h
532 03-12-2008 10:22:02 2.4 C 5.08 g/m*3 2.4 C 0 km/h
533 03-12-2008 10:34:02 2.5 C 5.12 g/m*3 2.5 C 0 km/h
534 03-12-2008 10:46:02 2.6 C 5.15 g/m*3 2.6 C 0 km/h
535 03-12-2008 10:58:02 2.6 C 5.15 g/m*3 2.6 C 0 km/h
536 03-12-2008 11:10:01 2.7 C 5.19 g/m*3 2.7 C 0 km/h
537 03-12-2008 11:22:02 2.7 C 5.19 g/m*3 2.7 C 0 km/h
538 03-12-2008 11:34:01 2.8 C 5.28 g/m*3 2.8 C 0 km/h
539 03-12-2008 11:46:02 2.7 C 5.24 g/m*3 2.7 C 0 km/h
540 03-12-2008 11:58:02 2.7 C 5.24 g/m*3 2.7 C 0 km/h
541 03-12-2008 12:10:01 2.7 C 5.24 g/m*3 2.7 C 0 km/h
542 03-12-2008 12:22:02 2.7 C 5.24 g/m*3 2.7 C 0 km/h
543 03-12-2008 12:34:01 2.7 C 5.3 g/m*3 2.7 C 0 km/h
544 03-12-2008 12:46:01 2.7 C 5.36 g/m*3 2.7 C 0 km/h
545 03-12-2008 12:58:01 2.7 C 5.36 g/m*3 2.7 C 0 km/h
546 03-12-2008 13:10:01 2.6 C 5.32 g/m*3 2.6 C 0 km/h
547 03-12-2008 13:22:01 2.6 C 5.32 g/m*3 2.6 C 0 km/h
548 03-12-2008 13:34:01 2.5 C 5.29 g/m*3 2.5 C 0 km/h
549 03-12-2008 13:46:01 2.6 C 5.32 g/m*3 2.6 C 0 km/h
550 03-12-2008 13:58:01 2.6 C 5.32 g/m*3 2.6 C 0 km/h
Sensor: Nr:Datum:Temp:Abs-Feuchte:Windchill:Wind:
Aussen-T/F 551 03-12-2008 14:10:02 2.6 C 5.27 g/m*3 2.6 C 0 km/h
552 03-12-2008 14:22:01 2.6 C 5.32 g/m*3 2.6 C 0 km/h
553 03-12-2008 14:34:01 2.2 C 5.13 g/m*3 2.2 C 0 km/h
554 03-12-2008 14:46:02 1.9 C 5.02 g/m*3 1.9 C 0 km/h
555 03-12-2008 14:58:02 2 C 5.06 g/m*3 2 C 0 km/h
556 03-12-2008 15:10:02 2 C 5.06 g/m*3 2 C 0 km/h
557 03-12-2008 15:22:01 2 C 5.11 g/m*3 2 C 0 km/h
558 03-12-2008 15:34:02 2.1 C 5.15 g/m*3 2.1 C 0 km/h
559 03-12-2008 15:46:02 2 C 5.11 g/m*3 2 C 0 km/h
560 03-12-2008 15:58:03 2 C 5.17 g/m*3 2 C 0 km/h
561 03-12-2008 16:10:02 2 C 5.17 g/m*3 2 C 0 km/h
562 03-12-2008 16:22:02 1.9 C 5.13 g/m*3 1.9 C 0 km/h
563 03-12-2008 16:34:02 1.9 C 5.13 g/m*3 1.9 C 0 km/h
564 03-12-2008 16:46:02 1.9 C 5.13 g/m*3 1.9 C 0 km/h
565 03-12-2008 16:58:02 1.8 C 5.1 g/m*3 1.8 C 0 km/h
566 03-12-2008 17:10:01 1.8 C 5.1 g/m*3 1.8 C 0 km/h
567 03-12-2008 17:22:02 1.7 C 5.06 g/m*3 1.7 C 0 km/h
568 03-12-2008 17:34:01 1.7 C 5.06 g/m*3 1.7 C 0 km/h
569 03-12-2008 17:46:01 1.7 C 5.06 g/m*3 1.7 C 0 km/h
570 03-12-2008 17:58:01 1.6 C 4.97 g/m*3 1.6 C 0 km/h
571 03-12-2008 18:10:02 1.6 C 4.97 g/m*3 1.6 C 0 km/h
572 03-12-2008 18:22:01 1.6 C 4.97 g/m*3 1.6 C 0 km/h
573 03-12-2008 18:34:01 1.7 C 5.01 g/m*3 1.7 C 0 km/h
574 03-12-2008 18:46:03 1.6 C 4.92 g/m*3 1.6 C 0 km/h
575 03-12-2008 18:58:03 1.5 C 4.83 g/m*3 1.5 C 0 km/h
Sensor: Nr:Datum:Temp:Abs-Feuchte:Windchill:Wind:
Aussen-T/F 576 03-12-2008 19:10:02 1.6 C 4.81 g/m*3 1.6 C 0 km/h
577 03-12-2008 19:22:03 1.5 C 4.73 g/m*3 1.5 C 0 km/h
578 03-12-2008 19:34:02 1.4 C 4.64 g/m*3 1.4 C 0 km/h
579 03-12-2008 19:46:02 1.3 C 4.45 g/m*3 1.3 C 0 km/h
580 03-12-2008 19:58:02 1.3 C 4.4 g/m*3 1.3 C 0 km/h
581 03-12-2008 20:10:02 1.4 C 4.43 g/m*3 1.4 C 0 km/h
582 03-12-2008 20:22:02 1.4 C 4.43 g/m*3 1.4 C 0 km/h
583 03-12-2008 20:34:03 0.9 C 4.38 g/m*3 0.9 C 0 km/h
584 03-12-2008 20:46:02 0.6 C 4.34 g/m*3 0.6 C 0 km/h
585 03-12-2008 20:58:02 0.5 C 4.41 g/m*3 0.5 C 0 km/h
586 03-12-2008 21:10:02 0.2 C 4.32 g/m*3 0.2 C 0 km/h
587 03-12-2008 21:22:02 0.2 C 4.37 g/m*3 0.2 C 0 km/h
588 03-12-2008 21:34:02 0.2 C 4.42 g/m*3 0.2 C 0 km/h
589 03-12-2008 21:46:02 0.3 C 4.5 g/m*3 0.3 C 0 km/h
590 03-12-2008 21:58:02 0.2 C 4.47 g/m*3 0.2 C 0 km/h
591 03-12-2008 22:10:01 0.1 C 4.44 g/m*3 0.1 C 0 km/h
592 03-12-2008 22:22:02 -0.1 C 4.38 g/m*3 -0.1 C 0 km/h
593 03-12-2008 22:34:02 0 C 4.46 g/m*3 0 C 0 km/h
594 03-12-2008 22:47:01 -0.3 C 4.37 g/m*3 -0.3 C 0 km/h
595 03-12-2008 22:59:01 -0.3 C 4.41 g/m*3 -0.3 C 0 km/h
596 03-12-2008 23:11:01 -0.1 C 4.52 g/m*3 -0.1 C 0 km/h
597 03-12-2008 23:23:02 0 C 4.55 g/m*3 0 C 0 km/h
598 03-12-2008 23:35:02 0.2 C 4.67 g/m*3 0.2 C 0 km/h
599 03-12-2008 23:47:02 0.3 C 4.7 g/m*3 0.3 C 0 km/h
600 03-12-2008 23:59:02 0.2 C 4.62 g/m*3 0.2 C 0 km/h
Sensor: Nr:Datum:Temp:Abs-Feuchte:Windchill:Wind:
Aussen-T/F 601 04-12-2008 00:11:02 0.2 C 4.62 g/m*3 0.2 C 0 km/h
602 04-12-2008 00:23:02 0.1 C 4.59 g/m*3 0.1 C 0 km/h
603 04-12-2008 00:35:02 -0.2 C 4.44 g/m*3 -0.2 C 0 km/h
604 04-12-2008 00:47:02 -0.1 C 4.47 g/m*3 -0.1 C 0 km/h
605 04-12-2008 00:59:02 -0.2 C 4.44 g/m*3 -0.2 C 0 km/h
606 04-12-2008 01:11:02 -0.3 C 4.41 g/m*3 -0.3 C 0 km/h
607 04-12-2008 01:23:02 -0.2 C 4.44 g/m*3 -0.2 C 0 km/h
608 04-12-2008 01:35:02 -0.4 C 4.34 g/m*3 -0.4 C 0 km/h
609 04-12-2008 01:47:02 -0.4 C 4.34 g/m*3 -0.4 C 0 km/h
610 04-12-2008 01:59:02 -0.3 C 4.37 g/m*3 -0.3 C 0 km/h
611 04-12-2008 02:11:02 -0.4 C 4.29 g/m*3 -0.4 C 0 km/h
612 04-12-2008 02:23:02 -0.5 C 4.26 g/m*3 -0.5 C 0 km/h
613 04-12-2008 02:35:02 -0.5 C 4.26 g/m*3 -0.5 C 0 km/h
614 04-12-2008 02:47:02 -0.5 C 4.21 g/m*3 -0.5 C 0 km/h
615 04-12-2008 02:59:02 -0.5 C 4.21 g/m*3 -0.5 C 0 km/h
616 04-12-2008 03:11:03 -0.3 C 4.27 g/m*3 -0.3 C 0 km/h
617 04-12-2008 03:23:03 -0.3 C 4.22 g/m*3 -0.3 C 0 km/h
618 04-12-2008 03:35:03 -0.3 C 4.22 g/m*3 -0.3 C 0 km/h
619 04-12-2008 03:47:03 -0.3 C 4.22 g/m*3 -0.3 C 0 km/h
620 04-12-2008 03:59:03 -0.4 C 4.15 g/m*3 -0.4 C 0 km/h
621 04-12-2008 04:11:03 -0.6 C 4.09 g/m*3 -0.6 C 0 km/h
622 04-12-2008 04:23:03 -0.7 C 4.02 g/m*3 -0.7 C 0 km/h
623 04-12-2008 04:35:03 -0.9 C 3.96 g/m*3 -0.9 C 0 km/h
624 04-12-2008 04:47:03 -1 C 3.93 g/m*3 -1 C 0 km/h
625 04-12-2008 04:59:03 -1.1 C 3.91 g/m*3 -1.1 C 0 km/h
Sensor: Nr:Datum:Temp:Abs-Feuchte:Windchill:Wind:
Aussen-T/F 626 04-12-2008 05:11:03 -0.9 C 3.96 g/m*3 -0.9 C 0 km/h
627 04-12-2008 05:23:03 -0.9 C 3.96 g/m*3 -0.9 C 0 km/h
628 04-12-2008 05:35:03 -0.8 C 3.99 g/m*3 -0.8 C 0 km/h
629 04-12-2008 05:47:03 -0.8 C 3.99 g/m*3 -0.8 C 0 km/h
630 04-12-2008 05:59:03 -0.8 C 4.03 g/m*3 -0.8 C 0 km/h
631 04-12-2008 06:11:03 -0.6 C 4.09 g/m*3 -0.6 C 0 km/h
632 04-12-2008 06:23:03 -0.6 C 4.09 g/m*3 -0.6 C 0 km/h
633 04-12-2008 06:35:03 -0.5 C 4.12 g/m*3 -0.5 C 0 km/h
634 04-12-2008 06:47:03 -0.4 C 4.15 g/m*3 -0.4 C 0 km/h
635 04-12-2008 06:59:03 -0.4 C 4.15 g/m*3 -0.4 C 0 km/h
636 04-12-2008 07:11:01 -0.4 C 4.15 g/m*3 -0.4 C 0 km/h
637 04-12-2008 07:23:02 -0.3 C 4.18 g/m*3 -0.3 C 0 km/h
638 04-12-2008 07:35:01 -0.3 C 4.13 g/m*3 -0.3 C 0 km/h
639 04-12-2008 07:47:01 -0.3 C 4.13 g/m*3 -0.3 C 0 km/h
640 04-12-2008 07:59:01 -0.3 C 4.13 g/m*3 -0.3 C 0 km/h
641 04-12-2008 08:11:02 -0.3 C 4.13 g/m*3 -0.3 C 0 km/h
642 04-12-2008 08:23:01 -0.3 C 4.13 g/m*3 -0.3 C 0 km/h
643 04-12-2008 08:35:02 -0.3 C 4.13 g/m*3 -0.3 C 0 km/h
644 04-12-2008 08:47:02 -0.4 C 4.1 g/m*3 -0.4 C 0 km/h
645 04-12-2008 08:59:03 -0.3 C 4.18 g/m*3 -0.3 C 0 km/h
646 04-12-2008 09:11:02 -0.1 C 4.23 g/m*3 -0.1 C 0 km/h
647 04-12-2008 09:23:02 0.1 C 4.29 g/m*3 0.1 C 0 km/h
648 04-12-2008 09:35:02 0.3 C 4.35 g/m*3 0.3 C 0 km/h
649 04-12-2008 09:47:02 0.6 C 4.49 g/m*3 0.6 C 0 km/h
650 04-12-2008 09:59:02 0.8 C 4.56 g/m*3 0.8 C 0 km/h
Sensor: Nr:Datum:Temp:Abs-Feuchte:Windchill:Wind:
Aussen-T/F 651 04-12-2008 10:11:02 1 C 4.57 g/m*3 1 C 0 km/h
652 04-12-2008 10:23:02 1.2 C 4.63 g/m*3 1.2 C 0 km/h
653 04-12-2008 10:35:02 1.2 C 4.68 g/m*3 1.2 C 0 km/h
654 04-12-2008 10:47:02 1.5 C 4.78 g/m*3 1.5 C 0 km/h
655 04-12-2008 10:59:02 1.9 C 4.91 g/m*3 1.9 C 0 km/h
656 04-12-2008 11:11:02 2.3 C 5.05 g/m*3 2.3 C 0 km/h
657 04-12-2008 11:23:02 2.8 C 5.22 g/m*3 2.8 C 0 km/h
658 04-12-2008 11:35:02 2.8 C 5.16 g/m*3 2.8 C 0 km/h
659 04-12-2008 11:47:02 2.9 C 5.26 g/m*3 2.9 C 0 km/h
660 04-12-2008 11:59:02 3.1 C 5.33 g/m*3 3.1 C 0 km/h
661 04-12-2008 12:11:02 3.4 C 5.5 g/m*3 3.4 C 0 km/h
662 04-12-2008 12:23:02 3.6 C 5.63 g/m*3 3.6 C 0 km/h
663 04-12-2008 12:35:02 3.7 C 5.67 g/m*3 3.7 C 0 km/h
664 04-12-2008 12:47:02 3.7 C 5.67 g/m*3 3.7 C 0 km/h
665 04-12-2008 12:59:02 3.5 C 5.6 g/m*3 3.5 C 0 km/h
666 04-12-2008 13:11:03 3.1 C 5.45 g/m*3 3.1 C 0 km/h
667 04-12-2008 13:23:02 3.1 C 5.51 g/m*3 3.1 C 0 km/h
668 04-12-2008 13:35:03 3.1 C 5.57 g/m*3 3.1 C 0 km/h
669 04-12-2008 13:47:02 3.1 C 5.57 g/m*3 3.1 C 0 km/h
670 04-12-2008 13:59:02 3.1 C 5.57 g/m*3 3.1 C 0 km/h
671 04-12-2008 14:11:02 3.2 C 5.66 g/m*3 3.2 C 0 km/h
672 04-12-2008 14:23:02 3.2 C 5.66 g/m*3 3.2 C 0 km/h
673 04-12-2008 14:35:02 3.5 C 5.78 g/m*3 3.5 C 0 km/h
674 04-12-2008 14:47:02 3.5 C 5.78 g/m*3 3.5 C 0 km/h
675 04-12-2008 14:59:03 3.5 C 5.72 g/m*3 3.5 C 0 km/h
Sensor: Nr:Datum:Temp:Abs-Feuchte:Windchill:Wind:
Aussen-T/F 676 04-12-2008 15:11:01 3.6 C 5.76 g/m*3 3.6 C 0 km/h
677 04-12-2008 15:23:02 3.5 C 5.66 g/m*3 3.5 C 0 km/h
678 04-12-2008 15:35:01 3.5 C 5.66 g/m*3 3.5 C 0 km/h
679 04-12-2008 15:47:03 3.5 C 5.66 g/m*3 3.5 C 0 km/h
680 04-12-2008 15:59:03 3.5 C 5.66 g/m*3 3.5 C 0 km/h
681 04-12-2008 16:11:02 3.6 C 5.69 g/m*3 3.6 C 0 km/h
682 04-12-2008 16:23:03 3.5 C 5.72 g/m*3 3.5 C 0 km/h
683 04-12-2008 16:35:02 3.6 C 5.76 g/m*3 3.6 C 0 km/h
684 04-12-2008 16:47:03 3.5 C 5.78 g/m*3 3.5 C 0 km/h
685 04-12-2008 16:59:03 3.6 C 5.82 g/m*3 3.6 C 0 km/h
686 04-12-2008 17:11:02 3.6 C 5.82 g/m*3 3.6 C 0 km/h
687 04-12-2008 17:23:03 3.6 C 5.82 g/m*3 3.6 C 0 km/h
688 04-12-2008 17:35:02 3.5 C 5.78 g/m*3 3.5 C 0 km/h
689 04-12-2008 17:47:01 3.6 C 5.82 g/m*3 3.6 C 0 km/h
690 04-12-2008 17:59:01 3.5 C 5.78 g/m*3 3.5 C 0 km/h
691 04-12-2008 18:11:01 3.5 C 5.78 g/m*3 3.5 C 0 km/h
692 04-12-2008 18:23:01 3.6 C 5.88 g/m*3 3.6 C 0 km/h
693 04-12-2008 18:35:01 3.6 C 5.88 g/m*3 3.6 C 0 km/h
694 04-12-2008 18:47:02 3.7 C 5.92 g/m*3 3.7 C 0 km/h
695 04-12-2008 18:59:02 3.7 C 5.92 g/m*3 3.7 C 0 km/h
696 04-12-2008 19:11:02 3.8 C 5.96 g/m*3 3.8 C 0 km/h
697 04-12-2008 19:23:02 3.8 C 5.96 g/m*3 3.8 C 0 km/h
698 04-12-2008 19:35:02 3.9 C 5.94 g/m*3 3.9 C 0 km/h
699 04-12-2008 19:47:02 4.1 C 6.02 g/m*3 4.1 C 0 km/h
700 04-12-2008 19:59:02 4.1 C 6.02 g/m*3 4.1 C 0 km/h
Sensor: Nr:Datum:Temp:Abs-Feuchte:Windchill:Wind:
Aussen-T/F 701 04-12-2008 20:11:02 4 C 5.98 g/m*3 4 C 0 km/h
702 04-12-2008 20:23:02 4 C 5.98 g/m*3 4 C 0 km/h
703 04-12-2008 20:35:02 4.1 C 6.02 g/m*3 4.1 C 0 km/h
704 04-12-2008 20:47:02 4.1 C 6.02 g/m*3 4.1 C 0 km/h
705 04-12-2008 20:59:02 4.2 C 6.06 g/m*3 4.2 C 0 km/h
706 04-12-2008 21:11:02 4.3 C 6.16 g/m*3 4.3 C 0 km/h
707 04-12-2008 21:23:02 4.2 C 6.12 g/m*3 4.2 C 0 km/h
708 04-12-2008 21:35:02 4.3 C 6.16 g/m*3 4.3 C 0 km/h
709 04-12-2008 21:47:02 4.4 C 6.2 g/m*3 4.4 C 0 km/h
710 04-12-2008 21:59:02 4.4 C 6.2 g/m*3 4.4 C 0 km/h
711 04-12-2008 22:12:03 4.6 C 6.29 g/m*3 4.6 C 0 km/h
712 04-12-2008 22:24:03 4.7 C 6.33 g/m*3 4.7 C 0 km/h
713 04-12-2008 22:36:03 4.8 C 6.37 g/m*3 4.8 C 0 km/h
714 04-12-2008 22:48:03 4.5 C 6.18 g/m*3 4.5 C 0 km/h
715 04-12-2008 23:00:03 4.6 C 6.22 g/m*3 4.6 C 0 km/h
716 04-12-2008 23:12:03 5 C 6.39 g/m*3 5 C 0 km/h
717 04-12-2008 23:24:03 5 C 6.39 g/m*3 5 C 0 km/h
718 04-12-2008 23:36:04 5 C 6.32 g/m*3 5 C 0 km/h
719 04-12-2008 23:48:04 5 C 6.32 g/m*3 5 C 0 km/h
720 05-12-2008 00:00:04 5 C 6.25 g/m*3 5 C 0 km/h
721 05-12-2008 00:12:04 5 C 6.25 g/m*3 5 C 0 km/h
722 05-12-2008 00:24:04 5 C 6.18 g/m*3 5 C 0 km/h
723 05-12-2008 00:36:04 5 C 6.18 g/m*3 5 C 0 km/h
724 05-12-2008 00:48:04 4.9 C 6.21 g/m*3 4.9 C 0 km/h
725 05-12-2008 01:00:04 4.8 C 6.17 g/m*3 4.8 C 0 km/h
Sensor: Nr:Datum:Temp:Abs-Feuchte:Windchill:Wind:
Aussen-T/F 726 05-12-2008 01:12:04 4.8 C 6.17 g/m*3 4.8 C 0 km/h
727 05-12-2008 01:24:04 4.4 C 6.01 g/m*3 4.4 C 0 km/h
728 05-12-2008 01:36:04 4.4 C 6.01 g/m*3 4.4 C 0 km/h
729 05-12-2008 01:48:04 4.6 C 6.15 g/m*3 4.6 C 0 km/h
730 05-12-2008 02:00:04 4.7 C 6.19 g/m*3 4.7 C 0 km/h
731 05-12-2008 02:12:04 4.7 C 6.26 g/m*3 4.7 C 0 km/h
732 05-12-2008 02:24:04 4.9 C 6.35 g/m*3 4.9 C 0 km/h
733 05-12-2008 02:36:04 5 C 6.32 g/m*3 5 C 0 km/h
734 05-12-2008 02:48:04 5.2 C 6.4 g/m*3 5.2 C 0 km/h
735 05-12-2008 03:00:04 4.7 C 6.19 g/m*3 4.7 C 0 km/h
736 05-12-2008 03:12:04 4.8 C 6.24 g/m*3 4.8 C 0 km/h
737 05-12-2008 03:24:04 5 C 6.32 g/m*3 5 C 0 km/h
738 05-12-2008 03:36:04 5.4 C 6.42 g/m*3 5.4 C 0 km/h
739 05-12-2008 03:48:05 5.5 C 6.39 g/m*3 5.5 C 0 km/h
740 05-12-2008 04:00:05 5.5 C 6.32 g/m*3 5.5 C 0 km/h
741 05-12-2008 04:12:05 5.2 C 6.13 g/m*3 5.2 C 0 km/h
742 05-12-2008 04:24:05 5.2 C 6.13 g/m*3 5.2 C 0 km/h
743 05-12-2008 04:36:05 4.9 C 6.08 g/m*3 4.9 C 0 km/h
744 05-12-2008 04:48:05 4.6 C 5.96 g/m*3 4.6 C 0 km/h
745 05-12-2008 05:00:05 4.4 C 5.94 g/m*3 4.4 C 0 km/h
746 05-12-2008 05:12:05 4.4 C 5.94 g/m*3 4.4 C 0 km/h
747 05-12-2008 05:24:05 4.3 C 5.9 g/m*3 4.3 C 0 km/h
748 05-12-2008 05:36:05 4.3 C 5.97 g/m*3 4.3 C 0 km/h
749 05-12-2008 05:48:05 4.4 C 6.01 g/m*3 4.4 C 0 km/h
750 05-12-2008 06:00:05 4.5 C 6.05 g/m*3 4.5 C 0 km/h
Sensor: Nr:Datum:Temp:Abs-Feuchte:Windchill:Wind:
Aussen-T/F 751 05-12-2008 06:12:05 4.6 C 6.09 g/m*3 4.6 C 0 km/h
752 05-12-2008 06:24:05 4.6 C 6.15 g/m*3 4.6 C 0 km/h
753 05-12-2008 06:36:04 4.5 C 6.11 g/m*3 4.5 C 0 km/h
754 05-12-2008 06:48:03 4.4 C 6.07 g/m*3 4.4 C 0 km/h
755 05-12-2008 07:00:03 4.4 C 6.07 g/m*3 4.4 C 0 km/h
756 05-12-2008 07:12:02 4.4 C 6.07 g/m*3 4.4 C 0 km/h
757 05-12-2008 07:24:03 4.3 C 6.03 g/m*3 4.3 C 0 km/h
758 05-12-2008 07:36:02 4.1 C 5.95 g/m*3 4.1 C 0 km/h
759 05-12-2008 07:48:02 4.1 C 5.95 g/m*3 4.1 C 0 km/h
760 05-12-2008 08:00:02 4.2 C 5.99 g/m*3 4.2 C 0 km/h
761 05-12-2008 08:12:02 4.3 C 6.03 g/m*3 4.3 C 0 km/h
762 05-12-2008 08:24:02 4.4 C 6.07 g/m*3 4.4 C 0 km/h
763 05-12-2008 08:36:02 4.3 C 6.03 g/m*3 4.3 C 0 km/h
764 05-12-2008 08:48:01 4.4 C 6.07 g/m*3 4.4 C 0 km/h
765 05-12-2008 09:00:01 4.5 C 6.11 g/m*3 4.5 C 0 km/h
766 05-12-2008 09:12:02 4.6 C 6.15 g/m*3 4.6 C 0 km/h
767 05-12-2008 09:24:01 5 C 6.18 g/m*3 5 C 0 km/h
768 05-12-2008 09:36:02 5.2 C 6.2 g/m*3 5.2 C 0 km/h
769 05-12-2008 09:48:02 5.3 C 6.17 g/m*3 5.3 C 0 km/h
770 05-12-2008 10:00:02 5.6 C 6.22 g/m*3 5.6 C 0 km/h
771 05-12-2008 10:12:02 5.7 C 6.26 g/m*3 5.7 C 0 km/h
772 05-12-2008 10:24:02 6 C 6.17 g/m*3 6 C 0 km/h
773 05-12-2008 10:36:02 6.2 C 6.03 g/m*3 6.2 C 0 km/h
774 05-12-2008 10:48:02 6.3 C 6 g/m*3 6.3 C 0 km/h
775 05-12-2008 11:00:02 6.5 C 5.85 g/m*3 6.5 C 0 km/h
Sensor: Nr:Datum:Temp:Abs-Feuchte:Windchill:Wind:
Aussen-T/F 776 05-12-2008 11:12:02 6.5 C 5.85 g/m*3 6.5 C 0 km/h
777 05-12-2008 11:24:02 6.5 C 5.85 g/m*3 6.5 C 0 km/h
778 05-12-2008 11:36:02 6.3 C 5.85 g/m*3 6.3 C 0 km/h
779 05-12-2008 11:48:01 6.1 C 5.84 g/m*3 6.1 C 0 km/h
780 05-12-2008 12:00:01 5.8 C 5.8 g/m*3 5.8 C 0 km/h
781 05-12-2008 12:12:02 5.7 C 5.84 g/m*3 5.7 C 0 km/h
782 05-12-2008 12:24:01 5.7 C 5.69 g/m*3 5.7 C 0 km/h
783 05-12-2008 12:36:02 6 C 5.66 g/m*3 6 C 0 km/h
784 05-12-2008 12:48:02 6.3 C 5.63 g/m*3 6.3 C 0 km/h
785 05-12-2008 13:00:02 6.5 C 5.62 g/m*3 6.5 C 0 km/h
786 05-12-2008 13:12:02 6.9 C 5.7 g/m*3 6.9 C 0 km/h
787 05-12-2008 13:24:02 7 C 5.58 g/m*3 7 C 0 km/h
788 05-12-2008 13:36:02 7.1 C 5.54 g/m*3 7.1 C 0 km/h
789 05-12-2008 13:48:02 7.1 C 5.46 g/m*3 7.1 C 0 km/h
790 05-12-2008 14:00:02 7.5 C 5.6 g/m*3 7.5 C 0 km/h
791 05-12-2008 14:12:02 7.5 C 5.44 g/m*3 7.5 C 0 km/h
792 05-12-2008 14:24:02 7.4 C 5.49 g/m*3 7.4 C 0 km/h
793 05-12-2008 14:36:02 7.4 C 5.49 g/m*3 7.4 C 0 km/h
794 05-12-2008 14:48:01 7.3 C 5.53 g/m*3 7.3 C 0 km/h
795 05-12-2008 15:00:01 7.4 C 5.57 g/m*3 7.4 C 0 km/h
796 05-12-2008 15:12:02 7.2 C 5.49 g/m*3 7.2 C 0 km/h
797 05-12-2008 15:24:01 7.3 C 5.53 g/m*3 7.3 C 0 km/h
798 05-12-2008 15:36:02 7.5 C 5.6 g/m*3 7.5 C 0 km/h
799 05-12-2008 15:48:02 7.4 C 5.49 g/m*3 7.4 C 0 km/h
800 05-12-2008 16:00:03 7.2 C 5.42 g/m*3 7.2 C 0 km/h
Sensor: Nr:Datum:Temp:Abs-Feuchte:Windchill:Wind:
Aussen-T/F 801 05-12-2008 16:12:02 7.1 C 5.46 g/m*3 7.1 C 0 km/h
802 05-12-2008 16:24:02 6.7 C 5.55 g/m*3 6.7 C 0 km/h
803 05-12-2008 16:36:02 6.4 C 5.59 g/m*3 6.4 C 0 km/h
804 05-12-2008 16:48:02 6.3 C 5.7 g/m*3 6.3 C 0 km/h
805 05-12-2008 17:00:02 5.9 C 5.7 g/m*3 5.9 C 0 km/h
806 05-12-2008 17:12:02 5.6 C 5.8 g/m*3 5.6 C 0 km/h
807 05-12-2008 17:24:02 5.5 C 5.97 g/m*3 5.5 C 0 km/h
808 05-12-2008 17:36:02 5.2 C 5.99 g/m*3 5.2 C 0 km/h
809 05-12-2008 17:48:03 5 C 5.98 g/m*3 5 C 0 km/h
810 05-12-2008 18:00:03 4.9 C 6.01 g/m*3 4.9 C 0 km/h
811 05-12-2008 18:12:06 4.8 C 6.04 g/m*3 4.8 C 0 km/h
812 05-12-2008 18:24:03 4.7 C 6.06 g/m*3 4.7 C 0 km/h
813 05-12-2008 18:36:06 4.6 C 6.09 g/m*3 4.6 C 0 km/h
814 05-12-2008 18:48:16 4.8 C 6.24 g/m*3 4.8 C 0 km/h
815 05-12-2008 19:00:16 5 C 6.25 g/m*3 5 C 0 km/h
816 05-12-2008 19:12:02 5 C 6.25 g/m*3 5 C 0 km/h
817 05-12-2008 19:24:02 5 C 6.25 g/m*3 5 C 0 km/h
818 05-12-2008 19:36:04 5 C 6.25 g/m*3 5 C 0 km/h
819 05-12-2008 19:48:03 5 C 6.25 g/m*3 5 C 0 km/h
820 05-12-2008 20:00:03 5 C 6.25 g/m*3 5 C 0 km/h
821 05-12-2008 20:12:03 4.7 C 6.06 g/m*3 4.7 C 0 km/h
822 05-12-2008 20:24:03 4.7 C 6.06 g/m*3 4.7 C 0 km/h
823 05-12-2008 20:36:02 4.8 C 6.1 g/m*3 4.8 C 0 km/h
824 05-12-2008 20:48:02 5 C 6.05 g/m*3 5 C 0 km/h
825 05-12-2008 21:00:03 5.1 C 6.09 g/m*3 5.1 C 0 km/h
Sensor: Nr:Datum:Temp:Abs-Feuchte:Windchill:Wind:
Aussen-T/F 826 05-12-2008 21:12:02 5.2 C 6.06 g/m*3 5.2 C 0 km/h
827 05-12-2008 21:24:02 5.1 C 6.02 g/m*3 5.1 C 0 km/h
828 05-12-2008 21:36:02 5 C 5.98 g/m*3 5 C 0 km/h
829 05-12-2008 21:48:02 4.9 C 6.01 g/m*3 4.9 C 0 km/h
830 05-12-2008 22:00:02 4.9 C 6.01 g/m*3 4.9 C 0 km/h
831 05-12-2008 22:12:02 4.9 C 6.08 g/m*3 4.9 C 0 km/h
832 05-12-2008 22:24:02 4.8 C 6.04 g/m*3 4.8 C 0 km/h
833 05-12-2008 22:37:02 4.9 C 6.14 g/m*3 4.9 C 0 km/h
834 05-12-2008 22:49:02 4.9 C 6.14 g/m*3 4.9 C 0 km/h
835 05-12-2008 23:01:02 5 C 6.12 g/m*3 5 C 0 km/h
836 05-12-2008 23:13:02 4.9 C 6.14 g/m*3 4.9 C 0 km/h
837 05-12-2008 23:25:02 4.9 C 6.14 g/m*3 4.9 C 0 km/h
838 05-12-2008 23:37:02 5 C 6.12 g/m*3 5 C 0 km/h
839 05-12-2008 23:49:02 5 C 6.05 g/m*3 5 C 0 km/h
840 06-12-2008 00:01:02 4.8 C 5.97 g/m*3 4.8 C 0 km/h
841 06-12-2008 00:13:02 4.6 C 5.89 g/m*3 4.6 C 0 km/h
842 06-12-2008 00:25:02 4.6 C 5.96 g/m*3 4.6 C 0 km/h
843 06-12-2008 00:37:02 4.6 C 6.02 g/m*3 4.6 C 0 km/h
844 06-12-2008 00:49:02 4.5 C 5.98 g/m*3 4.5 C 0 km/h
845 06-12-2008 01:01:02 4.4 C 5.88 g/m*3 4.4 C 0 km/h
846 06-12-2008 01:13:02 4.2 C 5.8 g/m*3 4.2 C 0 km/h
847 06-12-2008 01:25:02 4.1 C 5.76 g/m*3 4.1 C 0 km/h
848 06-12-2008 01:37:02 4 C 5.66 g/m*3 4 C 0 km/h
849 06-12-2008 01:49:02 4 C 5.72 g/m*3 4 C 0 km/h
850 06-12-2008 02:01:02 4.1 C 5.76 g/m*3 4.1 C 0 km/h
Sensor: Nr:Datum:Temp:Abs-Feuchte:Windchill:Wind:
Aussen-T/F 851 06-12-2008 02:13:02 4.1 C 5.76 g/m*3 4.1 C 0 km/h
852 06-12-2008 02:25:03 4.3 C 5.77 g/m*3 4.3 C 0 km/h
853 06-12-2008 02:37:03 4.4 C 5.75 g/m*3 4.4 C 0 km/h
854 06-12-2008 02:49:03 4.5 C 5.65 g/m*3 4.5 C 0 km/h
855 06-12-2008 03:01:03 4.6 C 5.62 g/m*3 4.6 C 0 km/h
856 06-12-2008 03:13:03 4.4 C 5.48 g/m*3 4.4 C 0 km/h
857 06-12-2008 03:25:03 4.2 C 5.48 g/m*3 4.2 C 0 km/h
858 06-12-2008 03:37:03 4.4 C 5.62 g/m*3 4.4 C 0 km/h
859 06-12-2008 03:49:03 4.5 C 5.59 g/m*3 4.5 C 0 km/h
860 06-12-2008 04:01:03 4.5 C 5.65 g/m*3 4.5 C 0 km/h
861 06-12-2008 04:13:03 4.5 C 5.65 g/m*3 4.5 C 0 km/h
862 06-12-2008 04:25:03 4.5 C 5.72 g/m*3 4.5 C 0 km/h
863 06-12-2008 04:37:03 4.6 C 5.69 g/m*3 4.6 C 0 km/h
864 06-12-2008 04:49:03 4.7 C 5.73 g/m*3 4.7 C 0 km/h
865 06-12-2008 05:01:03 4.7 C 5.66 g/m*3 4.7 C 0 km/h
866 06-12-2008 05:13:03 4.7 C 5.66 g/m*3 4.7 C 0 km/h
867 06-12-2008 05:25:03 4.6 C 5.62 g/m*3 4.6 C 0 km/h
868 06-12-2008 05:37:03 4.5 C 5.59 g/m*3 4.5 C 0 km/h
869 06-12-2008 05:49:03 4.8 C 5.63 g/m*3 4.8 C 0 km/h
870 06-12-2008 06:01:03 4.7 C 5.6 g/m*3 4.7 C 0 km/h
871 06-12-2008 06:13:03 4.8 C 5.63 g/m*3 4.8 C 0 km/h
872 06-12-2008 06:25:03 5 C 5.64 g/m*3 5 C 0 km/h
873 06-12-2008 06:37:04 4.8 C 5.63 g/m*3 4.8 C 0 km/h
874 06-12-2008 06:49:04 4.8 C 5.63 g/m*3 4.8 C 0 km/h
875 06-12-2008 07:01:04 4.8 C 5.63 g/m*3 4.8 C 0 km/h
Sensor: Nr:Datum:Temp:Abs-Feuchte:Windchill:Wind:
Aussen-T/F 876 06-12-2008 07:13:04 4.7 C 5.66 g/m*3 4.7 C 0 km/h
877 06-12-2008 07:25:04 4.8 C 5.7 g/m*3 4.8 C 0 km/h
878 06-12-2008 07:37:04 4.7 C 5.73 g/m*3 4.7 C 0 km/h
879 06-12-2008 07:49:04 4.6 C 5.69 g/m*3 4.6 C 0 km/h
880 06-12-2008 08:01:04 4.6 C 5.82 g/m*3 4.6 C 0 km/h
881 06-12-2008 08:13:04 4.5 C 5.78 g/m*3 4.5 C 0 km/h
882 06-12-2008 08:25:02 4.4 C 5.81 g/m*3 4.4 C 0 km/h
883 06-12-2008 08:37:02 4.4 C 5.88 g/m*3 4.4 C 0 km/h
884 06-12-2008 08:49:02 4.4 C 5.94 g/m*3 4.4 C 0 km/h
885 06-12-2008 09:01:37 4.5 C 5.98 g/m*3 4.5 C 0 km/h
886 06-12-2008 09:13:37 4.5 C 5.98 g/m*3 4.5 C 0 km/h
887 06-12-2008 09:25:37 4.5 C 5.98 g/m*3 4.5 C 0 km/h
888 06-12-2008 09:37:37 4.6 C 6.02 g/m*3 4.6 C 0 km/h
889 06-12-2008 09:49:37 4.6 C 6.02 g/m*3 4.6 C 0 km/h
890 06-12-2008 10:01:37 4.8 C 6.1 g/m*3 4.8 C 0 km/h
891 06-12-2008 10:13:37 5 C 6.12 g/m*3 5 C 0 km/h
892 06-12-2008 10:25:37 5.3 C 6.17 g/m*3 5.3 C 0 km/h
893 06-12-2008 10:37:37 5.4 C 6.07 g/m*3 5.4 C 0 km/h
894 06-12-2008 10:49:37 5.4 C 5.93 g/m*3 5.4 C 0 km/h
895 06-12-2008 11:01:37 5.4 C 5.79 g/m*3 5.4 C 0 km/h
896 06-12-2008 11:13:37 5.5 C 5.76 g/m*3 5.5 C 0 km/h
897 06-12-2008 11:25:38 5.7 C 5.84 g/m*3 5.7 C 0 km/h
898 06-12-2008 11:37:38 5.9 C 5.84 g/m*3 5.9 C 0 km/h
899 06-12-2008 11:49:38 6 C 5.66 g/m*3 6 C 0 km/h
900 06-12-2008 12:01:38 5.9 C 5.7 g/m*3 5.9 C 0 km/h
Sensor: Nr:Datum:Temp:Abs-Feuchte:Windchill:Wind:
Aussen-T/F 901 06-12-2008 12:13:38 5.7 C 5.62 g/m*3 5.7 C 0 km/h
902 06-12-2008 12:25:38 5.7 C 5.62 g/m*3 5.7 C 0 km/h
903 06-12-2008 12:37:38 5.5 C 5.62 g/m*3 5.5 C 0 km/h
904 06-12-2008 12:49:38 5.3 C 5.61 g/m*3 5.3 C 0 km/h
905 06-12-2008 13:01:38 5.2 C 5.71 g/m*3 5.2 C 0 km/h
906 06-12-2008 13:13:38 5.2 C 5.85 g/m*3 5.2 C 0 km/h
907 06-12-2008 13:25:38 5.1 C 5.75 g/m*3 5.1 C 0 km/h
908 06-12-2008 13:37:38 4.9 C 5.87 g/m*3 4.9 C 0 km/h
909 06-12-2008 13:49:38 4.9 C 5.94 g/m*3 4.9 C 0 km/h
910 06-12-2008 14:01:38 4.9 C 5.87 g/m*3 4.9 C 0 km/h
911 06-12-2008 14:13:38 5.1 C 5.95 g/m*3 5.1 C 0 km/h
912 06-12-2008 14:25:38 5.2 C 5.92 g/m*3 5.2 C 0 km/h
913 06-12-2008 14:37:38 5.3 C 5.96 g/m*3 5.3 C 0 km/h
914 06-12-2008 14:49:38 5.3 C 5.89 g/m*3 5.3 C 0 km/h
915 06-12-2008 15:01:01 5.3 C 5.89 g/m*3 5.3 C 0 km/h
916 06-12-2008 15:13:01 5.2 C 5.85 g/m*3 5.2 C 0 km/h
917 06-12-2008 15:25:02 5.2 C 5.92 g/m*3 5.2 C 0 km/h
918 06-12-2008 15:37:03 5.2 C 5.92 g/m*3 5.2 C 0 km/h
919 06-12-2008 15:49:02 5.2 C 5.92 g/m*3 5.2 C 0 km/h
920 06-12-2008 16:01:08 5 C 5.84 g/m*3 5 C 0 km/h
921 06-12-2008 16:13:08 5 C 5.91 g/m*3 5 C 0 km/h
922 06-12-2008 16:25:02 5 C 5.98 g/m*3 5 C 0 km/h
923 06-12-2008 16:37:01 5 C 5.98 g/m*3 5 C 0 km/h
924 06-12-2008 16:49:02 5 C 5.98 g/m*3 5 C 0 km/h
925 06-12-2008 17:01:01 5 C 6.05 g/m*3 5 C 0 km/h
Sensor: Nr:Datum:Temp:Abs-Feuchte:Windchill:Wind:
Aussen-T/F 926 06-12-2008 17:13:01 5 C 6.05 g/m*3 5 C 0 km/h
927 06-12-2008 17:25:01 5 C 6.05 g/m*3 5 C 0 km/h
928 06-12-2008 17:37:01 5 C 6.12 g/m*3 5 C 0 km/h
929 06-12-2008 17:49:01 5 C 6.12 g/m*3 5 C 0 km/h
930 06-12-2008 18:01:00 5 C 6.12 g/m*3 5 C 0 km/h
931 06-12-2008 18:13:00 4.9 C 6.14 g/m*3 4.9 C 0 km/h
932 06-12-2008 18:25:00 4.9 C 6.21 g/m*3 4.9 C 0 km/h
933 06-12-2008 18:37:01 4.9 C 6.21 g/m*3 4.9 C 0 km/h
934 06-12-2008 18:49:01 4.8 C 6.17 g/m*3 4.8 C 0 km/h
935 06-12-2008 19:01:00 4.7 C 6.13 g/m*3 4.7 C 0 km/h
936 06-12-2008 19:13:00 4.5 C 6.05 g/m*3 4.5 C 0 km/h
937 06-12-2008 19:25:00 4.3 C 6.03 g/m*3 4.3 C 0 km/h
938 06-12-2008 19:37:00 4 C 5.85 g/m*3 4 C 0 km/h
939 06-12-2008 19:49:00 4 C 5.85 g/m*3 4 C 0 km/h
940 06-12-2008 20:01:00 4.3 C 6.03 g/m*3 4.3 C 0 km/h
941 06-12-2008 20:13:00 4.4 C 6.14 g/m*3 4.4 C 0 km/h
942 06-12-2008 20:25:59 4.4 C 6.14 g/m*3 4.4 C 0 km/h
943 06-12-2008 20:37:00 4.4 C 6.14 g/m*3 4.4 C 0 km/h
944 06-12-2008 20:49:59 4.1 C 6.02 g/m*3 4.1 C 0 km/h
945 06-12-2008 21:01:59 3.9 C 6 g/m*3 3.9 C 0 km/h
946 06-12-2008 21:13:59 4 C 5.98 g/m*3 4 C 0 km/h
947 06-12-2008 21:25:59 4.1 C 6.08 g/m*3 4.1 C 0 km/h
948 06-12-2008 21:37:59 4.2 C 6.12 g/m*3 4.2 C 0 km/h
949 06-12-2008 21:49:58 4.3 C 6.16 g/m*3 4.3 C 0 km/h
950 06-12-2008 22:01:58 4.3 C 6.16 g/m*3 4.3 C 0 km/h
Sensor: Nr:Datum:Temp:Abs-Feuchte:Windchill:Wind:
Aussen-T/F 951 06-12-2008 22:13:58 4.4 C 6.2 g/m*3 4.4 C 0 km/h
952 06-12-2008 22:25:58 4.4 C 6.2 g/m*3 4.4 C 0 km/h
953 06-12-2008 22:37:58 4.4 C 6.2 g/m*3 4.4 C 0 km/h
954 06-12-2008 22:49:58 4.4 C 6.2 g/m*3 4.4 C 0 km/h
955 06-12-2008 23:02:58 4.4 C 6.2 g/m*3 4.4 C 0 km/h
956 06-12-2008 23:14:58 4.4 C 6.2 g/m*3 4.4 C 0 km/h
957 06-12-2008 23:26:58 4.4 C 6.2 g/m*3 4.4 C 0 km/h
958 06-12-2008 23:38:58 4.3 C 6.16 g/m*3 4.3 C 0 km/h
959 06-12-2008 23:50:58 4.3 C 6.16 g/m*3 4.3 C 0 km/h
960 07-12-2008 00:02:58 4.4 C 6.2 g/m*3 4.4 C 0 km/h
961 07-12-2008 00:14:58 4.4 C 6.2 g/m*3 4.4 C 0 km/h
962 07-12-2008 00:26:59 4.4 C 6.2 g/m*3 4.4 C 0 km/h
963 07-12-2008 00:38:59 4.4 C 6.2 g/m*3 4.4 C 0 km/h
964 07-12-2008 00:50:59 4.4 C 6.2 g/m*3 4.4 C 0 km/h
965 07-12-2008 01:02:59 4.5 C 6.24 g/m*3 4.5 C 0 km/h
966 07-12-2008 01:14:59 4.5 C 6.24 g/m*3 4.5 C 0 km/h
967 07-12-2008 01:26:59 4.5 C 6.24 g/m*3 4.5 C 0 km/h
968 07-12-2008 01:38:59 4.5 C 6.24 g/m*3 4.5 C 0 km/h
969 07-12-2008 01:50:59 4.5 C 6.24 g/m*3 4.5 C 0 km/h
970 07-12-2008 02:02:59 4.4 C 6.2 g/m*3 4.4 C 0 km/h
971 07-12-2008 02:14:59 4.4 C 6.2 g/m*3 4.4 C 0 km/h
972 07-12-2008 02:26:59 4.4 C 6.2 g/m*3 4.4 C 0 km/h
973 07-12-2008 02:38:59 4.4 C 6.2 g/m*3 4.4 C 0 km/h
974 07-12-2008 02:50:59 4.4 C 6.14 g/m*3 4.4 C 0 km/h
975 07-12-2008 03:02:59 4.4 C 6.14 g/m*3 4.4 C 0 km/h
Sensor: Nr:Datum:Temp:Abs-Feuchte:Windchill:Wind:
Aussen-T/F 976 07-12-2008 03:14:59 4.4 C 6.07 g/m*3 4.4 C 0 km/h
977 07-12-2008 03:26:59 4.3 C 6.03 g/m*3 4.3 C 0 km/h
978 07-12-2008 03:38:59 4.2 C 5.93 g/m*3 4.2 C 0 km/h
979 07-12-2008 03:50:59 4.1 C 5.95 g/m*3 4.1 C 0 km/h
980 07-12-2008 04:13:59 4.1 C 5.95 g/m*3 4.1 C 0 km/h
981 07-12-2008 04:26:00 4.1 C 6.02 g/m*3 4.1 C 0 km/h
982 07-12-2008 04:38:00 4.1 C 6.02 g/m*3 4.1 C 0 km/h
983 07-12-2008 04:50:00 4.2 C 6.06 g/m*3 4.2 C 0 km/h
984 07-12-2008 05:02:00 4.2 C 6.12 g/m*3 4.2 C 0 km/h
985 07-12-2008 05:14:00 4.2 C 6.12 g/m*3 4.2 C 0 km/h
986 07-12-2008 05:26:00 4.3 C 6.16 g/m*3 4.3 C 0 km/h
987 07-12-2008 05:38:00 4.3 C 6.16 g/m*3 4.3 C 0 km/h
988 07-12-2008 05:50:00 4.4 C 6.2 g/m*3 4.4 C 0 km/h
989 07-12-2008 06:02:00 4.4 C 6.2 g/m*3 4.4 C 0 km/h
990 07-12-2008 06:14:00 4.4 C 6.2 g/m*3 4.4 C 0 km/h
991 07-12-2008 06:26:00 4.3 C 6.16 g/m*3 4.3 C 0 km/h
992 07-12-2008 06:38:00 4.4 C 6.2 g/m*3 4.4 C 0 km/h
993 07-12-2008 06:50:00 4.4 C 6.2 g/m*3 4.4 C 0 km/h
994 07-12-2008 07:02:00 4.4 C 6.2 g/m*3 4.4 C 0 km/h
995 07-12-2008 07:14:00 4.4 C 6.2 g/m*3 4.4 C 0 km/h
996 07-12-2008 07:26:00 4.5 C 6.24 g/m*3 4.5 C 0 km/h
997 07-12-2008 07:38:00 4.5 C 6.24 g/m*3 4.5 C 0 km/h
998 07-12-2008 07:50:00 4.6 C 6.29 g/m*3 4.6 C 0 km/h
999 07-12-2008 08:02:00 4.6 C 6.29 g/m*3 4.6 C 0 km/h
1000 07-12-2008 08:14:00 4.6 C 6.29 g/m*3 4.6 C 0 km/h
Sensor: Nr:Datum:Temp:Abs-Feuchte:Windchill:Wind:
Aussen-T/F 1001 07-12-2008 08:14:02 4.7 C 6.33 g/m*3 4.7 C 0 km/h
1002 07-12-2008 08:26:02 4.7 C 6.33 g/m*3 4.7 C 0 km/h
1003 07-12-2008 08:38:03 4.7 C 6.33 g/m*3 4.7 C 0 km/h
1004 07-12-2008 08:50:02 4.7 C 6.33 g/m*3 4.7 C 0 km/h
1005 07-12-2008 09:02:03 4.8 C 6.3 g/m*3 4.8 C 0 km/h
1006 07-12-2008 09:14:03 4.8 C 6.3 g/m*3 4.8 C 0 km/h
1007 07-12-2008 09:26:02 4.8 C 6.3 g/m*3 4.8 C 0 km/h
1008 07-12-2008 09:38:02 4.8 C 6.3 g/m*3 4.8 C 0 km/h
1009 07-12-2008 09:50:01 4.8 C 6.3 g/m*3 4.8 C 0 km/h
1010 07-12-2008 10:02:02 4.8 C 6.3 g/m*3 4.8 C 0 km/h
1011 07-12-2008 10:14:02 4.8 C 6.3 g/m*3 4.8 C 0 km/h
1012 07-12-2008 10:26:02 4.8 C 6.3 g/m*3 4.8 C 0 km/h
1013 07-12-2008 10:38:01 4.8 C 6.3 g/m*3 4.8 C 0 km/h
1014 07-12-2008 10:50:01 5 C 6.32 g/m*3 5 C 0 km/h
1015 07-12-2008 11:02:01 5 C 6.32 g/m*3 5 C 0 km/h
1016 07-12-2008 11:14:01 5.1 C 6.36 g/m*3 5.1 C 0 km/h
1017 07-12-2008 11:26:01 5.3 C 6.45 g/m*3 5.3 C 0 km/h
1018 07-12-2008 11:38:01 5.3 C 6.45 g/m*3 5.3 C 0 km/h
1019 07-12-2008 11:50:01 5.7 C 6.62 g/m*3 5.7 C 0 km/h
1020 07-12-2008 12:02:01 5.6 C 6.43 g/m*3 5.6 C 0 km/h
1021 07-12-2008 12:14:01 5.8 C 6.38 g/m*3 5.8 C 0 km/h
1022 07-12-2008 12:26:00 5.7 C 6.26 g/m*3 5.7 C 0 km/h
1023 07-12-2008 12:38:01 5.9 C 6.2 g/m*3 5.9 C 0 km/h
1024 07-12-2008 12:50:00 6.1 C 6.14 g/m*3 6.1 C 0 km/h
1025 07-12-2008 13:02:00 6.1 C 6.06 g/m*3 6.1 C 0 km/h
Sensor: Nr:Datum:Temp:Abs-Feuchte:Windchill:Wind:
Aussen-T/F 1026 07-12-2008 13:14:00 6 C 6.02 g/m*3 6 C 0 km/h
1027 07-12-2008 13:26:00 6 C 6.02 g/m*3 6 C 0 km/h
1028 07-12-2008 13:38:01 5.8 C 6.09 g/m*3 5.8 C 0 km/h
1029 07-12-2008 13:50:00 6 C 6.02 g/m*3 6 C 0 km/h
1030 07-12-2008 14:02:00 5.7 C 5.91 g/m*3 5.7 C 0 km/h
1031 07-12-2008 14:14:00 5.6 C 5.94 g/m*3 5.6 C 0 km/h
1032 07-12-2008 14:26:00 5.7 C 5.98 g/m*3 5.7 C 0 km/h
1033 07-12-2008 14:38:00 5.8 C 5.8 g/m*3 5.8 C 0 km/h
1034 07-12-2008 14:50:59 5.8 C 5.73 g/m*3 5.8 C 0 km/h
1035 07-12-2008 15:02:00 5.9 C 5.7 g/m*3 5.9 C 0 km/h
1036 07-12-2008 15:14:00 5.8 C 5.66 g/m*3 5.8 C 0 km/h
1037 07-12-2008 15:26:59 5.8 C 5.66 g/m*3 5.8 C 0 km/h
1038 07-12-2008 15:38:59 5.4 C 5.58 g/m*3 5.4 C 0 km/h
1039 07-12-2008 15:50:00 5 C 5.5 g/m*3 5 C 0 km/h
1040 07-12-2008 16:02:59 4.7 C 5.6 g/m*3 4.7 C 0 km/h
1041 07-12-2008 16:14:59 4.3 C 5.51 g/m*3 4.3 C 0 km/h
1042 07-12-2008 16:26:59 4.1 C 5.5 g/m*3 4.1 C 0 km/h
1043 07-12-2008 16:38:59 3.7 C 5.42 g/m*3 3.7 C 0 km/h
1044 07-12-2008 16:50:59 3.5 C 5.41 g/m*3 3.5 C 0 km/h
1045 07-12-2008 17:02:58 3.3 C 5.34 g/m*3 3.3 C 0 km/h
1046 07-12-2008 17:14:59 3.1 C 5.33 g/m*3 3.1 C 0 km/h
1047 07-12-2008 17:26:59 2.9 C 5.32 g/m*3 2.9 C 0 km/h
1048 07-12-2008 17:38:59 2.8 C 5.28 g/m*3 2.8 C 0 km/h
1049 07-12-2008 17:50:58 2.5 C 5.17 g/m*3 2.5 C 0 km/h
1050 07-12-2008 18:02:59 2.4 C 5.14 g/m*3 2.4 C 0 km/h
Sensor: Nr:Datum:Temp:Abs-Feuchte:Windchill:Wind:
Aussen-T/F 1051 07-12-2008 18:14:58 2.3 C 5.16 g/m*3 2.3 C 0 km/h
1052 07-12-2008 18:26:59 2.3 C 5.16 g/m*3 2.3 C 0 km/h
1053 07-12-2008 18:38:58 2.1 C 5.15 g/m*3 2.1 C 0 km/h
1054 07-12-2008 18:50:58 1.9 C 5.08 g/m*3 1.9 C 0 km/h
1055 07-12-2008 19:02:58 1.8 C 5.04 g/m*3 1.8 C 0 km/h
1056 07-12-2008 19:14:58 1.8 C 5.1 g/m*3 1.8 C 0 km/h
1057 07-12-2008 19:26:58 1.7 C 5.06 g/m*3 1.7 C 0 km/h
1058 07-12-2008 19:38:59 1.6 C 5.03 g/m*3 1.6 C 0 km/h
1059 07-12-2008 19:50:58 1.6 C 5.03 g/m*3 1.6 C 0 km/h
1060 07-12-2008 20:02:57 1.4 C 4.96 g/m*3 1.4 C 0 km/h
1061 07-12-2008 20:14:57 1.4 C 4.96 g/m*3 1.4 C 0 km/h
1062 07-12-2008 20:26:57 1.2 C 4.89 g/m*3 1.2 C 0 km/h
1063 07-12-2008 20:37:59 1.7 C 5.12 g/m*3 1.7 C 0 km/h
1064 07-12-2008 20:50:58 1.8 C 5.15 g/m*3 1.8 C 0 km/h
1065 07-12-2008 21:02:57 1.7 C 5.12 g/m*3 1.7 C 0 km/h
1066 07-12-2008 21:14:57 1.5 C 5.05 g/m*3 1.5 C 0 km/h
1067 07-12-2008 21:26:58 1.3 C 4.98 g/m*3 1.3 C 0 km/h
1068 07-12-2008 21:38:57 1.2 C 4.95 g/m*3 1.2 C 0 km/h
1069 07-12-2008 21:50:57 0.8 C 4.86 g/m*3 0.8 C 0 km/h
1070 07-12-2008 22:02:56 0.7 C 4.83 g/m*3 0.7 C 0 km/h
1071 07-12-2008 22:14:57 0.5 C 4.76 g/m*3 0.5 C 0 km/h
1072 07-12-2008 22:26:57 0.5 C 4.76 g/m*3 0.5 C 0 km/h
1073 07-12-2008 22:38:57 0.5 C 4.76 g/m*3 0.5 C 0 km/h
1074 07-12-2008 22:50:57 0.5 C 4.76 g/m*3 0.5 C 0 km/h
1075 07-12-2008 23:03:57 0.8 C 4.86 g/m*3 0.8 C 0 km/h
Sensor: Nr:Datum:Temp:Abs-Feuchte:Windchill:Wind:
Aussen-T/F 1076 07-12-2008 23:15:57 0.8 C 4.86 g/m*3 0.8 C 0 km/h
1077 07-12-2008 23:27:57 0.5 C 4.76 g/m*3 0.5 C 0 km/h
1078 07-12-2008 23:39:57 0.5 C 4.76 g/m*3 0.5 C 0 km/h
1079 07-12-2008 23:51:57 0.5 C 4.76 g/m*3 0.5 C 0 km/h
1080 08-12-2008 00:03:57 0.4 C 4.73 g/m*3 0.4 C 0 km/h
1081 08-12-2008 00:15:57 0.4 C 4.73 g/m*3 0.4 C 0 km/h
1082 08-12-2008 00:27:57 0.3 C 4.7 g/m*3 0.3 C 0 km/h
1083 08-12-2008 00:39:57 0.4 C 4.73 g/m*3 0.4 C 0 km/h
1084 08-12-2008 00:51:57 0.5 C 4.76 g/m*3 0.5 C 0 km/h
1085 08-12-2008 01:03:57 0.6 C 4.8 g/m*3 0.6 C 0 km/h
1086 08-12-2008 01:15:57 0.6 C 4.8 g/m*3 0.6 C 0 km/h
1087 08-12-2008 01:27:57 0.5 C 4.76 g/m*3 0.5 C 0 km/h
1088 08-12-2008 01:39:58 0.4 C 4.73 g/m*3 0.4 C 0 km/h
1089 08-12-2008 01:51:58 0.2 C 4.67 g/m*3 0.2 C 0 km/h
1090 08-12-2008 02:03:58 0 C 4.6 g/m*3 0 C 0 km/h
1091 08-12-2008 02:15:58 -0.1 C 4.57 g/m*3 -0.1 C 0 km/h
1092 08-12-2008 02:27:58 -0.1 C 4.57 g/m*3 -0.1 C 0 km/h
1093 08-12-2008 02:39:58 -0.1 C 4.57 g/m*3 -0.1 C 0 km/h
1094 08-12-2008 02:51:58 -0.2 C 4.54 g/m*3 -0.2 C 0 km/h
1095 08-12-2008 03:03:58 -0.2 C 4.54 g/m*3 -0.2 C 0 km/h
1096 08-12-2008 03:15:58 -0.3 C 4.51 g/m*3 -0.3 C 0 km/h
1097 08-12-2008 03:27:58 -0.3 C 4.51 g/m*3 -0.3 C 0 km/h
1098 08-12-2008 03:39:58 -0.2 C 4.54 g/m*3 -0.2 C 0 km/h
1099 08-12-2008 03:51:58 -0.1 C 4.57 g/m*3 -0.1 C 0 km/h
1100 08-12-2008 04:03:58 0 C 4.6 g/m*3 0 C 0 km/h
Sensor: Nr:Datum:Temp:Abs-Feuchte:Windchill:Wind:
Aussen-T/F 1101 08-12-2008 04:15:58 0 C 4.6 g/m*3 0 C 0 km/h
1102 08-12-2008 04:27:58 0 C 4.6 g/m*3 0 C 0 km/h
1103 08-12-2008 04:39:58 0 C 4.6 g/m*3 0 C 0 km/h
1104 08-12-2008 04:51:58 -0.1 C 4.57 g/m*3 -0.1 C 0 km/h
1105 08-12-2008 05:03:58 -0.2 C 4.54 g/m*3 -0.2 C 0 km/h
1106 08-12-2008 05:15:58 -0.3 C 4.51 g/m*3 -0.3 C 0 km/h
1107 08-12-2008 05:27:58 -0.5 C 4.45 g/m*3 -0.5 C 0 km/h
1108 08-12-2008 05:39:59 -0.5 C 4.45 g/m*3 -0.5 C 0 km/h
1109 08-12-2008 05:51:59 -0.5 C 4.45 g/m*3 -0.5 C 0 km/h
1110 08-12-2008 06:03:59 -0.5 C 4.45 g/m*3 -0.5 C 0 km/h
1111 08-12-2008 06:15:59 -0.4 C 4.48 g/m*3 -0.4 C 0 km/h
1112 08-12-2008 06:27:59 -0.4 C 4.48 g/m*3 -0.4 C 0 km/h
1113 08-12-2008 06:39:59 -0.4 C 4.48 g/m*3 -0.4 C 0 km/h
1114 08-12-2008 06:51:59 -0.7 C 4.39 g/m*3 -0.7 C 0 km/h
1115 08-12-2008 07:03:57 -0.6 C 4.42 g/m*3 -0.6 C 0 km/h
1116 08-12-2008 07:15:57 -0.7 C 4.39 g/m*3 -0.7 C 0 km/h
1117 08-12-2008 07:27:57 -0.7 C 4.39 g/m*3 -0.7 C 0 km/h
1118 08-12-2008 07:39:57 -0.6 C 4.42 g/m*3 -0.6 C 0 km/h
1119 08-12-2008 07:51:57 -0.6 C 4.42 g/m*3 -0.6 C 0 km/h
1120 08-12-2008 08:03:56 -0.6 C 4.42 g/m*3 -0.6 C 0 km/h
1121 08-12-2008 08:15:57 -0.7 C 4.39 g/m*3 -0.7 C 0 km/h
1122 08-12-2008 08:27:58 -0.7 C 4.39 g/m*3 -0.7 C 0 km/h
1123 08-12-2008 08:39:56 -0.7 C 4.39 g/m*3 -0.7 C 0 km/h
1124 08-12-2008 08:51:56 -0.7 C 4.39 g/m*3 -0.7 C 0 km/h
1125 08-12-2008 09:03:56 -0.5 C 4.45 g/m*3 -0.5 C 0 km/h
Sensor: Nr:Datum:Temp:Abs-Feuchte:Windchill:Wind:
Aussen-T/F 1126 08-12-2008 09:15:57 -0.5 C 4.4 g/m*3 -0.5 C 0 km/h
1127 08-12-2008 09:27:57 -0.6 C 4.37 g/m*3 -0.6 C 0 km/h
1128 08-12-2008 09:39:56 -0.6 C 4.37 g/m*3 -0.6 C 0 km/h
1129 08-12-2008 09:51:56 -0.3 C 4.41 g/m*3 -0.3 C 0 km/h
1130 08-12-2008 10:03:56 -0.3 C 4.41 g/m*3 -0.3 C 0 km/h
1131 08-12-2008 10:15:56 0 C 4.51 g/m*3 0 C 0 km/h
1132 08-12-2008 10:27:56 0.2 C 4.52 g/m*3 0.2 C 0 km/h
1133 08-12-2008 10:39:55 0.3 C 4.5 g/m*3 0.3 C 0 km/h
1134 08-12-2008 10:51:56 0.3 C 4.4 g/m*3 0.3 C 0 km/h
1135 08-12-2008 11:03:55 0.3 C 4.4 g/m*3 0.3 C 0 km/h
1136 08-12-2008 11:15:55 0.4 C 4.38 g/m*3 0.4 C 0 km/h
1137 08-12-2008 11:27:55 0.7 C 4.47 g/m*3 0.7 C 0 km/h
1138 08-12-2008 11:39:56 0.9 C 4.54 g/m*3 0.9 C 0 km/h
1139 08-12-2008 11:51:55 0.8 C 4.45 g/m*3 0.8 C 0 km/h
1140 08-12-2008 12:03:55 0.7 C 4.42 g/m*3 0.7 C 0 km/h
1141 08-12-2008 12:15:55 0.8 C 4.51 g/m*3 0.8 C 0 km/h
1142 08-12-2008 12:27:55 0.8 C 4.51 g/m*3 0.8 C 0 km/h
1143 08-12-2008 12:39:55 1 C 4.57 g/m*3 1 C 0 km/h
1144 08-12-2008 12:51:55 1.1 C 4.6 g/m*3 1.1 C 0 km/h
1145 08-12-2008 13:03:55 1.1 C 4.6 g/m*3 1.1 C 0 km/h
1146 08-12-2008 13:15:54 1.2 C 4.63 g/m*3 1.2 C 0 km/h
1147 08-12-2008 13:27:54 1.2 C 4.63 g/m*3 1.2 C 0 km/h
1148 08-12-2008 13:39:54 1.5 C 4.73 g/m*3 1.5 C 0 km/h
1149 08-12-2008 13:51:54 1.7 C 4.79 g/m*3 1.7 C 0 km/h
1150 08-12-2008 14:03:54 1.8 C 4.77 g/m*3 1.8 C 0 km/h
Sensor: Nr:Datum:Temp:Abs-Feuchte:Windchill:Wind:
Aussen-T/F 1151 08-12-2008 14:15:54 2 C 4.78 g/m*3 2 C 0 km/h
1152 08-12-2008 14:27:54 1.9 C 4.75 g/m*3 1.9 C 0 km/h
1153 08-12-2008 14:39:54 2.1 C 4.81 g/m*3 2.1 C 0 km/h
1154 08-12-2008 14:51:54 2.1 C 4.81 g/m*3 2.1 C 0 km/h
1155 08-12-2008 15:03:54 2.1 C 4.81 g/m*3 2.1 C 0 km/h
1156 08-12-2008 15:15:54 2.1 C 4.87 g/m*3 2.1 C 0 km/h
1157 08-12-2008 15:27:54 2 C 4.83 g/m*3 2 C 0 km/h
1158 08-12-2008 15:39:54 1.8 C 4.77 g/m*3 1.8 C 0 km/h
1159 08-12-2008 15:51:54 1.7 C 4.74 g/m*3 1.7 C 0 km/h
1160 08-12-2008 16:03:54 1.4 C 4.69 g/m*3 1.4 C 0 km/h
1161 08-12-2008 16:15:53 1.4 C 4.69 g/m*3 1.4 C 0 km/h
1162 08-12-2008 16:27:53 1.3 C 4.72 g/m*3 1.3 C 0 km/h
1163 08-12-2008 16:39:54 1.2 C 4.68 g/m*3 1.2 C 0 km/h
1164 08-12-2008 16:51:02 1.1 C 4.7 g/m*3 1.1 C 0 km/h
1165 08-12-2008 17:03:02 1 C 4.72 g/m*3 1 C 0 km/h
1166 08-12-2008 17:15:02 1 C 4.78 g/m*3 1 C 0 km/h
1167 08-12-2008 17:27:02 0.8 C 4.76 g/m*3 0.8 C 0 km/h
1168 08-12-2008 17:39:01 0.6 C 4.7 g/m*3 0.6 C 0 km/h
1169 08-12-2008 17:51:01 0.6 C 4.75 g/m*3 0.6 C 0 km/h
1170 08-12-2008 18:03:01 0.6 C 4.75 g/m*3 0.6 C 0 km/h
1171 08-12-2008 18:15:01 0.4 C 4.68 g/m*3 0.4 C 0 km/h
1172 08-12-2008 18:27:01 0.4 C 4.68 g/m*3 0.4 C 0 km/h
1173 08-12-2008 18:39:01 0.5 C 4.71 g/m*3 0.5 C 0 km/h
1174 08-12-2008 18:51:01 0.5 C 4.71 g/m*3 0.5 C 0 km/h
1175 08-12-2008 19:03:00 0.5 C 4.71 g/m*3 0.5 C 0 km/h
Sensor: Nr:Datum:Temp:Abs-Feuchte:Windchill:Wind:
Aussen-T/F 1176 08-12-2008 19:15:00 0.2 C 4.62 g/m*3 0.2 C 0 km/h
1177 08-12-2008 19:27:00 0.2 C 4.62 g/m*3 0.2 C 0 km/h
1178 08-12-2008 19:39:01 0.1 C 4.59 g/m*3 0.1 C 0 km/h
1179 08-12-2008 19:51:00 0.1 C 4.59 g/m*3 0.1 C 0 km/h
1180 08-12-2008 20:03:00 0.2 C 4.67 g/m*3 0.2 C 0 km/h
1181 08-12-2008 20:15:00 0.1 C 4.63 g/m*3 0.1 C 0 km/h
1182 08-12-2008 20:27:00 0.1 C 4.59 g/m*3 0.1 C 0 km/h
1183 08-12-2008 20:38:59 0.1 C 4.63 g/m*3 0.1 C 0 km/h
1184 08-12-2008 20:51:00 0.1 C 4.63 g/m*3 0.1 C 0 km/h
1185 08-12-2008 21:03:00 0 C 4.55 g/m*3 0 C 0 km/h
1186 08-12-2008 21:15:00 0 C 4.55 g/m*3 0 C 0 km/h
1187 08-12-2008 21:27:00 -0.1 C 4.52 g/m*3 -0.1 C 0 km/h
1188 08-12-2008 21:39:59 -0.3 C 4.46 g/m*3 -0.3 C 0 km/h
1189 08-12-2008 21:51:59 -0.4 C 4.43 g/m*3 -0.4 C 0 km/h
1190 08-12-2008 22:02:59 -0.6 C 4.37 g/m*3 -0.6 C 0 km/h
1191 08-12-2008 22:14:59 -0.6 C 4.37 g/m*3 -0.6 C 0 km/h
1192 08-12-2008 22:26:59 -0.7 C 4.34 g/m*3 -0.7 C 0 km/h
1193 08-12-2008 22:39:59 -0.7 C 4.34 g/m*3 -0.7 C 0 km/h
1194 08-12-2008 22:51:59 -0.5 C 4.4 g/m*3 -0.5 C 0 km/h
1195 08-12-2008 23:03:00 -0.3 C 4.51 g/m*3 -0.3 C 0 km/h
1196 08-12-2008 23:15:58 -0.3 C 4.51 g/m*3 -0.3 C 0 km/h
1197 08-12-2008 23:27:58 -0.3 C 4.51 g/m*3 -0.3 C 0 km/h
1198 08-12-2008 23:39:59 -0.4 C 4.48 g/m*3 -0.4 C 0 km/h
1199 08-12-2008 23:51:58 -0.4 C 4.48 g/m*3 -0.4 C 0 km/h
1200 09-12-2008 00:03:59 -0.3 C 4.51 g/m*3 -0.3 C 0 km/h
Sensor: Nr:Datum:Temp:Abs-Feuchte:Windchill:Wind:
Aussen-T/F 1201 09-12-2008 00:15:59 -0.3 C 4.51 g/m*3 -0.3 C 0 km/h
1202 09-12-2008 00:27:59 -0.2 C 4.54 g/m*3 -0.2 C 0 km/h
1203 09-12-2008 00:40:59 -0.1 C 4.57 g/m*3 -0.1 C 0 km/h
1204 09-12-2008 00:52:59 -0.1 C 4.57 g/m*3 -0.1 C 0 km/h
1205 09-12-2008 01:04:59 -0.1 C 4.57 g/m*3 -0.1 C 0 km/h
1206 09-12-2008 01:16:59 -0.1 C 4.57 g/m*3 -0.1 C 0 km/h
1207 09-12-2008 01:27:59 -0.2 C 4.54 g/m*3 -0.2 C 0 km/h
1208 09-12-2008 01:39:59 -0.2 C 4.49 g/m*3 -0.2 C 0 km/h
1209 09-12-2008 01:51:59 -0.2 C 4.49 g/m*3 -0.2 C 0 km/h
1210 09-12-2008 02:03:59 -0.3 C 4.46 g/m*3 -0.3 C 0 km/h
1211 09-12-2008 02:15:59 -0.4 C 4.43 g/m*3 -0.4 C 0 km/h
1212 09-12-2008 02:27:59 -0.3 C 4.41 g/m*3 -0.3 C 0 km/h
1213 09-12-2008 02:39:59 -0.4 C 4.38 g/m*3 -0.4 C 0 km/h
1214 09-12-2008 02:51:59 -0.4 C 4.38 g/m*3 -0.4 C 0 km/h
1215 09-12-2008 03:03:59 -0.3 C 4.41 g/m*3 -0.3 C 0 km/h
1216 09-12-2008 03:15:59 -0.4 C 4.34 g/m*3 -0.4 C 0 km/h
1217 09-12-2008 03:27:59 -0.6 C 4.28 g/m*3 -0.6 C 0 km/h
1218 09-12-2008 03:39:59 -0.6 C 4.28 g/m*3 -0.6 C 0 km/h
1219 09-12-2008 03:51:59 -0.7 C 4.25 g/m*3 -0.7 C 0 km/h
1220 09-12-2008 04:03:59 -0.8 C 4.22 g/m*3 -0.8 C 0 km/h
1221 09-12-2008 04:15:59 -0.9 C 4.14 g/m*3 -0.9 C 0 km/h
1222 09-12-2008 04:28:00 -0.9 C 4.14 g/m*3 -0.9 C 0 km/h
1223 09-12-2008 04:40:00 -0.8 C 4.17 g/m*3 -0.8 C 0 km/h
1224 09-12-2008 04:52:00 -1 C 4.11 g/m*3 -1 C 0 km/h
1225 09-12-2008 05:04:00 -1.1 C 4.09 g/m*3 -1.1 C 0 km/h
Sensor: Nr:Datum:Temp:Abs-Feuchte:Windchill:Wind:
Aussen-T/F 1226 09-12-2008 05:16:00 -1.2 C 4.06 g/m*3 -1.2 C 0 km/h
1227 09-12-2008 05:28:00 -1.3 C 4.03 g/m*3 -1.3 C 0 km/h
1228 09-12-2008 05:40:00 -1.5 C 3.97 g/m*3 -1.5 C 0 km/h
1229 09-12-2008 05:52:00 -1.4 C 4 g/m*3 -1.4 C 0 km/h
1230 09-12-2008 06:04:00 -1.3 C 4.03 g/m*3 -1.3 C 0 km/h
1231 09-12-2008 06:16:00 -1.1 C 4.09 g/m*3 -1.1 C 0 km/h
1232 09-12-2008 06:28:00 -1 C 4.11 g/m*3 -1 C 0 km/h
1233 09-12-2008 06:40:00 -0.8 C 4.13 g/m*3 -0.8 C 0 km/h
1234 09-12-2008 06:52:00 -0.7 C 4.15 g/m*3 -0.7 C 0 km/h
1235 09-12-2008 07:04:59 -0.6 C 4.14 g/m*3 -0.6 C 0 km/h
1236 09-12-2008 07:16:59 -0.5 C 4.12 g/m*3 -0.5 C 0 km/h
1237 09-12-2008 07:28:59 -0.4 C 4.1 g/m*3 -0.4 C 0 km/h
1238 09-12-2008 07:40:59 -0.3 C 4.08 g/m*3 -0.3 C 0 km/h
1239 09-12-2008 07:52:59 -0.2 C 4.11 g/m*3 -0.2 C 0 km/h
1240 09-12-2008 08:04:58 -0.1 C 4.14 g/m*3 -0.1 C 0 km/h
1241 09-12-2008 08:16:59 0 C 4.12 g/m*3 0 C 0 km/h
1242 09-12-2008 08:28:59 0.1 C 4.15 g/m*3 0.1 C 0 km/h
1243 09-12-2008 08:40:59 0.2 C 4.13 g/m*3 0.2 C 0 km/h
1244 09-12-2008 08:52:58 0.2 C 4.08 g/m*3 0.2 C 0 km/h
1245 09-12-2008 09:04:58 0.3 C 4.11 g/m*3 0.3 C 0 km/h
1246 09-12-2008 09:16:58 0.4 C 4.13 g/m*3 0.4 C 0 km/h
1247 09-12-2008 09:28:58 0.5 C 4.16 g/m*3 0.5 C 0 km/h
1248 09-12-2008 09:40:58 0.6 C 4.14 g/m*3 0.6 C 0 km/h
1249 09-12-2008 09:52:57 0.8 C 4.2 g/m*3 0.8 C 0 km/h
1250 09-12-2008 10:04:58 0.8 C 4.2 g/m*3 0.8 C 0 km/h
Sensor: Nr:Datum:Temp:Abs-Feuchte:Windchill:Wind:
Aussen-T/F 1251 09-12-2008 10:16:57 1 C 4.2 g/m*3 1 C 0 km/h
1252 09-12-2008 10:28:57 1.2 C 4.26 g/m*3 1.2 C 0 km/h
1253 09-12-2008 10:40:57 1.4 C 4.27 g/m*3 1.4 C 0 km/h
1254 09-12-2008 10:52:57 1.6 C 4.27 g/m*3 1.6 C 0 km/h
1255 09-12-2008 11:04:57 1.9 C 4.25 g/m*3 1.9 C 0 km/h
1256 09-12-2008 11:16:57 1.7 C 4.19 g/m*3 1.7 C 0 km/h
1257 09-12-2008 11:28:57 1.9 C 4.25 g/m*3 1.9 C 0 km/h
1258 09-12-2008 11:40:57 1.8 C 4.22 g/m*3 1.8 C 0 km/h
1259 09-12-2008 11:52:57 1.9 C 4.3 g/m*3 1.9 C 0 km/h
1260 09-12-2008 12:04:56 1.8 C 4.28 g/m*3 1.8 C 0 km/h
1261 09-12-2008 12:16:57 1.7 C 4.25 g/m*3 1.7 C 0 km/h
1262 09-12-2008 12:28:57 1.7 C 4.25 g/m*3 1.7 C 0 km/h
1263 09-12-2008 12:40:56 1.6 C 4.22 g/m*3 1.6 C 0 km/h
1264 09-12-2008 12:52:56 1.7 C 4.3 g/m*3 1.7 C 0 km/h
1265 09-12-2008 13:04:56 1.7 C 4.25 g/m*3 1.7 C 0 km/h
1266 09-12-2008 13:16:56 1.6 C 4.22 g/m*3 1.6 C 0 km/h
1267 09-12-2008 13:28:56 1.7 C 4.25 g/m*3 1.7 C 0 km/h
1268 09-12-2008 13:40:56 1.6 C 4.22 g/m*3 1.6 C 0 km/h
1269 09-12-2008 13:52:56 1.6 C 4.22 g/m*3 1.6 C 0 km/h
1270 09-12-2008 14:04:55 1.6 C 4.27 g/m*3 1.6 C 0 km/h
1271 09-12-2008 14:16:56 1.6 C 4.27 g/m*3 1.6 C 0 km/h
1272 09-12-2008 14:28:56 1.6 C 4.27 g/m*3 1.6 C 0 km/h
1273 09-12-2008 14:40:55 1.6 C 4.27 g/m*3 1.6 C 0 km/h
1274 09-12-2008 14:52:56 1.7 C 4.3 g/m*3 1.7 C 0 km/h
1275 09-12-2008 15:04:55 1.7 C 4.25 g/m*3 1.7 C 0 km/h
Sensor: Nr:Datum:Temp:Abs-Feuchte:Windchill:Wind:
Aussen-T/F 1276 09-12-2008 15:16:55 1.8 C 4.22 g/m*3 1.8 C 0 km/h
1277 09-12-2008 15:28:56 1.7 C 4.14 g/m*3 1.7 C 0 km/h
1278 09-12-2008 15:40:55 1.7 C 4.14 g/m*3 1.7 C 0 km/h
1279 09-12-2008 15:52:55 1.7 C 4.14 g/m*3 1.7 C 0 km/h
1280 09-12-2008 16:04:54 1.7 C 4.14 g/m*3 1.7 C 0 km/h
1281 09-12-2008 16:16:38 1.6 C 4.11 g/m*3 1.6 C 0 km/h
1282 09-12-2008 16:28:38 1.6 C 4.16 g/m*3 1.6 C 0 km/h
1283 09-12-2008 16:40:37 1.6 C 4.16 g/m*3 1.6 C 0 km/h
1284 09-12-2008 16:52:37 1.5 C 4.19 g/m*3 1.5 C 0 km/h
1285 09-12-2008 17:04:37 1.5 C 4.24 g/m*3 1.5 C 0 km/h
1286 09-12-2008 17:16:37 1.5 C 4.24 g/m*3 1.5 C 0 km/h
1287 09-12-2008 17:28:37 1.5 C 4.3 g/m*3 1.5 C 0 km/h
1288 09-12-2008 17:40:37 1.2 C 4.31 g/m*3 1.2 C 0 km/h
1289 09-12-2008 17:52:37 1 C 4.36 g/m*3 1 C 0 km/h
1290 09-12-2008 18:04:38 0.9 C 4.48 g/m*3 0.9 C 0 km/h
1291 09-12-2008 18:16:37 0.8 C 4.51 g/m*3 0.8 C 0 km/h
1292 09-12-2008 18:28:37 0.7 C 4.53 g/m*3 0.7 C 0 km/h
1293 09-12-2008 18:40:37 0.8 C 4.61 g/m*3 0.8 C 0 km/h
1294 09-12-2008 18:52:36 0.7 C 4.58 g/m*3 0.7 C 0 km/h
1295 09-12-2008 19:04:37 0.6 C 4.6 g/m*3 0.6 C 0 km/h
1296 09-12-2008 19:16:36 0.6 C 4.65 g/m*3 0.6 C 0 km/h
1297 09-12-2008 19:28:36 0.6 C 4.65 g/m*3 0.6 C 0 km/h
1298 09-12-2008 19:40:36 0.6 C 4.65 g/m*3 0.6 C 0 km/h
1299 09-12-2008 19:52:36 0.6 C 4.65 g/m*3 0.6 C 0 km/h
1300 09-12-2008 20:04:36 0.6 C 4.7 g/m*3 0.6 C 0 km/h
Sensor: Nr:Datum:Temp:Abs-Feuchte:Windchill:Wind:
Aussen-T/F 1301 09-12-2008 20:16:36 0.7 C 4.73 g/m*3 0.7 C 0 km/h
1302 09-12-2008 20:28:37 0.8 C 4.76 g/m*3 0.8 C 0 km/h
1303 09-12-2008 20:40:35 0.8 C 4.76 g/m*3 0.8 C 0 km/h
1304 09-12-2008 20:52:35 0.9 C 4.74 g/m*3 0.9 C 0 km/h
1305 09-12-2008 21:04:35 0.9 C 4.74 g/m*3 0.9 C 0 km/h
1306 09-12-2008 21:16:35 0.9 C 4.74 g/m*3 0.9 C 0 km/h
1307 09-12-2008 21:28:35 0.9 C 4.74 g/m*3 0.9 C 0 km/h
1308 09-12-2008 21:40:35 1 C 4.72 g/m*3 1 C 0 km/h
1309 09-12-2008 21:52:34 1 C 4.67 g/m*3 1 C 0 km/h
1310 09-12-2008 22:04:35 1 C 4.67 g/m*3 1 C 0 km/h
1311 09-12-2008 22:17:36 1 C 4.72 g/m*3 1 C 0 km/h
1312 09-12-2008 22:29:36 1 C 4.72 g/m*3 1 C 0 km/h
1313 09-12-2008 22:41:36 1 C 4.72 g/m*3 1 C 0 km/h
1314 09-12-2008 22:53:36 1 C 4.72 g/m*3 1 C 0 km/h
1315 09-12-2008 23:05:36 1 C 4.78 g/m*3 1 C 0 km/h
1316 09-12-2008 23:17:36 1 C 4.78 g/m*3 1 C 0 km/h
1317 09-12-2008 23:29:36 1.1 C 4.81 g/m*3 1.1 C 0 km/h
1318 09-12-2008 23:41:36 1.1 C 4.86 g/m*3 1.1 C 0 km/h
1319 09-12-2008 23:53:36 1.1 C 4.86 g/m*3 1.1 C 0 km/h
1320 10-12-2008 00:05:36 1.1 C 4.86 g/m*3 1.1 C 0 km/h
1321 10-12-2008 00:17:36 1.1 C 4.86 g/m*3 1.1 C 0 km/h
1322 10-12-2008 00:29:36 1.1 C 4.91 g/m*3 1.1 C 0 km/h
1323 10-12-2008 00:41:37 1.2 C 4.95 g/m*3 1.2 C 0 km/h
1324 10-12-2008 00:53:37 1 C 4.88 g/m*3 1 C 0 km/h
1325 10-12-2008 01:05:37 0.9 C 4.85 g/m*3 0.9 C 0 km/h
Sensor: Nr:Datum:Temp:Abs-Feuchte:Windchill:Wind:
Aussen-T/F 1326 10-12-2008 01:17:37 1 C 4.88 g/m*3 1 C 0 km/h
1327 10-12-2008 01:29:37 1 C 4.88 g/m*3 1 C 0 km/h
1328 10-12-2008 01:41:37 1 C 4.93 g/m*3 1 C 0 km/h
1329 10-12-2008 01:53:37 1 C 4.93 g/m*3 1 C 0 km/h
1330 10-12-2008 02:05:37 1 C 4.93 g/m*3 1 C 0 km/h
1331 10-12-2008 02:17:37 1.1 C 4.96 g/m*3 1.1 C 0 km/h
1332 10-12-2008 02:29:37 1.1 C 4.96 g/m*3 1.1 C 0 km/h
1333 10-12-2008 02:41:37 1.1 C 4.96 g/m*3 1.1 C 0 km/h
1334 10-12-2008 02:53:37 1.2 C 5 g/m*3 1.2 C 0 km/h
1335 10-12-2008 03:05:37 1.2 C 5 g/m*3 1.2 C 0 km/h
1336 10-12-2008 03:17:37 1.2 C 5 g/m*3 1.2 C 0 km/h
1337 10-12-2008 03:29:37 1.2 C 5 g/m*3 1.2 C 0 km/h
1338 10-12-2008 03:41:37 1.2 C 5 g/m*3 1.2 C 0 km/h
1339 10-12-2008 03:53:37 1.2 C 5 g/m*3 1.2 C 0 km/h
1340 10-12-2008 04:05:37 1.2 C 5 g/m*3 1.2 C 0 km/h
1341 10-12-2008 04:17:37 1.3 C 5.03 g/m*3 1.3 C 0 km/h
1342 10-12-2008 04:29:38 1.3 C 5.03 g/m*3 1.3 C 0 km/h
1343 10-12-2008 04:41:38 1.2 C 5 g/m*3 1.2 C 0 km/h
1344 10-12-2008 04:53:38 1.2 C 5 g/m*3 1.2 C 0 km/h
1345 10-12-2008 05:05:38 1.3 C 5.03 g/m*3 1.3 C 0 km/h
1346 10-12-2008 05:17:38 1.3 C 5.03 g/m*3 1.3 C 0 km/h
1347 10-12-2008 05:29:38 1.3 C 5.03 g/m*3 1.3 C 0 km/h
1348 10-12-2008 05:41:38 1.3 C 5.03 g/m*3 1.3 C 0 km/h
1349 10-12-2008 05:53:38 1.3 C 5.03 g/m*3 1.3 C 0 km/h
1350 10-12-2008 06:05:38 1.3 C 5.03 g/m*3 1.3 C 0 km/h
Sensor: Nr:Datum:Temp:Abs-Feuchte:Windchill:Wind:
Aussen-T/F 1351 10-12-2008 06:17:38 1.3 C 5.03 g/m*3 1.3 C 0 km/h
1352 10-12-2008 06:29:38 1.3 C 5.03 g/m*3 1.3 C 0 km/h
1353 10-12-2008 06:41:38 1.4 C 5.07 g/m*3 1.4 C 0 km/h
1354 10-12-2008 06:53:38 1.4 C 5.07 g/m*3 1.4 C 0 km/h
1355 10-12-2008 07:05:35 1.4 C 5.07 g/m*3 1.4 C 0 km/h
1356 10-12-2008 07:17:34 1.5 C 5.1 g/m*3 1.5 C 0 km/h
1357 10-12-2008 07:29:34 1.5 C 5.1 g/m*3 1.5 C 0 km/h
1358 10-12-2008 07:41:35 1.6 C 5.14 g/m*3 1.6 C 0 km/h
1359 10-12-2008 07:53:34 1.2 C 5 g/m*3 1.2 C 0 km/h
1360 10-12-2008 08:05:34 0.8 C 4.81 g/m*3 0.8 C 0 km/h
1361 10-12-2008 08:17:35 1.1 C 4.91 g/m*3 1.1 C 0 km/h
1362 10-12-2008 08:29:35 1.1 C 4.91 g/m*3 1.1 C 0 km/h
1363 10-12-2008 08:41:34 1.2 C 5 g/m*3 1.2 C 0 km/h
1364 10-12-2008 08:53:34 1.3 C 5.03 g/m*3 1.3 C 0 km/h
1365 10-12-2008 09:05:34 1.4 C 5.07 g/m*3 1.4 C 0 km/h
1366 10-12-2008 09:17:34 1.4 C 5.07 g/m*3 1.4 C 0 km/h
1367 10-12-2008 09:29:35 1.5 C 5.1 g/m*3 1.5 C 0 km/h
1368 10-12-2008 09:41:33 1.7 C 5.17 g/m*3 1.7 C 0 km/h
1369 10-12-2008 09:53:34 1.9 C 5.24 g/m*3 1.9 C 0 km/h
1370 10-12-2008 10:05:33 2 C 5.28 g/m*3 2 C 0 km/h
1371 10-12-2008 10:17:33 2.1 C 5.31 g/m*3 2.1 C 0 km/h
1372 10-12-2008 10:29:33 2.2 C 5.35 g/m*3 2.2 C 0 km/h
1373 10-12-2008 10:41:33 2.3 C 5.39 g/m*3 2.3 C 0 km/h
1374 10-12-2008 10:53:33 2.6 C 5.5 g/m*3 2.6 C 0 km/h
1375 10-12-2008 11:05:33 2.6 C 5.5 g/m*3 2.6 C 0 km/h
Sensor: Nr:Datum:Temp:Abs-Feuchte:Windchill:Wind:
Aussen-T/F 1376 10-12-2008 11:17:32 2.6 C 5.5 g/m*3 2.6 C 0 km/h
1377 10-12-2008 11:29:32 2.7 C 5.48 g/m*3 2.7 C 0 km/h
1378 10-12-2008 11:41:33 2.9 C 5.55 g/m*3 2.9 C 0 km/h
1379 10-12-2008 11:53:32 3 C 5.53 g/m*3 3 C 0 km/h
1380 10-12-2008 12:05:32 3 C 5.53 g/m*3 3 C 0 km/h
1381 10-12-2008 12:17:33 3 C 5.47 g/m*3 3 C 0 km/h
1382 10-12-2008 12:29:33 3 C 5.41 g/m*3 3 C 0 km/h
1383 10-12-2008 12:41:32 3.1 C 5.45 g/m*3 3.1 C 0 km/h
1384 10-12-2008 12:53:32 3.1 C 5.45 g/m*3 3.1 C 0 km/h
1385 10-12-2008 13:05:32 3.1 C 5.45 g/m*3 3.1 C 0 km/h
1386 10-12-2008 13:17:32 3.1 C 5.39 g/m*3 3.1 C 0 km/h
1387 10-12-2008 13:29:32 3.2 C 5.42 g/m*3 3.2 C 0 km/h
1388 10-12-2008 13:41:31 3.3 C 5.46 g/m*3 3.3 C 0 km/h
1389 10-12-2008 13:53:31 3.3 C 5.46 g/m*3 3.3 C 0 km/h
1390 10-12-2008 14:05:31 3.3 C 5.4 g/m*3 3.3 C 0 km/h
1391 10-12-2008 14:17:31 3.4 C 5.44 g/m*3 3.4 C 0 km/h
1392 10-12-2008 14:29:31 3.5 C 5.47 g/m*3 3.5 C 0 km/h
1393 10-12-2008 14:41:32 3.5 C 5.47 g/m*3 3.5 C 0 km/h
1394 10-12-2008 14:53:30 3.4 C 5.44 g/m*3 3.4 C 0 km/h
1395 10-12-2008 15:05:31 3.4 C 5.44 g/m*3 3.4 C 0 km/h
1396 10-12-2008 15:17:30 3.5 C 5.47 g/m*3 3.5 C 0 km/h
1397 10-12-2008 15:29:30 3.5 C 5.47 g/m*3 3.5 C 0 km/h
1398 10-12-2008 15:41:30 3.4 C 5.44 g/m*3 3.4 C 0 km/h
1399 10-12-2008 15:53:30 3.4 C 5.44 g/m*3 3.4 C 0 km/h
1400 10-12-2008 16:05:30 3.2 C 5.36 g/m*3 3.2 C 0 km/h
Sensor: Nr:Datum:Temp:Abs-Feuchte:Windchill:Wind:
Aussen-T/F 1401 10-12-2008 16:17:30 3.1 C 5.33 g/m*3 3.1 C 0 km/h
1402 10-12-2008 16:29:30 3 C 5.35 g/m*3 3 C 0 km/h
1403 10-12-2008 16:41:30 2.7 C 5.3 g/m*3 2.7 C 0 km/h
1404 10-12-2008 16:53:30 2.5 C 5.23 g/m*3 2.5 C 0 km/h
1405 10-12-2008 17:05:29 2.3 C 5.16 g/m*3 2.3 C 0 km/h
1406 10-12-2008 17:17:30 2.2 C 5.13 g/m*3 2.2 C 0 km/h
1407 10-12-2008 17:29:31 2.1 C 5.09 g/m*3 2.1 C 0 km/h
1408 10-12-2008 17:41:29 2.1 C 5.09 g/m*3 2.1 C 0 km/h
1409 10-12-2008 17:53:29 2.2 C 5.18 g/m*3 2.2 C 0 km/h
1410 10-12-2008 18:05:28 2.3 C 5.22 g/m*3 2.3 C 0 km/h
1411 10-12-2008 18:17:29 2.4 C 5.25 g/m*3 2.4 C 0 km/h
1412 10-12-2008 18:29:29 2.4 C 5.25 g/m*3 2.4 C 0 km/h
1413 10-12-2008 18:41:29 2.4 C 5.25 g/m*3 2.4 C 0 km/h
1414 10-12-2008 18:53:28 2.3 C 5.22 g/m*3 2.3 C 0 km/h
1415 10-12-2008 19:05:29 2.2 C 5.18 g/m*3 2.2 C 0 km/h
1416 10-12-2008 19:17:28 2.2 C 5.18 g/m*3 2.2 C 0 km/h
1417 10-12-2008 19:29:28 2 C 5.11 g/m*3 2 C 0 km/h
1418 10-12-2008 19:41:28 2 C 5.11 g/m*3 2 C 0 km/h
1419 10-12-2008 19:53:28 2 C 5.11 g/m*3 2 C 0 km/h
1420 10-12-2008 20:05:28 2 C 5.11 g/m*3 2 C 0 km/h
1421 10-12-2008 20:17:28 1.9 C 5.13 g/m*3 1.9 C 0 km/h
1422 10-12-2008 20:29:28 2 C 5.11 g/m*3 2 C 0 km/h
1423 10-12-2008 20:41:27 2.1 C 5.2 g/m*3 2.1 C 0 km/h
1424 10-12-2008 20:53:28 2.1 C 5.2 g/m*3 2.1 C 0 km/h
1425 10-12-2008 21:05:27 2 C 5.17 g/m*3 2 C 0 km/h
Sensor: Nr:Datum:Temp:Abs-Feuchte:Windchill:Wind:
Aussen-T/F 1426 10-12-2008 21:17:27 1.9 C 5.13 g/m*3 1.9 C 0 km/h
1427 10-12-2008 21:29:27 1.8 C 5.1 g/m*3 1.8 C 0 km/h
1428 10-12-2008 21:41:27 1.7 C 5.06 g/m*3 1.7 C 0 km/h
1429 10-12-2008 21:53:27 1.5 C 4.99 g/m*3 1.5 C 0 km/h
1430 10-12-2008 22:05:26 1.6 C 5.03 g/m*3 1.6 C 0 km/h
1431 10-12-2008 22:18:02 1.7 C 5.12 g/m*3 1.7 C 0 km/h
1432 10-12-2008 22:30:02 1.8 C 5.15 g/m*3 1.8 C 0 km/h
1433 10-12-2008 22:42:02 1.9 C 5.19 g/m*3 1.9 C 0 km/h
1434 10-12-2008 22:54:03 2 C 5.22 g/m*3 2 C 0 km/h
1435 10-12-2008 23:06:03 1.9 C 5.19 g/m*3 1.9 C 0 km/h
1436 10-12-2008 23:18:03 1.9 C 5.19 g/m*3 1.9 C 0 km/h
1437 10-12-2008 23:30:03 1.9 C 5.19 g/m*3 1.9 C 0 km/h
1438 10-12-2008 23:42:03 1.8 C 5.15 g/m*3 1.8 C 0 km/h
1439 10-12-2008 23:54:03 1.7 C 5.12 g/m*3 1.7 C 0 km/h
1440 11-12-2008 00:06:03 1.5 C 5.05 g/m*3 1.5 C 0 km/h
1441 11-12-2008 00:18:03 1.6 C 5.08 g/m*3 1.6 C 0 km/h
1442 11-12-2008 00:30:03 1.6 C 5.08 g/m*3 1.6 C 0 km/h
1443 11-12-2008 00:42:03 1.5 C 5.05 g/m*3 1.5 C 0 km/h
1444 11-12-2008 00:54:03 1.5 C 5.05 g/m*3 1.5 C 0 km/h
1445 11-12-2008 01:06:03 1.5 C 5.05 g/m*3 1.5 C 0 km/h
1446 11-12-2008 01:18:03 1.5 C 5.05 g/m*3 1.5 C 0 km/h
1447 11-12-2008 01:30:03 1.5 C 5.05 g/m*3 1.5 C 0 km/h
1448 11-12-2008 01:42:03 1.6 C 5.08 g/m*3 1.6 C 0 km/h
1449 11-12-2008 01:54:03 1.5 C 5.05 g/m*3 1.5 C 0 km/h
1450 11-12-2008 02:06:03 1.4 C 5.01 g/m*3 1.4 C 0 km/h
Sensor: Nr:Datum:Temp:Abs-Feuchte:Windchill:Wind:
Aussen-T/F 1451 11-12-2008 02:18:03 1.2 C 4.89 g/m*3 1.2 C 0 km/h
1452 11-12-2008 02:30:03 0.9 C 4.85 g/m*3 0.9 C 0 km/h
1453 11-12-2008 02:42:04 0.6 C 4.7 g/m*3 0.6 C 0 km/h
1454 11-12-2008 02:54:04 0.5 C 4.66 g/m*3 0.5 C 0 km/h
1455 11-12-2008 03:06:04 0.5 C 4.71 g/m*3 0.5 C 0 km/h
1456 11-12-2008 03:18:04 0.5 C 4.71 g/m*3 0.5 C 0 km/h
1457 11-12-2008 03:30:04 0.6 C 4.75 g/m*3 0.6 C 0 km/h
1458 11-12-2008 03:42:04 0.8 C 4.81 g/m*3 0.8 C 0 km/h
1459 11-12-2008 03:54:04 1 C 4.88 g/m*3 1 C 0 km/h
1460 11-12-2008 04:06:04 1 C 4.88 g/m*3 1 C 0 km/h
1461 11-12-2008 04:18:04 0.9 C 4.85 g/m*3 0.9 C 0 km/h
1462 11-12-2008 04:30:04 0.9 C 4.79 g/m*3 0.9 C 0 km/h
1463 11-12-2008 04:42:04 1 C 4.83 g/m*3 1 C 0 km/h
1464 11-12-2008 04:54:04 1 C 4.78 g/m*3 1 C 0 km/h
1465 11-12-2008 05:06:04 1 C 4.78 g/m*3 1 C 0 km/h
1466 11-12-2008 05:18:04 1 C 4.78 g/m*3 1 C 0 km/h
1467 11-12-2008 05:30:04 1 C 4.78 g/m*3 1 C 0 km/h
1468 11-12-2008 05:42:04 1 C 4.72 g/m*3 1 C 0 km/h
1469 11-12-2008 05:54:04 1 C 4.72 g/m*3 1 C 0 km/h
1470 11-12-2008 06:06:04 1.1 C 4.76 g/m*3 1.1 C 0 km/h
1471 11-12-2008 06:18:04 1.1 C 4.7 g/m*3 1.1 C 0 km/h
1472 11-12-2008 06:30:05 1 C 4.62 g/m*3 1 C 0 km/h
1473 11-12-2008 06:42:05 1.1 C 4.65 g/m*3 1.1 C 0 km/h
1474 11-12-2008 06:54:28 1 C 4.57 g/m*3 1 C 0 km/h
1475 11-12-2008 07:06:29 0.9 C 4.54 g/m*3 0.9 C 0 km/h
Sensor: Nr:Datum:Temp:Abs-Feuchte:Windchill:Wind:
Aussen-T/F 1476 11-12-2008 07:18:27 1 C 4.52 g/m*3 1 C 0 km/h
1477 11-12-2008 07:30:27 1 C 4.52 g/m*3 1 C 0 km/h
1478 11-12-2008 07:42:28 0.9 C 4.48 g/m*3 0.9 C 0 km/h
1479 11-12-2008 07:54:27 0.9 C 4.54 g/m*3 0.9 C 0 km/h
1480 11-12-2008 08:06:27 1 C 4.52 g/m*3 1 C 0 km/h
1481 11-12-2008 08:18:27 0.9 C 4.48 g/m*3 0.9 C 0 km/h
1482 11-12-2008 08:30:27 0.8 C 4.45 g/m*3 0.8 C 0 km/h
1483 11-12-2008 08:42:27 0.8 C 4.45 g/m*3 0.8 C 0 km/h
1484 11-12-2008 08:54:26 0.8 C 4.45 g/m*3 0.8 C 0 km/h
1485 11-12-2008 09:06:26 0.9 C 4.48 g/m*3 0.9 C 0 km/h
1486 11-12-2008 09:18:27 1 C 4.46 g/m*3 1 C 0 km/h
1487 11-12-2008 09:30:27 1.1 C 4.49 g/m*3 1.1 C 0 km/h
1488 11-12-2008 09:42:27 1.3 C 4.56 g/m*3 1.3 C 0 km/h
1489 11-12-2008 09:54:26 1.4 C 4.53 g/m*3 1.4 C 0 km/h
1490 11-12-2008 10:06:26 1.5 C 4.51 g/m*3 1.5 C 0 km/h
1491 11-12-2008 10:18:26 1.6 C 4.49 g/m*3 1.6 C 0 km/h
1492 11-12-2008 10:30:26 1.7 C 4.46 g/m*3 1.7 C 0 km/h
1493 11-12-2008 10:42:26 2 C 4.45 g/m*3 2 C 0 km/h
1494 11-12-2008 10:54:25 2.3 C 4.54 g/m*3 2.3 C 0 km/h
1495 11-12-2008 11:06:26 2.4 C 4.51 g/m*3 2.4 C 0 km/h
1496 11-12-2008 11:18:25 2.3 C 4.31 g/m*3 2.3 C 0 km/h
1497 11-12-2008 11:30:25 2.4 C 4.34 g/m*3 2.4 C 0 km/h
1498 11-12-2008 11:42:25 2.6 C 4.4 g/m*3 2.6 C 0 km/h
1499 11-12-2008 11:54:25 2.8 C 4.4 g/m*3 2.8 C 0 km/h
1500 11-12-2008 12:06:25 2.6 C 4.28 g/m*3 2.6 C 0 km/h
Sensor: Nr:Datum:Temp:Abs-Feuchte:Windchill:Wind:
Aussen-T/F 1501 11-12-2008 12:18:24 2.7 C 4.37 g/m*3 2.7 C 0 km/h
1502 11-12-2008 12:30:24 2.9 C 4.43 g/m*3 2.9 C 0 km/h
1503 11-12-2008 12:42:24 2.9 C 4.37 g/m*3 2.9 C 0 km/h
1504 11-12-2008 12:54:25 3 C 4.28 g/m*3 3 C 0 km/h
1505 11-12-2008 13:06:24 3.1 C 4.31 g/m*3 3.1 C 0 km/h
1506 11-12-2008 13:18:24 3.2 C 4.34 g/m*3 3.2 C 0 km/h
1507 11-12-2008 13:30:24 3 C 4.22 g/m*3 3 C 0 km/h
1508 11-12-2008 13:42:24 2.8 C 4.28 g/m*3 2.8 C 0 km/h
1509 11-12-2008 13:54:24 2.9 C 4.31 g/m*3 2.9 C 0 km/h
1510 11-12-2008 14:06:23 3.1 C 4.31 g/m*3 3.1 C 0 km/h
1511 11-12-2008 14:18:24 3.1 C 4.31 g/m*3 3.1 C 0 km/h
1512 11-12-2008 14:30:24 3.2 C 4.4 g/m*3 3.2 C 0 km/h
1513 11-12-2008 14:42:24 3 C 4.28 g/m*3 3 C 0 km/h
1514 11-12-2008 14:54:23 3 C 4.28 g/m*3 3 C 0 km/h
1515 11-12-2008 15:06:24 2.9 C 4.31 g/m*3 2.9 C 0 km/h
1516 11-12-2008 15:18:23 2.7 C 4.25 g/m*3 2.7 C 0 km/h
1517 11-12-2008 15:30:23 2.8 C 4.34 g/m*3 2.8 C 0 km/h
1518 11-12-2008 15:42:23 2.7 C 4.31 g/m*3 2.7 C 0 km/h
1519 11-12-2008 15:54:23 2.7 C 4.37 g/m*3 2.7 C 0 km/h
1520 11-12-2008 16:06:23 2.4 C 4.34 g/m*3 2.4 C 0 km/h
1521 11-12-2008 16:18:22 2.2 C 4.39 g/m*3 2.2 C 0 km/h
1522 11-12-2008 16:30:22 2.2 C 4.45 g/m*3 2.2 C 0 km/h
1523 11-12-2008 16:42:22 2.1 C 4.48 g/m*3 2.1 C 0 km/h
1524 11-12-2008 16:54:22 2.1 C 4.48 g/m*3 2.1 C 0 km/h
1525 11-12-2008 17:06:22 2.1 C 4.48 g/m*3 2.1 C 0 km/h
Sensor: Nr:Datum:Temp:Abs-Feuchte:Windchill:Wind:
Aussen-T/F 1526 11-12-2008 17:18:22 2 C 4.5 g/m*3 2 C 0 km/h
1527 11-12-2008 17:30:22 2 C 4.5 g/m*3 2 C 0 km/h
1528 11-12-2008 17:42:22 2 C 4.5 g/m*3 2 C 0 km/h
1529 11-12-2008 17:54:22 2 C 4.56 g/m*3 2 C 0 km/h
1530 11-12-2008 18:06:23 2.1 C 4.59 g/m*3 2.1 C 0 km/h
1531 11-12-2008 18:18:22 2 C 4.56 g/m*3 2 C 0 km/h
1532 11-12-2008 18:30:22 1.8 C 4.49 g/m*3 1.8 C 0 km/h
1533 11-12-2008 18:42:23 1.7 C 4.46 g/m*3 1.7 C 0 km/h
1534 11-12-2008 18:54:22 1.7 C 4.46 g/m*3 1.7 C 0 km/h
1535 11-12-2008 19:06:22 1.6 C 4.43 g/m*3 1.6 C 0 km/h
1536 11-12-2008 19:18:21 1.6 C 4.49 g/m*3 1.6 C 0 km/h
1537 11-12-2008 19:30:21 1.6 C 4.49 g/m*3 1.6 C 0 km/h
1538 11-12-2008 19:42:22 1.5 C 4.46 g/m*3 1.5 C 0 km/h
1539 11-12-2008 19:54:21 1.4 C 4.43 g/m*3 1.4 C 0 km/h
1540 11-12-2008 20:06:21 1.2 C 4.37 g/m*3 1.2 C 0 km/h
1541 11-12-2008 20:18:21 1.2 C 4.42 g/m*3 1.2 C 0 km/h
1542 11-12-2008 20:30:21 1 C 4.36 g/m*3 1 C 0 km/h
1543 11-12-2008 20:42:21 0.9 C 4.38 g/m*3 0.9 C 0 km/h
1544 11-12-2008 20:54:20 0.7 C 4.32 g/m*3 0.7 C 0 km/h
1545 11-12-2008 21:06:21 0.7 C 4.37 g/m*3 0.7 C 0 km/h
1546 11-12-2008 21:18:20 0.7 C 4.37 g/m*3 0.7 C 0 km/h
1547 11-12-2008 21:30:20 0.7 C 4.42 g/m*3 0.7 C 0 km/h
1548 11-12-2008 21:42:20 0.5 C 4.36 g/m*3 0.5 C 0 km/h
1549 11-12-2008 21:54:19 0.4 C 4.33 g/m*3 0.4 C 0 km/h
1550 11-12-2008 22:06:19 0.3 C 4.3 g/m*3 0.3 C 0 km/h
Sensor: Nr:Datum:Temp:Abs-Feuchte:Windchill:Wind:
Aussen-T/F 1551 11-12-2008 22:18:19 0.1 C 4.29 g/m*3 0.1 C 0 km/h
1552 11-12-2008 22:30:19 0 C 4.26 g/m*3 0 C 0 km/h
1553 11-12-2008 22:42:19 -0.2 C 4.21 g/m*3 -0.2 C 0 km/h
1554 11-12-2008 22:55:20 -0.2 C 4.21 g/m*3 -0.2 C 0 km/h
1555 11-12-2008 23:07:20 -0.3 C 4.18 g/m*3 -0.3 C 0 km/h
1556 11-12-2008 23:19:21 -0.3 C 4.22 g/m*3 -0.3 C 0 km/h
1557 11-12-2008 23:31:21 -0.2 C 4.25 g/m*3 -0.2 C 0 km/h
1558 11-12-2008 23:43:21 -0.4 C 4.19 g/m*3 -0.4 C 0 km/h
1559 11-12-2008 23:55:21 -0.6 C 4.14 g/m*3 -0.6 C 0 km/h
1560 12-12-2008 00:07:21 -0.8 C 4.08 g/m*3 -0.8 C 0 km/h
1561 12-12-2008 00:19:21 -0.9 C 4.05 g/m*3 -0.9 C 0 km/h
1562 12-12-2008 00:31:21 -0.9 C 4.1 g/m*3 -0.9 C 0 km/h
1563 12-12-2008 00:43:21 -0.6 C 4.23 g/m*3 -0.6 C 0 km/h
1564 12-12-2008 00:55:21 -0.3 C 4.32 g/m*3 -0.3 C 0 km/h
1565 12-12-2008 01:07:21 -0.5 C 4.26 g/m*3 -0.5 C 0 km/h
1566 12-12-2008 01:19:21 -0.6 C 4.23 g/m*3 -0.6 C 0 km/h
1567 12-12-2008 01:31:21 -0.5 C 4.26 g/m*3 -0.5 C 0 km/h
1568 12-12-2008 01:43:21 -0.5 C 4.26 g/m*3 -0.5 C 0 km/h
1569 12-12-2008 01:55:21 -0.5 C 4.26 g/m*3 -0.5 C 0 km/h
1570 12-12-2008 02:07:21 -0.6 C 4.23 g/m*3 -0.6 C 0 km/h
1571 12-12-2008 02:19:21 -0.7 C 4.2 g/m*3 -0.7 C 0 km/h
1572 12-12-2008 02:31:21 -1 C 4.07 g/m*3 -1 C 0 km/h
1573 12-12-2008 02:43:21 -0.9 C 4.14 g/m*3 -0.9 C 0 km/h
1574 12-12-2008 02:55:21 -0.8 C 4.17 g/m*3 -0.8 C 0 km/h
1575 12-12-2008 03:07:22 -0.9 C 4.14 g/m*3 -0.9 C 0 km/h
Sensor: Nr:Datum:Temp:Abs-Feuchte:Windchill:Wind:
Aussen-T/F 1576 12-12-2008 03:19:22 -1 C 4.07 g/m*3 -1 C 0 km/h
1577 12-12-2008 03:31:22 -1 C 4.07 g/m*3 -1 C 0 km/h
1578 12-12-2008 03:43:22 -1.2 C 4.01 g/m*3 -1.2 C 0 km/h
1579 12-12-2008 03:55:22 -1.4 C 3.96 g/m*3 -1.4 C 0 km/h
1580 12-12-2008 04:07:22 -1.3 C 3.98 g/m*3 -1.3 C 0 km/h
1581 12-12-2008 04:19:22 -1.5 C 3.93 g/m*3 -1.5 C 0 km/h
1582 12-12-2008 04:31:22 -1.6 C 3.9 g/m*3 -1.6 C 0 km/h
1583 12-12-2008 04:43:22 -1.4 C 4 g/m*3 -1.4 C 0 km/h
1584 12-12-2008 04:55:22 -1.5 C 3.97 g/m*3 -1.5 C 0 km/h
1585 12-12-2008 05:07:22 -1.4 C 4 g/m*3 -1.4 C 0 km/h
1586 12-12-2008 05:19:22 -1.2 C 4.06 g/m*3 -1.2 C 0 km/h
1587 12-12-2008 05:31:22 -1.1 C 4.09 g/m*3 -1.1 C 0 km/h
1588 12-12-2008 05:43:22 -1.5 C 3.93 g/m*3 -1.5 C 0 km/h
1589 12-12-2008 05:55:22 -1.8 C 3.85 g/m*3 -1.8 C 0 km/h
1590 12-12-2008 06:07:22 -1.5 C 3.93 g/m*3 -1.5 C 0 km/h
1591 12-12-2008 06:19:22 -1.6 C 3.9 g/m*3 -1.6 C 0 km/h
1592 12-12-2008 06:31:22 -1.5 C 3.93 g/m*3 -1.5 C 0 km/h
1593 12-12-2008 06:43:22 -1.6 C 3.9 g/m*3 -1.6 C 0 km/h
1594 12-12-2008 06:55:22 -1.5 C 3.93 g/m*3 -1.5 C 0 km/h
1595 12-12-2008 07:07:20 -1.6 C 3.9 g/m*3 -1.6 C 0 km/h
1596 12-12-2008 07:19:20 -1.7 C 3.83 g/m*3 -1.7 C 0 km/h
1597 12-12-2008 07:31:20 -1.5 C 3.89 g/m*3 -1.5 C 0 km/h
1598 12-12-2008 07:43:20 -1.3 C 3.94 g/m*3 -1.3 C 0 km/h
1599 12-12-2008 07:55:20 -1.1 C 4 g/m*3 -1.1 C 0 km/h
1600 12-12-2008 08:07:20 -0.9 C 4.01 g/m*3 -0.9 C 0 km/h
Sensor: Nr:Datum:Temp:Abs-Feuchte:Windchill:Wind:
Aussen-T/F 1601 12-12-2008 08:19:19 -0.8 C 3.99 g/m*3 -0.8 C 0 km/h
1602 12-12-2008 08:31:19 -0.7 C 3.97 g/m*3 -0.7 C 0 km/h
1603 12-12-2008 08:43:20 -0.6 C 3.9 g/m*3 -0.6 C 0 km/h
1604 12-12-2008 08:55:19 -0.6 C 3.9 g/m*3 -0.6 C 0 km/h
1605 12-12-2008 09:07:19 -0.4 C 3.96 g/m*3 -0.4 C 0 km/h
1606 12-12-2008 09:19:18 -0.3 C 3.99 g/m*3 -0.3 C 0 km/h
1607 12-12-2008 09:31:19 -0.2 C 4.01 g/m*3 -0.2 C 0 km/h
1608 12-12-2008 09:43:19 -0.1 C 4.04 g/m*3 -0.1 C 0 km/h
1609 12-12-2008 09:55:18 0.1 C 4.1 g/m*3 0.1 C 0 km/h
1610 12-12-2008 10:07:18 0.2 C 4.13 g/m*3 0.2 C 0 km/h
1611 12-12-2008 10:19:18 0.7 C 4.27 g/m*3 0.7 C 0 km/h
1612 12-12-2008 10:31:18 0.6 C 4.24 g/m*3 0.6 C 0 km/h
1613 12-12-2008 10:43:18 0.7 C 4.22 g/m*3 0.7 C 0 km/h
1614 12-12-2008 10:55:18 0.9 C 4.28 g/m*3 0.9 C 0 km/h
1615 12-12-2008 11:07:17 0.9 C 4.12 g/m*3 0.9 C 0 km/h
1616 12-12-2008 11:19:18 0.9 C 3.92 g/m*3 0.9 C 0 km/h
1617 12-12-2008 11:31:18 0.8 C 3.79 g/m*3 0.8 C 0 km/h
1618 12-12-2008 11:43:18 0.8 C 3.79 g/m*3 0.8 C 0 km/h
1619 12-12-2008 11:55:17 0.8 C 3.69 g/m*3 0.8 C 0 km/h
1620 12-12-2008 12:07:18 1 C 3.69 g/m*3 1 C 0 km/h
1621 12-12-2008 12:19:17 1 C 3.69 g/m*3 1 C 0 km/h
1622 12-12-2008 12:31:17 1 C 3.63 g/m*3 1 C 0 km/h
1623 12-12-2008 12:43:17 1 C 3.63 g/m*3 1 C 0 km/h
1624 12-12-2008 12:55:17 1 C 3.69 g/m*3 1 C 0 km/h
1625 12-12-2008 13:07:17 0.8 C 3.69 g/m*3 0.8 C 0 km/h
Sensor: Nr:Datum:Temp:Abs-Feuchte:Windchill:Wind:
Aussen-T/F 1626 12-12-2008 13:19:16 0.8 C 3.63 g/m*3 0.8 C 0 km/h
1627 12-12-2008 13:31:16 0.8 C 3.69 g/m*3 0.8 C 0 km/h
1628 12-12-2008 13:43:16 1 C 3.69 g/m*3 1 C 0 km/h
1629 12-12-2008 13:55:16 1 C 3.69 g/m*3 1 C 0 km/h
1630 12-12-2008 14:07:16 0.8 C 3.63 g/m*3 0.8 C 0 km/h
1631 12-12-2008 14:19:16 0.9 C 3.66 g/m*3 0.9 C 0 km/h
1632 12-12-2008 14:31:16 1 C 3.63 g/m*3 1 C 0 km/h
1633 12-12-2008 14:43:16 1 C 3.69 g/m*3 1 C 0 km/h
1634 12-12-2008 14:55:16 0.9 C 3.61 g/m*3 0.9 C 0 km/h
1635 12-12-2008 15:07:15 0.9 C 3.66 g/m*3 0.9 C 0 km/h
1636 12-12-2008 15:19:16 0.9 C 3.66 g/m*3 0.9 C 0 km/h
1637 12-12-2008 15:31:16 0.8 C 3.69 g/m*3 0.8 C 0 km/h
1638 12-12-2008 15:43:16 0.8 C 3.69 g/m*3 0.8 C 0 km/h
1639 12-12-2008 15:55:15 0.7 C 3.66 g/m*3 0.7 C 0 km/h
1640 12-12-2008 16:07:15 0.6 C 3.64 g/m*3 0.6 C 0 km/h
1641 12-12-2008 16:19:15 0.6 C 3.64 g/m*3 0.6 C 0 km/h
1642 12-12-2008 16:31:15 0.5 C 3.66 g/m*3 0.5 C 0 km/h
1643 12-12-2008 16:43:15 0.4 C 3.64 g/m*3 0.4 C 0 km/h
1644 12-12-2008 16:55:14 0.4 C 3.64 g/m*3 0.4 C 0 km/h
1645 12-12-2008 17:07:15 0.4 C 3.64 g/m*3 0.4 C 0 km/h
1646 12-12-2008 17:19:14 0.4 C 3.69 g/m*3 0.4 C 0 km/h
1647 12-12-2008 17:31:14 0.4 C 3.64 g/m*3 0.4 C 0 km/h
1648 12-12-2008 17:43:14 0.3 C 3.56 g/m*3 0.3 C 0 km/h
1649 12-12-2008 17:55:14 0.3 C 3.56 g/m*3 0.3 C 0 km/h
1650 12-12-2008 18:07:15 0.3 C 3.61 g/m*3 0.3 C 0 km/h
Sensor: Nr:Datum:Temp:Abs-Feuchte:Windchill:Wind:
Aussen-T/F 1651 12-12-2008 18:19:16 0.2 C 3.59 g/m*3 0.2 C 0 km/h
1652 12-12-2008 18:31:14 0.1 C 3.51 g/m*3 0.1 C 0 km/h
1653 12-12-2008 18:43:14 0.2 C 3.59 g/m*3 0.2 C 0 km/h
1654 12-12-2008 18:55:13 0.1 C 3.51 g/m*3 0.1 C 0 km/h
1655 12-12-2008 19:07:14 0 C 3.49 g/m*3 0 C 0 km/h
1656 12-12-2008 19:19:13 0 C 3.49 g/m*3 0 C 0 km/h
1657 12-12-2008 19:31:14 0 C 3.54 g/m*3 0 C 0 km/h
1658 12-12-2008 19:43:14 -0.1 C 3.51 g/m*3 -0.1 C 0 km/h
1659 12-12-2008 19:55:13 -0.2 C 3.44 g/m*3 -0.2 C 0 km/h
1660 12-12-2008 20:07:13 -0.3 C 3.42 g/m*3 -0.3 C 0 km/h
1661 12-12-2008 20:19:13 -0.3 C 3.42 g/m*3 -0.3 C 0 km/h
1662 12-12-2008 20:31:13 -0.3 C 3.42 g/m*3 -0.3 C 0 km/h
1663 12-12-2008 20:43:13 -0.3 C 3.42 g/m*3 -0.3 C 0 km/h
1664 12-12-2008 20:55:12 -0.4 C 3.39 g/m*3 -0.4 C 0 km/h
1665 12-12-2008 21:07:13 -0.5 C 3.37 g/m*3 -0.5 C 0 km/h
1666 12-12-2008 21:19:12 -0.4 C 3.39 g/m*3 -0.4 C 0 km/h
1667 12-12-2008 21:31:12 -0.5 C 3.37 g/m*3 -0.5 C 0 km/h
1668 12-12-2008 21:43:12 -0.4 C 3.35 g/m*3 -0.4 C 0 km/h
1669 12-12-2008 21:55:11 -0.4 C 3.35 g/m*3 -0.4 C 0 km/h
1670 12-12-2008 22:07:12 -0.4 C 3.39 g/m*3 -0.4 C 0 km/h
1671 12-12-2008 22:20:38 -0.4 C 3.39 g/m*3 -0.4 C 0 km/h
1672 12-12-2008 22:32:38 -0.5 C 3.32 g/m*3 -0.5 C 0 km/h
1673 12-12-2008 22:44:38 -0.5 C 3.32 g/m*3 -0.5 C 0 km/h
1674 12-12-2008 22:56:38 -0.6 C 3.35 g/m*3 -0.6 C 0 km/h
1675 12-12-2008 23:08:38 -0.6 C 3.3 g/m*3 -0.6 C 0 km/h
Sensor: Nr:Datum:Temp:Abs-Feuchte:Windchill:Wind:
Aussen-T/F 1676 12-12-2008 23:20:38 -0.7 C 3.32 g/m*3 -0.7 C 0 km/h
1677 12-12-2008 23:32:38 -0.6 C 3.35 g/m*3 -0.6 C 0 km/h
1678 12-12-2008 23:44:38 -0.6 C 3.35 g/m*3 -0.6 C 0 km/h
1679 12-12-2008 23:56:38 -0.6 C 3.35 g/m*3 -0.6 C 0 km/h
1680 13-12-2008 00:08:38 -0.6 C 3.35 g/m*3 -0.6 C 0 km/h
1681 13-12-2008 00:20:38 -0.7 C 3.32 g/m*3 -0.7 C 0 km/h
1682 13-12-2008 00:32:38 -0.7 C 3.32 g/m*3 -0.7 C 0 km/h
1683 13-12-2008 00:44:38 -0.7 C 3.37 g/m*3 -0.7 C 0 km/h
1684 13-12-2008 00:56:38 -0.7 C 3.37 g/m*3 -0.7 C 0 km/h
1685 13-12-2008 01:08:38 -0.7 C 3.37 g/m*3 -0.7 C 0 km/h
1686 13-12-2008 01:20:38 -0.7 C 3.37 g/m*3 -0.7 C 0 km/h
1687 13-12-2008 01:32:39 -0.7 C 3.37 g/m*3 -0.7 C 0 km/h
1688 13-12-2008 01:44:39 -0.7 C 3.37 g/m*3 -0.7 C 0 km/h
1689 13-12-2008 01:56:39 -0.8 C 3.35 g/m*3 -0.8 C 0 km/h
1690 13-12-2008 02:08:39 -0.8 C 3.39 g/m*3 -0.8 C 0 km/h
1691 13-12-2008 02:20:39 -0.9 C 3.37 g/m*3 -0.9 C 0 km/h
1692 13-12-2008 02:32:39 -0.9 C 3.37 g/m*3 -0.9 C 0 km/h
1693 13-12-2008 02:44:39 -1 C 3.35 g/m*3 -1 C 0 km/h
1694 13-12-2008 02:56:39 -1.1 C 3.32 g/m*3 -1.1 C 0 km/h
1695 13-12-2008 03:08:39 -1.1 C 3.32 g/m*3 -1.1 C 0 km/h
1696 13-12-2008 03:20:39 -1.1 C 3.32 g/m*3 -1.1 C 0 km/h
1697 13-12-2008 03:32:39 -1.1 C 3.32 g/m*3 -1.1 C 0 km/h
1698 13-12-2008 03:44:39 -1.2 C 3.3 g/m*3 -1.2 C 0 km/h
1699 13-12-2008 03:56:39 -1.2 C 3.3 g/m*3 -1.2 C 0 km/h
1700 13-12-2008 04:08:39 -1.3 C 3.28 g/m*3 -1.3 C 0 km/h
Sensor: Nr:Datum:Temp:Abs-Feuchte:Windchill:Wind:
Aussen-T/F 1701 13-12-2008 04:20:39 -1.3 C 3.32 g/m*3 -1.3 C 0 km/h
1702 13-12-2008 04:32:39 -1.3 C 3.32 g/m*3 -1.3 C 0 km/h
1703 13-12-2008 04:44:39 -1.3 C 3.32 g/m*3 -1.3 C 0 km/h
1704 13-12-2008 04:56:39 -1.3 C 3.32 g/m*3 -1.3 C 0 km/h
1705 13-12-2008 05:08:39 -1.2 C 3.34 g/m*3 -1.2 C 0 km/h
1706 13-12-2008 05:20:40 -1.1 C 3.41 g/m*3 -1.1 C 0 km/h
1707 13-12-2008 05:32:40 -1.1 C 3.37 g/m*3 -1.1 C 0 km/h
1708 13-12-2008 05:44:40 -1 C 3.39 g/m*3 -1 C 0 km/h
1709 13-12-2008 05:56:40 -0.9 C 3.41 g/m*3 -0.9 C 0 km/h
1710 13-12-2008 06:08:40 -0.8 C 3.44 g/m*3 -0.8 C 0 km/h
1711 13-12-2008 06:20:40 -0.8 C 3.44 g/m*3 -0.8 C 0 km/h
1712 13-12-2008 06:32:40 -0.8 C 3.44 g/m*3 -0.8 C 0 km/h
1713 13-12-2008 06:44:40 -0.8 C 3.39 g/m*3 -0.8 C 0 km/h
1714 13-12-2008 06:56:40 -0.7 C 3.46 g/m*3 -0.7 C 0 km/h
1715 13-12-2008 07:08:40 -0.7 C 3.46 g/m*3 -0.7 C 0 km/h
1716 13-12-2008 07:20:40 -0.7 C 3.46 g/m*3 -0.7 C 0 km/h
1717 13-12-2008 07:32:40 -0.6 C 3.49 g/m*3 -0.6 C 0 km/h
1718 13-12-2008 07:44:40 -0.6 C 3.49 g/m*3 -0.6 C 0 km/h
1719 13-12-2008 07:56:40 -0.6 C 3.49 g/m*3 -0.6 C 0 km/h
1720 13-12-2008 08:08:37 -0.6 C 3.53 g/m*3 -0.6 C 0 km/h
1721 13-12-2008 08:20:37 -0.5 C 3.56 g/m*3 -0.5 C 0 km/h
1722 13-12-2008 08:32:37 -0.5 C 3.56 g/m*3 -0.5 C 0 km/h
1723 13-12-2008 08:44:37 -0.5 C 3.56 g/m*3 -0.5 C 0 km/h
1724 13-12-2008 08:56:37 -0.5 C 3.6 g/m*3 -0.5 C 0 km/h
1725 13-12-2008 09:08:37 -0.4 C 3.63 g/m*3 -0.4 C 0 km/h
Sensor: Nr:Datum:Temp:Abs-Feuchte:Windchill:Wind:
Aussen-T/F 1726 13-12-2008 09:20:37 -0.3 C 3.65 g/m*3 -0.3 C 0 km/h
1727 13-12-2008 09:32:37 -0.2 C 3.68 g/m*3 -0.2 C 0 km/h
1728 13-12-2008 09:44:37 -0.2 C 3.68 g/m*3 -0.2 C 0 km/h
1729 13-12-2008 09:56:37 -0.1 C 3.71 g/m*3 -0.1 C 0 km/h
1730 13-12-2008 10:08:36 0.1 C 3.76 g/m*3 0.1 C 0 km/h
1731 13-12-2008 10:20:37 0.1 C 3.76 g/m*3 0.1 C 0 km/h
1732 13-12-2008 10:32:36 0.2 C 3.78 g/m*3 0.2 C 0 km/h
1733 13-12-2008 10:44:36 0.3 C 3.81 g/m*3 0.3 C 0 km/h
1734 13-12-2008 10:56:36 0.3 C 3.81 g/m*3 0.3 C 0 km/h
1735 13-12-2008 11:08:36 0.3 C 3.81 g/m*3 0.3 C 0 km/h
1736 13-12-2008 11:20:36 0.3 C 3.81 g/m*3 0.3 C 0 km/h
1737 13-12-2008 11:32:36 0.3 C 3.81 g/m*3 0.3 C 0 km/h
1738 13-12-2008 11:44:36 0.3 C 3.86 g/m*3 0.3 C 0 km/h
1739 13-12-2008 11:56:36 0.4 C 3.93 g/m*3 0.4 C 0 km/h
1740 13-12-2008 12:08:36 0.5 C 3.96 g/m*3 0.5 C 0 km/h
1741 13-12-2008 12:20:35 0.5 C 3.96 g/m*3 0.5 C 0 km/h
1742 13-12-2008 12:32:35 0.5 C 3.96 g/m*3 0.5 C 0 km/h
1743 13-12-2008 12:44:35 0.5 C 3.96 g/m*3 0.5 C 0 km/h
1744 13-12-2008 12:56:35 0.7 C 3.97 g/m*3 0.7 C 0 km/h
1745 13-12-2008 13:08:35 0.7 C 3.97 g/m*3 0.7 C 0 km/h
1746 13-12-2008 13:20:34 0.8 C 3.94 g/m*3 0.8 C 0 km/h
1747 13-12-2008 13:32:35 0.8 C 3.89 g/m*3 0.8 C 0 km/h
1748 13-12-2008 13:44:35 0.8 C 3.84 g/m*3 0.8 C 0 km/h
1749 13-12-2008 13:56:34 0.9 C 3.76 g/m*3 0.9 C 0 km/h
1750 13-12-2008 14:08:36 1 C 3.74 g/m*3 1 C 0 km/h
Sensor: Nr:Datum:Temp:Abs-Feuchte:Windchill:Wind:
Aussen-T/F 1751 13-12-2008 14:20:35 1 C 3.69 g/m*3 1 C 0 km/h
1752 13-12-2008 14:32:35 1 C 3.69 g/m*3 1 C 0 km/h
1753 13-12-2008 14:44:35 1 C 3.63 g/m*3 1 C 0 km/h
1754 13-12-2008 14:56:35 1 C 3.69 g/m*3 1 C 0 km/h
1755 13-12-2008 15:08:34 1 C 3.69 g/m*3 1 C 0 km/h
1756 13-12-2008 15:20:34 1 C 3.69 g/m*3 1 C 0 km/h
1757 13-12-2008 15:32:33 1 C 3.69 g/m*3 1 C 0 km/h
1758 13-12-2008 15:44:33 1 C 3.63 g/m*3 1 C 0 km/h
1759 13-12-2008 15:56:33 1 C 3.63 g/m*3 1 C 0 km/h
1760 13-12-2008 16:08:33 1 C 3.63 g/m*3 1 C 0 km/h
1761 13-12-2008 16:20:33 0.9 C 3.66 g/m*3 0.9 C 0 km/h
1762 13-12-2008 16:32:33 0.9 C 3.66 g/m*3 0.9 C 0 km/h
1763 13-12-2008 16:44:33 0.9 C 3.71 g/m*3 0.9 C 0 km/h
1764 13-12-2008 16:56:33 0.8 C 3.69 g/m*3 0.8 C 0 km/h
1765 13-12-2008 17:08:32 0.8 C 3.63 g/m*3 0.8 C 0 km/h
1766 13-12-2008 17:20:33 0.8 C 3.63 g/m*3 0.8 C 0 km/h
1767 13-12-2008 17:32:33 0.8 C 3.63 g/m*3 0.8 C 0 km/h
1768 13-12-2008 17:44:33 0.7 C 3.61 g/m*3 0.7 C 0 km/h
1769 13-12-2008 17:56:32 0.7 C 3.61 g/m*3 0.7 C 0 km/h
1770 13-12-2008 18:08:33 0.8 C 3.63 g/m*3 0.8 C 0 km/h
1771 13-12-2008 18:20:32 0.6 C 3.53 g/m*3 0.6 C 0 km/h
1772 13-12-2008 18:32:32 0.5 C 3.56 g/m*3 0.5 C 0 km/h
1773 13-12-2008 18:44:32 0.3 C 3.51 g/m*3 0.3 C 0 km/h
1774 13-12-2008 18:56:32 -0.1 C 3.46 g/m*3 -0.1 C 0 km/h
1775 13-12-2008 19:08:32 -0.2 C 3.49 g/m*3 -0.2 C 0 km/h
Sensor: Nr:Datum:Temp:Abs-Feuchte:Windchill:Wind:
Aussen-T/F 1776 13-12-2008 19:20:31 -0.2 C 3.49 g/m*3 -0.2 C 0 km/h
1777 13-12-2008 19:32:31 -0.2 C 3.44 g/m*3 -0.2 C 0 km/h
1778 13-12-2008 19:44:31 -0.6 C 3.39 g/m*3 -0.6 C 0 km/h
1779 13-12-2008 19:56:31 -1 C 3.35 g/m*3 -1 C 0 km/h
1780 13-12-2008 20:08:31 -1.2 C 3.34 g/m*3 -1.2 C 0 km/h
1781 13-12-2008 20:20:31 -1.4 C 3.39 g/m*3 -1.4 C 0 km/h
1782 13-12-2008 20:32:31 -0.5 C 3.51 g/m*3 -0.5 C 0 km/h
1783 13-12-2008 20:44:31 -0.7 C 3.46 g/m*3 -0.7 C 0 km/h
1784 13-12-2008 20:56:31 -1 C 3.44 g/m*3 -1 C 0 km/h
1785 13-12-2008 21:08:31 -1 C 3.48 g/m*3 -1 C 0 km/h
1786 13-12-2008 21:20:30 -1.1 C 3.5 g/m*3 -1.1 C 0 km/h
1787 13-12-2008 21:32:30 -1.3 C 3.5 g/m*3 -1.3 C 0 km/h
1788 13-12-2008 21:44:31 -1.4 C 3.52 g/m*3 -1.4 C 0 km/h
1789 13-12-2008 21:56:30 -1.3 C 3.59 g/m*3 -1.3 C 0 km/h
1790 13-12-2008 22:08:30 -1.1 C 3.64 g/m*3 -1.1 C 0 km/h
1791 13-12-2008 22:20:29 -0.9 C 3.69 g/m*3 -0.9 C 0 km/h
1792 13-12-2008 22:32:30 -0.5 C 3.7 g/m*3 -0.5 C 0 km/h
1793 13-12-2008 22:44:30 -0.6 C 3.63 g/m*3 -0.6 C 0 km/h
1794 13-12-2008 22:57:30 -0.8 C 3.58 g/m*3 -0.8 C 0 km/h
1795 13-12-2008 23:09:30 -0.9 C 3.6 g/m*3 -0.9 C 0 km/h
1796 13-12-2008 23:21:30 -0.8 C 3.62 g/m*3 -0.8 C 0 km/h
1797 13-12-2008 23:33:30 -0.6 C 3.67 g/m*3 -0.6 C 0 km/h
1798 13-12-2008 23:45:30 -0.7 C 3.65 g/m*3 -0.7 C 0 km/h
1799 13-12-2008 23:57:30 -1 C 3.57 g/m*3 -1 C 0 km/h
1800 14-12-2008 00:09:30 -1 C 3.57 g/m*3 -1 C 0 km/h
Sensor: Nr:Datum:Temp:Abs-Feuchte:Windchill:Wind:
Aussen-T/F 1801 14-12-2008 00:21:30 -1.3 C 3.54 g/m*3 -1.3 C 0 km/h
1802 14-12-2008 00:33:30 -1.4 C 3.56 g/m*3 -1.4 C 0 km/h
1803 14-12-2008 00:45:30 -1.2 C 3.7 g/m*3 -1.2 C 0 km/h
1804 14-12-2008 00:57:30 -1 C 3.75 g/m*3 -1 C 0 km/h
1805 14-12-2008 01:09:30 -1.2 C 3.7 g/m*3 -1.2 C 0 km/h
1806 14-12-2008 01:21:30 -1.4 C 3.65 g/m*3 -1.4 C 0 km/h
1807 14-12-2008 01:33:30 -1.4 C 3.65 g/m*3 -1.4 C 0 km/h
1808 14-12-2008 01:45:31 -1.2 C 3.74 g/m*3 -1.2 C 0 km/h
1809 14-12-2008 01:57:31 -1 C 3.8 g/m*3 -1 C 0 km/h
1810 14-12-2008 02:09:31 -1.1 C 3.73 g/m*3 -1.1 C 0 km/h
1811 14-12-2008 02:21:31 -1.2 C 3.7 g/m*3 -1.2 C 0 km/h
1812 14-12-2008 02:33:31 -0.8 C 3.8 g/m*3 -0.8 C 0 km/h
1813 14-12-2008 02:45:31 -0.5 C 3.88 g/m*3 -0.5 C 0 km/h
1814 14-12-2008 02:57:31 -0.4 C 3.86 g/m*3 -0.4 C 0 km/h
1815 14-12-2008 03:09:31 -0.5 C 3.84 g/m*3 -0.5 C 0 km/h
1816 14-12-2008 03:21:31 -0.4 C 3.86 g/m*3 -0.4 C 0 km/h
1817 14-12-2008 03:33:31 -0.5 C 3.84 g/m*3 -0.5 C 0 km/h
1818 14-12-2008 03:45:31 -0.5 C 3.84 g/m*3 -0.5 C 0 km/h
1819 14-12-2008 03:57:31 -0.6 C 3.81 g/m*3 -0.6 C 0 km/h
1820 14-12-2008 04:09:31 -0.8 C 3.76 g/m*3 -0.8 C 0 km/h
1821 14-12-2008 04:21:31 -0.9 C 3.73 g/m*3 -0.9 C 0 km/h
1822 14-12-2008 04:33:31 -0.8 C 3.8 g/m*3 -0.8 C 0 km/h
1823 14-12-2008 04:45:31 -0.8 C 3.8 g/m*3 -0.8 C 0 km/h
1824 14-12-2008 04:57:31 -0.9 C 3.78 g/m*3 -0.9 C 0 km/h
1825 14-12-2008 05:09:31 -0.9 C 3.73 g/m*3 -0.9 C 0 km/h
Sensor: Nr:Datum:Temp:Abs-Feuchte:Windchill:Wind:
Aussen-T/F 1826 14-12-2008 05:21:31 -1 C 3.71 g/m*3 -1 C 0 km/h
1827 14-12-2008 05:33:31 -1.1 C 3.73 g/m*3 -1.1 C 0 km/h
1828 14-12-2008 05:45:32 -1.1 C 3.73 g/m*3 -1.1 C 0 km/h
1829 14-12-2008 05:57:32 -1.1 C 3.73 g/m*3 -1.1 C 0 km/h
1830 14-12-2008 06:09:32 -1.1 C 3.73 g/m*3 -1.1 C 0 km/h
1831 14-12-2008 06:21:32 -1.1 C 3.77 g/m*3 -1.1 C 0 km/h
1832 14-12-2008 06:33:32 -1.1 C 3.77 g/m*3 -1.1 C 0 km/h
1833 14-12-2008 06:45:32 -1 C 3.8 g/m*3 -1 C 0 km/h
1834 14-12-2008 06:57:32 -1.1 C 3.77 g/m*3 -1.1 C 0 km/h
1835 14-12-2008 07:09:32 -1.1 C 3.77 g/m*3 -1.1 C 0 km/h
1836 14-12-2008 07:21:32 -1.3 C 3.67 g/m*3 -1.3 C 0 km/h
1837 14-12-2008 07:33:32 -1.3 C 3.72 g/m*3 -1.3 C 0 km/h
1838 14-12-2008 07:45:32 -1.4 C 3.69 g/m*3 -1.4 C 0 km/h
1839 14-12-2008 07:57:32 -1.4 C 3.69 g/m*3 -1.4 C 0 km/h
1840 14-12-2008 08:09:31 -1.4 C 3.69 g/m*3 -1.4 C 0 km/h
1841 14-12-2008 08:21:30 -1.5 C 3.71 g/m*3 -1.5 C 0 km/h
1842 14-12-2008 08:33:31 -1.4 C 3.74 g/m*3 -1.4 C 0 km/h
1843 14-12-2008 08:45:30 -1.5 C 3.71 g/m*3 -1.5 C 0 km/h
1844 14-12-2008 08:57:30 -1.5 C 3.71 g/m*3 -1.5 C 0 km/h
1845 14-12-2008 09:09:30 -1.3 C 3.76 g/m*3 -1.3 C 0 km/h
1846 14-12-2008 09:21:30 -1 C 3.89 g/m*3 -1 C 0 km/h
1847 14-12-2008 09:33:30 -0.9 C 3.91 g/m*3 -0.9 C 0 km/h
1848 14-12-2008 09:45:29 -0.8 C 3.9 g/m*3 -0.8 C 0 km/h
1849 14-12-2008 09:57:29 -0.7 C 3.92 g/m*3 -0.7 C 0 km/h
1850 14-12-2008 10:09:30 -0.7 C 3.92 g/m*3 -0.7 C 0 km/h
Sensor: Nr:Datum:Temp:Abs-Feuchte:Windchill:Wind:
Aussen-T/F 1851 14-12-2008 10:21:30 -0.4 C 4.05 g/m*3 -0.4 C 0 km/h
1852 14-12-2008 10:33:29 0 C 4.12 g/m*3 0 C 0 km/h
1853 14-12-2008 10:45:30 0.2 C 4.18 g/m*3 0.2 C 0 km/h
1854 14-12-2008 10:57:30 0.7 C 4.37 g/m*3 0.7 C 0 km/h
1855 14-12-2008 11:09:29 1 C 4.41 g/m*3 1 C 0 km/h
1856 14-12-2008 11:21:29 1.2 C 4.42 g/m*3 1.2 C 0 km/h
1857 14-12-2008 11:33:28 1.2 C 4.42 g/m*3 1.2 C 0 km/h
1858 14-12-2008 11:45:29 1.1 C 4.39 g/m*3 1.1 C 0 km/h
1859 14-12-2008 11:57:29 1.1 C 4.44 g/m*3 1.1 C 0 km/h
1860 14-12-2008 12:09:29 1.2 C 4.47 g/m*3 1.2 C 0 km/h
1861 14-12-2008 12:21:28 1 C 4.41 g/m*3 1 C 0 km/h
1862 14-12-2008 12:33:29 1 C 4.46 g/m*3 1 C 0 km/h
1863 14-12-2008 12:45:28 1.1 C 4.49 g/m*3 1.1 C 0 km/h
1864 14-12-2008 12:57:28 1.4 C 4.64 g/m*3 1.4 C 0 km/h
1865 14-12-2008 13:09:28 1.8 C 4.77 g/m*3 1.8 C 0 km/h
1866 14-12-2008 13:21:28 2.2 C 4.79 g/m*3 2.2 C 0 km/h
1867 14-12-2008 13:33:28 2.4 C 4.8 g/m*3 2.4 C 0 km/h
1868 14-12-2008 13:45:27 2.3 C 4.71 g/m*3 2.3 C 0 km/h
1869 14-12-2008 13:57:27 2.6 C 4.8 g/m*3 2.6 C 0 km/h
1870 14-12-2008 14:09:28 2.8 C 4.81 g/m*3 2.8 C 0 km/h
1871 14-12-2008 14:21:28 2.5 C 4.66 g/m*3 2.5 C 0 km/h
1872 14-12-2008 14:33:27 2.5 C 4.66 g/m*3 2.5 C 0 km/h
1873 14-12-2008 14:45:27 2.4 C 4.62 g/m*3 2.4 C 0 km/h
1874 14-12-2008 14:57:27 2.3 C 4.65 g/m*3 2.3 C 0 km/h
1875 14-12-2008 15:09:27 2.4 C 4.68 g/m*3 2.4 C 0 km/h
Sensor: Nr:Datum:Temp:Abs-Feuchte:Windchill:Wind:
Aussen-T/F 1876 14-12-2008 15:21:27 2.3 C 4.65 g/m*3 2.3 C 0 km/h
1877 14-12-2008 15:33:26 2.1 C 4.64 g/m*3 2.1 C 0 km/h
1878 14-12-2008 15:45:27 2.1 C 4.64 g/m*3 2.1 C 0 km/h
1879 14-12-2008 15:57:28 2.1 C 4.7 g/m*3 2.1 C 0 km/h
1880 14-12-2008 16:09:26 2.2 C 4.73 g/m*3 2.2 C 0 km/h
1881 14-12-2008 16:21:26 1.7 C 4.57 g/m*3 1.7 C 0 km/h
1882 14-12-2008 16:33:27 1.5 C 4.57 g/m*3 1.5 C 0 km/h
1883 14-12-2008 16:45:26 1.4 C 4.59 g/m*3 1.4 C 0 km/h
1884 14-12-2008 16:57:26 1.2 C 4.53 g/m*3 1.2 C 0 km/h
1885 14-12-2008 17:09:26 1.3 C 4.61 g/m*3 1.3 C 0 km/h
1886 14-12-2008 17:21:25 1.3 C 4.66 g/m*3 1.3 C 0 km/h
1887 14-12-2008 17:33:26 1.2 C 4.63 g/m*3 1.2 C 0 km/h
1888 14-12-2008 17:45:25 1.2 C 4.63 g/m*3 1.2 C 0 km/h
1889 14-12-2008 17:57:25 1 C 4.62 g/m*3 1 C 0 km/h
1890 14-12-2008 18:09:25 1 C 4.62 g/m*3 1 C 0 km/h
1891 14-12-2008 18:21:25 0.9 C 4.64 g/m*3 0.9 C 0 km/h
1892 14-12-2008 18:33:25 0.9 C 4.64 g/m*3 0.9 C 0 km/h
1893 14-12-2008 18:45:25 0.9 C 4.69 g/m*3 0.9 C 0 km/h
1894 14-12-2008 18:57:25 0.7 C 4.63 g/m*3 0.7 C 0 km/h
1895 14-12-2008 19:09:25 0.5 C 4.51 g/m*3 0.5 C 0 km/h
1896 14-12-2008 19:21:25 0.7 C 4.63 g/m*3 0.7 C 0 km/h
1897 14-12-2008 19:33:24 0.8 C 4.71 g/m*3 0.8 C 0 km/h
1898 14-12-2008 19:45:25 0.7 C 4.68 g/m*3 0.7 C 0 km/h
1899 14-12-2008 19:57:25 0.7 C 4.68 g/m*3 0.7 C 0 km/h
1900 14-12-2008 20:09:24 0.9 C 4.74 g/m*3 0.9 C 0 km/h
Sensor: Nr:Datum:Temp:Abs-Feuchte:Windchill:Wind:
Aussen-T/F 1901 14-12-2008 20:21:24 1 C 4.78 g/m*3 1 C 0 km/h
1902 14-12-2008 20:33:24 1.2 C 4.84 g/m*3 1.2 C 0 km/h
1903 14-12-2008 20:45:23 1.1 C 4.81 g/m*3 1.1 C 0 km/h
1904 14-12-2008 20:57:23 1.2 C 4.84 g/m*3 1.2 C 0 km/h
1905 14-12-2008 21:09:24 1 C 4.72 g/m*3 1 C 0 km/h
1906 14-12-2008 21:21:23 1 C 4.72 g/m*3 1 C 0 km/h
1907 14-12-2008 21:33:24 0.8 C 4.71 g/m*3 0.8 C 0 km/h
1908 14-12-2008 21:45:24 0.8 C 4.71 g/m*3 0.8 C 0 km/h
1909 14-12-2008 21:57:24 0.8 C 4.71 g/m*3 0.8 C 0 km/h
1910 14-12-2008 22:09:23 0.7 C 4.68 g/m*3 0.7 C 0 km/h
1911 14-12-2008 22:21:23 0.6 C 4.65 g/m*3 0.6 C 0 km/h
1912 14-12-2008 22:34:24 0.5 C 4.61 g/m*3 0.5 C 0 km/h
1913 14-12-2008 22:46:24 0.6 C 4.65 g/m*3 0.6 C 0 km/h
1914 14-12-2008 22:58:24 0.7 C 4.73 g/m*3 0.7 C 0 km/h
1915 14-12-2008 23:10:24 0.6 C 4.65 g/m*3 0.6 C 0 km/h
1916 14-12-2008 23:22:24 0.7 C 4.68 g/m*3 0.7 C 0 km/h
1917 14-12-2008 23:34:24 0.9 C 4.79 g/m*3 0.9 C 0 km/h
1918 14-12-2008 23:46:24 1.3 C 4.87 g/m*3 1.3 C 0 km/h
1919 14-12-2008 23:58:25 1.5 C 4.89 g/m*3 1.5 C 0 km/h
1920 15-12-2008 00:10:25 1.4 C 4.8 g/m*3 1.4 C 0 km/h
1921 15-12-2008 00:22:25 1.2 C 4.68 g/m*3 1.2 C 0 km/h
1922 15-12-2008 00:34:25 0.8 C 4.56 g/m*3 0.8 C 0 km/h
1923 15-12-2008 00:46:25 0.6 C 4.54 g/m*3 0.6 C 0 km/h
1924 15-12-2008 00:58:25 0.5 C 4.51 g/m*3 0.5 C 0 km/h
1925 15-12-2008 01:10:25 0.2 C 4.42 g/m*3 0.2 C 0 km/h
Sensor: Nr:Datum:Temp:Abs-Feuchte:Windchill:Wind:
Aussen-T/F 1926 15-12-2008 01:22:25 0.2 C 4.47 g/m*3 0.2 C 0 km/h
1927 15-12-2008 01:34:25 0.2 C 4.47 g/m*3 0.2 C 0 km/h
1928 15-12-2008 01:46:25 0.4 C 4.58 g/m*3 0.4 C 0 km/h
1929 15-12-2008 01:58:25 0.3 C 4.55 g/m*3 0.3 C 0 km/h
1930 15-12-2008 02:10:25 0.3 C 4.55 g/m*3 0.3 C 0 km/h
1931 15-12-2008 02:22:25 0.1 C 4.49 g/m*3 0.1 C 0 km/h
1932 15-12-2008 02:34:25 0 C 4.46 g/m*3 0 C 0 km/h
1933 15-12-2008 02:46:25 -0.1 C 4.43 g/m*3 -0.1 C 0 km/h
1934 15-12-2008 02:58:25 -0.1 C 4.43 g/m*3 -0.1 C 0 km/h
1935 15-12-2008 03:10:25 -0.2 C 4.4 g/m*3 -0.2 C 0 km/h
1936 15-12-2008 03:22:25 -0.3 C 4.41 g/m*3 -0.3 C 0 km/h
1937 15-12-2008 03:34:25 -0.4 C 4.38 g/m*3 -0.4 C 0 km/h
1938 15-12-2008 03:46:25 -0.3 C 4.41 g/m*3 -0.3 C 0 km/h
1939 15-12-2008 03:58:26 -0.4 C 4.38 g/m*3 -0.4 C 0 km/h
1940 15-12-2008 04:10:26 -0.4 C 4.38 g/m*3 -0.4 C 0 km/h
1941 15-12-2008 04:22:26 -0.3 C 4.46 g/m*3 -0.3 C 0 km/h
1942 15-12-2008 04:34:26 -0.3 C 4.46 g/m*3 -0.3 C 0 km/h
1943 15-12-2008 04:46:26 -0.3 C 4.46 g/m*3 -0.3 C 0 km/h
1944 15-12-2008 04:58:26 -0.3 C 4.46 g/m*3 -0.3 C 0 km/h
1945 15-12-2008 05:10:26 -0.5 C 4.4 g/m*3 -0.5 C 0 km/h
1946 15-12-2008 05:22:26 -0.4 C 4.43 g/m*3 -0.4 C 0 km/h
1947 15-12-2008 05:34:26 -0.5 C 4.4 g/m*3 -0.5 C 0 km/h
1948 15-12-2008 05:46:26 -0.6 C 4.37 g/m*3 -0.6 C 0 km/h
1949 15-12-2008 05:58:26 -0.9 C 4.28 g/m*3 -0.9 C 0 km/h
1950 15-12-2008 06:10:26 -1 C 4.25 g/m*3 -1 C 0 km/h
Sensor: Nr:Datum:Temp:Abs-Feuchte:Windchill:Wind:
Aussen-T/F 1951 15-12-2008 06:22:26 -1 C 4.25 g/m*3 -1 C 0 km/h
1952 15-12-2008 06:34:24 -1.1 C 4.26 g/m*3 -1.1 C 0 km/h
1953 15-12-2008 06:46:23 -1.3 C 4.16 g/m*3 -1.3 C 0 km/h
1954 15-12-2008 06:58:23 -1.6 C 4.07 g/m*3 -1.6 C 0 km/h
1955 15-12-2008 07:10:24 -1.4 C 4.18 g/m*3 -1.4 C 0 km/h
1956 15-12-2008 07:22:23 -1.5 C 4.15 g/m*3 -1.5 C 0 km/h
1957 15-12-2008 07:34:23 -1.4 C 4.18 g/m*3 -1.4 C 0 km/h
1958 15-12-2008 07:46:22 -1.4 C 4.18 g/m*3 -1.4 C 0 km/h
1959 15-12-2008 07:58:22 -1.6 C 4.12 g/m*3 -1.6 C 0 km/h
1960 15-12-2008 08:10:23 -1.7 C 4.09 g/m*3 -1.7 C 0 km/h
1961 15-12-2008 08:22:23 -1.9 C 4.03 g/m*3 -1.9 C 0 km/h
1962 15-12-2008 08:34:22 -2 C 4 g/m*3 -2 C 0 km/h
1963 15-12-2008 08:46:23 -2 C 4 g/m*3 -2 C 0 km/h
1964 15-12-2008 08:58:23 -2.1 C 3.98 g/m*3 -2.1 C 0 km/h
1965 15-12-2008 09:10:22 -2.1 C 3.98 g/m*3 -2.1 C 0 km/h
1966 15-12-2008 09:22:22 -1.8 C 4.06 g/m*3 -1.8 C 0 km/h
1967 15-12-2008 09:34:22 -1.8 C 4.06 g/m*3 -1.8 C 0 km/h
1968 15-12-2008 09:46:22 -1.8 C 4.06 g/m*3 -1.8 C 0 km/h
1969 15-12-2008 09:58:22 -1.7 C 4.09 g/m*3 -1.7 C 0 km/h
1970 15-12-2008 10:10:22 -1.6 C 4.12 g/m*3 -1.6 C 0 km/h
1971 15-12-2008 10:22:21 -1.5 C 4.15 g/m*3 -1.5 C 0 km/h
1972 15-12-2008 10:34:22 -1.4 C 4.18 g/m*3 -1.4 C 0 km/h
1973 15-12-2008 10:46:21 -1.1 C 4.26 g/m*3 -1.1 C 0 km/h
1974 15-12-2008 10:58:21 -0.9 C 4.32 g/m*3 -0.9 C 0 km/h
1975 15-12-2008 11:10:21 -0.7 C 4.39 g/m*3 -0.7 C 0 km/h
Sensor: Nr:Datum:Temp:Abs-Feuchte:Windchill:Wind:
Aussen-T/F 1976 15-12-2008 11:22:21 -0.8 C 4.35 g/m*3 -0.8 C 0 km/h
1977 15-12-2008 11:34:21 -0.7 C 4.39 g/m*3 -0.7 C 0 km/h
1978 15-12-2008 11:46:20 -0.6 C 4.42 g/m*3 -0.6 C 0 km/h
1979 15-12-2008 11:58:20 -0.4 C 4.48 g/m*3 -0.4 C 0 km/h
1980 15-12-2008 12:10:21 -0.2 C 4.54 g/m*3 -0.2 C 0 km/h
1981 15-12-2008 12:22:21 -0.2 C 4.54 g/m*3 -0.2 C 0 km/h
1982 15-12-2008 12:34:20 0.1 C 4.63 g/m*3 0.1 C 0 km/h
1983 15-12-2008 12:46:21 0.2 C 4.67 g/m*3 0.2 C 0 km/h
1984 15-12-2008 12:58:21 0.3 C 4.7 g/m*3 0.3 C 0 km/h
1985 15-12-2008 13:10:20 0.5 C 4.76 g/m*3 0.5 C 0 km/h
1986 15-12-2008 13:22:20 0.5 C 4.76 g/m*3 0.5 C 0 km/h
1987 15-12-2008 13:34:19 0.5 C 4.76 g/m*3 0.5 C 0 km/h
1988 15-12-2008 13:46:20 0.7 C 4.83 g/m*3 0.7 C 0 km/h
1989 15-12-2008 13:58:20 0.7 C 4.83 g/m*3 0.7 C 0 km/h
1990 15-12-2008 14:10:19 0.8 C 4.86 g/m*3 0.8 C 0 km/h
1991 15-12-2008 14:22:19 1 C 4.93 g/m*3 1 C 0 km/h
1992 15-12-2008 14:34:20 1 C 4.93 g/m*3 1 C 0 km/h
1993 15-12-2008 14:46:19 1.1 C 4.96 g/m*3 1.1 C 0 km/h
1994 15-12-2008 14:58:19 1.1 C 4.96 g/m*3 1.1 C 0 km/h
1995 15-12-2008 15:10:19 1.1 C 4.96 g/m*3 1.1 C 0 km/h
1996 15-12-2008 15:22:19 1 C 4.93 g/m*3 1 C 0 km/h
1997 15-12-2008 15:34:19 1 C 4.93 g/m*3 1 C 0 km/h
1998 15-12-2008 15:46:18 0.9 C 4.9 g/m*3 0.9 C 0 km/h
1999 15-12-2008 15:58:18 0.7 C 4.83 g/m*3 0.7 C 0 km/h
2000 15-12-2008 16:10:19 0.7 C 4.83 g/m*3 0.7 C 0 km/h
Sensor: Nr:Datum:Temp:Abs-Feuchte:Windchill:Wind:
Aussen-T/F 2001 15-12-2008 16:22:19 0.5 C 4.76 g/m*3 0.5 C 0 km/h
2002 15-12-2008 16:34:18 0.2 C 4.67 g/m*3 0.2 C 0 km/h
2003 15-12-2008 16:46:18 0.2 C 4.67 g/m*3 0.2 C 0 km/h
2004 15-12-2008 16:58:18 0 C 4.6 g/m*3 0 C 0 km/h
2005 15-12-2008 17:10:18 -0.1 C 4.57 g/m*3 -0.1 C 0 km/h
2006 15-12-2008 17:22:18 0 C 4.6 g/m*3 0 C 0 km/h
2007 15-12-2008 17:34:17 0.3 C 4.7 g/m*3 0.3 C 0 km/h
2008 15-12-2008 17:46:18 0.3 C 4.7 g/m*3 0.3 C 0 km/h
2009 15-12-2008 17:58:18 0.2 C 4.67 g/m*3 0.2 C 0 km/h
2010 15-12-2008 18:10:17 0.1 C 4.63 g/m*3 0.1 C 0 km/h
2011 15-12-2008 18:22:17 0.1 C 4.63 g/m*3 0.1 C 0 km/h
2012 15-12-2008 18:34:18 0.1 C 4.63 g/m*3 0.1 C 0 km/h
2013 15-12-2008 18:46:17 0.2 C 4.67 g/m*3 0.2 C 0 km/h
2014 15-12-2008 18:58:17 0.2 C 4.67 g/m*3 0.2 C 0 km/h
2015 15-12-2008 19:10:17 0.3 C 4.7 g/m*3 0.3 C 0 km/h
2016 15-12-2008 19:22:17 0.3 C 4.7 g/m*3 0.3 C 0 km/h
2017 15-12-2008 19:34:16 0.4 C 4.73 g/m*3 0.4 C 0 km/h
2018 15-12-2008 19:46:17 0.4 C 4.73 g/m*3 0.4 C 0 km/h
2019 15-12-2008 19:58:17 0.4 C 4.73 g/m*3 0.4 C 0 km/h
2020 15-12-2008 20:10:16 0.4 C 4.73 g/m*3 0.4 C 0 km/h
2021 15-12-2008 20:22:16 0.4 C 4.73 g/m*3 0.4 C 0 km/h
2022 15-12-2008 20:34:16 0.6 C 4.8 g/m*3 0.6 C 0 km/h
2023 15-12-2008 20:46:16 0.6 C 4.8 g/m*3 0.6 C 0 km/h
2024 15-12-2008 20:58:16 0.6 C 4.8 g/m*3 0.6 C 0 km/h
2025 15-12-2008 21:10:15 0.6 C 4.8 g/m*3 0.6 C 0 km/h
Sensor: Nr:Datum:Temp:Abs-Feuchte:Windchill:Wind:
Aussen-T/F 2026 15-12-2008 21:22:16 0.6 C 4.8 g/m*3 0.6 C 0 km/h
2027 15-12-2008 21:34:16 0.5 C 4.76 g/m*3 0.5 C 0 km/h
2028 15-12-2008 21:46:15 0.6 C 4.8 g/m*3 0.6 C 0 km/h
2029 15-12-2008 21:58:15 0.6 C 4.8 g/m*3 0.6 C 0 km/h
2030 15-12-2008 22:10:16 0.6 C 4.8 g/m*3 0.6 C 0 km/h
2031 15-12-2008 22:23:15 0.6 C 4.8 g/m*3 0.6 C 0 km/h
2032 15-12-2008 22:35:15 0.6 C 4.8 g/m*3 0.6 C 0 km/h
2033 15-12-2008 22:47:15 0.6 C 4.8 g/m*3 0.6 C 0 km/h
2034 15-12-2008 22:59:15 0.6 C 4.8 g/m*3 0.6 C 0 km/h
2035 15-12-2008 23:11:15 0.6 C 4.8 g/m*3 0.6 C 0 km/h
2036 15-12-2008 23:23:15 0.6 C 4.8 g/m*3 0.6 C 0 km/h
2037 15-12-2008 23:35:15 0.6 C 4.8 g/m*3 0.6 C 0 km/h
2038 15-12-2008 23:47:15 0.6 C 4.8 g/m*3 0.6 C 0 km/h
2039 15-12-2008 23:59:15 0.6 C 4.8 g/m*3 0.6 C 0 km/h
2040 16-12-2008 00:11:16 0.7 C 4.83 g/m*3 0.7 C 0 km/h
2041 16-12-2008 00:23:16 0.7 C 4.83 g/m*3 0.7 C 0 km/h
2042 16-12-2008 00:35:16 0.7 C 4.83 g/m*3 0.7 C 0 km/h
2043 16-12-2008 00:47:16 0.6 C 4.8 g/m*3 0.6 C 0 km/h
2044 16-12-2008 00:59:16 0.6 C 4.8 g/m*3 0.6 C 0 km/h
2045 16-12-2008 01:11:16 0.6 C 4.8 g/m*3 0.6 C 0 km/h
2046 16-12-2008 01:23:16 0.6 C 4.8 g/m*3 0.6 C 0 km/h
2047 16-12-2008 01:35:16 0.6 C 4.8 g/m*3 0.6 C 0 km/h
2048 16-12-2008 01:47:16 0.6 C 4.8 g/m*3 0.6 C 0 km/h
2049 16-12-2008 01:59:16 0.6 C 4.8 g/m*3 0.6 C 0 km/h
2050 16-12-2008 02:11:16 0.6 C 4.8 g/m*3 0.6 C 0 km/h
Sensor: Nr:Datum:Temp:Abs-Feuchte:Windchill:Wind:
Aussen-T/F 2051 16-12-2008 02:23:16 0.6 C 4.8 g/m*3 0.6 C 0 km/h
2052 16-12-2008 02:35:16 0.5 C 4.76 g/m*3 0.5 C 0 km/h
2053 16-12-2008 02:47:16 0.5 C 4.76 g/m*3 0.5 C 0 km/h
2054 16-12-2008 02:59:16 0.5 C 4.76 g/m*3 0.5 C 0 km/h
2055 16-12-2008 03:11:16 0.4 C 4.73 g/m*3 0.4 C 0 km/h
2056 16-12-2008 03:23:16 0.4 C 4.73 g/m*3 0.4 C 0 km/h
2057 16-12-2008 03:35:16 0.3 C 4.7 g/m*3 0.3 C 0 km/h
2058 16-12-2008 03:47:16 0.3 C 4.7 g/m*3 0.3 C 0 km/h
2059 16-12-2008 03:59:17 0.3 C 4.7 g/m*3 0.3 C 0 km/h
2060 16-12-2008 04:11:17 0.3 C 4.65 g/m*3 0.3 C 0 km/h
2061 16-12-2008 04:23:17 0.3 C 4.65 g/m*3 0.3 C 0 km/h
2062 16-12-2008 04:35:17 0.3 C 4.65 g/m*3 0.3 C 0 km/h
2063 16-12-2008 04:47:17 0.2 C 4.62 g/m*3 0.2 C 0 km/h
2064 16-12-2008 04:59:17 0.1 C 4.59 g/m*3 0.1 C 0 km/h
2065 16-12-2008 05:11:17 0.2 C 4.62 g/m*3 0.2 C 0 km/h
2066 16-12-2008 05:23:17 0.2 C 4.62 g/m*3 0.2 C 0 km/h
2067 16-12-2008 05:35:17 0.2 C 4.62 g/m*3 0.2 C 0 km/h
2068 16-12-2008 05:47:17 0.2 C 4.57 g/m*3 0.2 C 0 km/h
2069 16-12-2008 05:59:17 0 C 4.51 g/m*3 0 C 0 km/h
2070 16-12-2008 06:11:17 0 C 4.51 g/m*3 0 C 0 km/h
2071 16-12-2008 06:23:17 0 C 4.51 g/m*3 0 C 0 km/h
2072 16-12-2008 06:35:16 -0.1 C 4.47 g/m*3 -0.1 C 0 km/h
2073 16-12-2008 06:47:15 -0.2 C 4.4 g/m*3 -0.2 C 0 km/h
2074 16-12-2008 06:59:15 -0.2 C 4.4 g/m*3 -0.2 C 0 km/h
2075 16-12-2008 07:11:16 -0.2 C 4.4 g/m*3 -0.2 C 0 km/h
Sensor: Nr:Datum:Temp:Abs-Feuchte:Windchill:Wind:
Aussen-T/F 2076 16-12-2008 07:23:15 -0.2 C 4.4 g/m*3 -0.2 C 0 km/h
2077 16-12-2008 07:35:15 -0.1 C 4.43 g/m*3 -0.1 C 0 km/h
2078 16-12-2008 07:47:14 -0.1 C 4.43 g/m*3 -0.1 C 0 km/h
2079 16-12-2008 07:59:14 -0.1 C 4.43 g/m*3 -0.1 C 0 km/h
2080 16-12-2008 08:11:15 -0.1 C 4.43 g/m*3 -0.1 C 0 km/h
2081 16-12-2008 08:23:15 -0.2 C 4.4 g/m*3 -0.2 C 0 km/h
2082 16-12-2008 08:35:14 -0.3 C 4.37 g/m*3 -0.3 C 0 km/h
2083 16-12-2008 08:47:15 -0.3 C 4.32 g/m*3 -0.3 C 0 km/h
2084 16-12-2008 08:59:15 -0.3 C 4.32 g/m*3 -0.3 C 0 km/h
2085 16-12-2008 09:11:14 -0.2 C 4.35 g/m*3 -0.2 C 0 km/h
2086 16-12-2008 09:23:14 -0.2 C 4.35 g/m*3 -0.2 C 0 km/h
2087 16-12-2008 09:35:14 0 C 4.41 g/m*3 0 C 0 km/h
2088 16-12-2008 09:47:14 0 C 4.41 g/m*3 0 C 0 km/h
2089 16-12-2008 09:59:14 0.1 C 4.44 g/m*3 0.1 C 0 km/h
2090 16-12-2008 10:11:14 0 C 4.41 g/m*3 0 C 0 km/h
2091 16-12-2008 10:23:13 0 C 4.36 g/m*3 0 C 0 km/h
2092 16-12-2008 10:35:14 0 C 4.36 g/m*3 0 C 0 km/h
2093 16-12-2008 10:47:13 0 C 4.36 g/m*3 0 C 0 km/h
2094 16-12-2008 10:59:13 0 C 4.36 g/m*3 0 C 0 km/h
2095 16-12-2008 11:11:13 0 C 4.31 g/m*3 0 C 0 km/h
2096 16-12-2008 11:23:13 0.2 C 4.37 g/m*3 0.2 C 0 km/h
2097 16-12-2008 11:35:13 0.2 C 4.37 g/m*3 0.2 C 0 km/h
2098 16-12-2008 11:47:12 0.4 C 4.43 g/m*3 0.4 C 0 km/h
2099 16-12-2008 11:59:12 0.6 C 4.49 g/m*3 0.6 C 0 km/h
2100 16-12-2008 12:11:13 0.7 C 4.53 g/m*3 0.7 C 0 km/h
Sensor: Nr:Datum:Temp:Abs-Feuchte:Windchill:Wind:
Aussen-T/F 2101 16-12-2008 12:23:13 0.7 C 4.53 g/m*3 0.7 C 0 km/h
2102 16-12-2008 12:35:12 0.6 C 4.49 g/m*3 0.6 C 0 km/h
2103 16-12-2008 12:47:12 0.6 C 4.49 g/m*3 0.6 C 0 km/h
2104 16-12-2008 12:59:12 0.7 C 4.53 g/m*3 0.7 C 0 km/h
2105 16-12-2008 13:11:12 0.7 C 4.53 g/m*3 0.7 C 0 km/h
2106 16-12-2008 13:23:12 0.8 C 4.56 g/m*3 0.8 C 0 km/h
2107 16-12-2008 13:35:11 0.8 C 4.56 g/m*3 0.8 C 0 km/h
2108 16-12-2008 13:47:12 0.9 C 4.59 g/m*3 0.9 C 0 km/h
2109 16-12-2008 13:59:12 0.8 C 4.56 g/m*3 0.8 C 0 km/h
2110 16-12-2008 14:11:11 0.9 C 4.64 g/m*3 0.9 C 0 km/h
2111 16-12-2008 14:23:11 1 C 4.62 g/m*3 1 C 0 km/h
2112 16-12-2008 14:35:12 1 C 4.67 g/m*3 1 C 0 km/h
2113 16-12-2008 14:47:11 1 C 4.62 g/m*3 1 C 0 km/h
2114 16-12-2008 14:59:11 1 C 4.62 g/m*3 1 C 0 km/h
2115 16-12-2008 15:11:11 0.9 C 4.64 g/m*3 0.9 C 0 km/h
2116 16-12-2008 15:23:11 0.8 C 4.61 g/m*3 0.8 C 0 km/h
2117 16-12-2008 15:35:11 0.8 C 4.61 g/m*3 0.8 C 0 km/h
2118 16-12-2008 15:47:10 0.9 C 4.69 g/m*3 0.9 C 0 km/h
2119 16-12-2008 15:59:10 0.8 C 4.66 g/m*3 0.8 C 0 km/h
2120 16-12-2008 16:11:10 0.8 C 4.66 g/m*3 0.8 C 0 km/h
2121 16-12-2008 16:23:11 0.7 C 4.63 g/m*3 0.7 C 0 km/h
2122 16-12-2008 16:35:10 0.6 C 4.6 g/m*3 0.6 C 0 km/h
2123 16-12-2008 16:47:10 0.7 C 4.63 g/m*3 0.7 C 0 km/h
2124 16-12-2008 16:59:10 0.7 C 4.63 g/m*3 0.7 C 0 km/h
2125 16-12-2008 17:11:10 0.7 C 4.63 g/m*3 0.7 C 0 km/h
Sensor: Nr:Datum:Temp:Abs-Feuchte:Windchill:Wind:
Aussen-T/F 2126 16-12-2008 17:23:10 0.6 C 4.6 g/m*3 0.6 C 0 km/h
2127 16-12-2008 17:35:10 0.7 C 4.68 g/m*3 0.7 C 0 km/h
2128 16-12-2008 17:47:10 0.7 C 4.68 g/m*3 0.7 C 0 km/h
2129 16-12-2008 17:59:10 0.6 C 4.65 g/m*3 0.6 C 0 km/h
2130 16-12-2008 18:11:09 0.6 C 4.65 g/m*3 0.6 C 0 km/h
2131 16-12-2008 18:23:09 0.5 C 4.61 g/m*3 0.5 C 0 km/h
2132 16-12-2008 18:35:10 0.6 C 4.65 g/m*3 0.6 C 0 km/h
2133 16-12-2008 18:47:09 0.6 C 4.65 g/m*3 0.6 C 0 km/h
2134 16-12-2008 18:59:09 0.6 C 4.65 g/m*3 0.6 C 0 km/h
2135 16-12-2008 19:11:09 0.5 C 4.61 g/m*3 0.5 C 0 km/h
2136 16-12-2008 19:23:09 0.6 C 4.65 g/m*3 0.6 C 0 km/h
2137 16-12-2008 19:35:08 0.6 C 4.65 g/m*3 0.6 C 0 km/h
2138 16-12-2008 19:47:09 0.6 C 4.65 g/m*3 0.6 C 0 km/h
2139 16-12-2008 19:59:10 0.6 C 4.65 g/m*3 0.6 C 0 km/h
2140 16-12-2008 20:11:08 0.5 C 4.61 g/m*3 0.5 C 0 km/h
2141 16-12-2008 20:23:08 0.6 C 4.65 g/m*3 0.6 C 0 km/h
2142 16-12-2008 20:35:08 0.6 C 4.65 g/m*3 0.6 C 0 km/h
2143 16-12-2008 20:47:08 0.5 C 4.61 g/m*3 0.5 C 0 km/h
2144 16-12-2008 20:59:08 0.6 C 4.65 g/m*3 0.6 C 0 km/h
2145 16-12-2008 21:11:08 0.6 C 4.65 g/m*3 0.6 C 0 km/h
2146 16-12-2008 21:23:08 0.6 C 4.65 g/m*3 0.6 C 0 km/h
2147 16-12-2008 21:35:07 0.6 C 4.65 g/m*3 0.6 C 0 km/h
2148 16-12-2008 21:48:08 0.6 C 4.65 g/m*3 0.6 C 0 km/h
2149 16-12-2008 22:00:08 0.5 C 4.61 g/m*3 0.5 C 0 km/h
2150 16-12-2008 22:12:08 0.5 C 4.61 g/m*3 0.5 C 0 km/h
Sensor: Nr:Datum:Temp:Abs-Feuchte:Windchill:Wind:
Aussen-T/F 2151 16-12-2008 22:24:08 0.5 C 4.61 g/m*3 0.5 C 0 km/h
2152 16-12-2008 22:36:08 0.5 C 4.61 g/m*3 0.5 C 0 km/h
2153 16-12-2008 22:48:08 0.5 C 4.61 g/m*3 0.5 C 0 km/h
2154 16-12-2008 23:00:08 0.5 C 4.61 g/m*3 0.5 C 0 km/h
2155 16-12-2008 23:12:08 0.5 C 4.61 g/m*3 0.5 C 0 km/h
2156 16-12-2008 23:24:08 0.5 C 4.61 g/m*3 0.5 C 0 km/h
2157 16-12-2008 23:36:08 0.5 C 4.61 g/m*3 0.5 C 0 km/h
2158 16-12-2008 23:48:08 0.5 C 4.61 g/m*3 0.5 C 0 km/h
2159 17-12-2008 00:00:09 0.5 C 4.61 g/m*3 0.5 C 0 km/h
2160 17-12-2008 00:12:09 0.3 C 4.55 g/m*3 0.3 C 0 km/h
2161 17-12-2008 00:24:09 0.4 C 4.58 g/m*3 0.4 C 0 km/h
2162 17-12-2008 00:36:09 0.5 C 4.61 g/m*3 0.5 C 0 km/h
2163 17-12-2008 00:48:09 0.3 C 4.55 g/m*3 0.3 C 0 km/h
2164 17-12-2008 01:00:09 0.3 C 4.55 g/m*3 0.3 C 0 km/h
2165 17-12-2008 01:12:09 0.3 C 4.55 g/m*3 0.3 C 0 km/h
2166 17-12-2008 01:24:09 0.2 C 4.52 g/m*3 0.2 C 0 km/h
2167 17-12-2008 01:36:09 0.1 C 4.49 g/m*3 0.1 C 0 km/h
2168 17-12-2008 01:48:09 0.1 C 4.49 g/m*3 0.1 C 0 km/h
2169 17-12-2008 02:00:09 0 C 4.46 g/m*3 0 C 0 km/h
2170 17-12-2008 02:12:09 0 C 4.46 g/m*3 0 C 0 km/h
2171 17-12-2008 02:24:09 -0.1 C 4.43 g/m*3 -0.1 C 0 km/h
2172 17-12-2008 02:36:09 -0.1 C 4.43 g/m*3 -0.1 C 0 km/h
2173 17-12-2008 02:48:09 -0.2 C 4.4 g/m*3 -0.2 C 0 km/h
2174 17-12-2008 03:00:09 -0.2 C 4.35 g/m*3 -0.2 C 0 km/h
2175 17-12-2008 03:12:09 -0.3 C 4.32 g/m*3 -0.3 C 0 km/h
Sensor: Nr:Datum:Temp:Abs-Feuchte:Windchill:Wind:
Aussen-T/F 2176 17-12-2008 03:24:09 -0.2 C 4.35 g/m*3 -0.2 C 0 km/h
2177 17-12-2008 03:36:09 -0.3 C 4.32 g/m*3 -0.3 C 0 km/h
2178 17-12-2008 03:48:09 -0.4 C 4.29 g/m*3 -0.4 C 0 km/h
2179 17-12-2008 04:00:10 -0.4 C 4.29 g/m*3 -0.4 C 0 km/h
2180 17-12-2008 04:12:10 -0.4 C 4.29 g/m*3 -0.4 C 0 km/h
2181 17-12-2008 04:24:10 -0.5 C 4.26 g/m*3 -0.5 C 0 km/h
2182 17-12-2008 04:36:10 -0.5 C 4.21 g/m*3 -0.5 C 0 km/h
2183 17-12-2008 04:48:10 -0.6 C 4.18 g/m*3 -0.6 C 0 km/h
2184 17-12-2008 05:00:10 -0.6 C 4.18 g/m*3 -0.6 C 0 km/h
2185 17-12-2008 05:12:10 -0.6 C 4.18 g/m*3 -0.6 C 0 km/h
2186 17-12-2008 05:24:10 -0.7 C 4.15 g/m*3 -0.7 C 0 km/h
2187 17-12-2008 05:36:10 -0.8 C 4.13 g/m*3 -0.8 C 0 km/h
2188 17-12-2008 05:48:10 -1 C 4.07 g/m*3 -1 C 0 km/h
2189 17-12-2008 06:00:10 -1.1 C 4 g/m*3 -1.1 C 0 km/h
2190 17-12-2008 06:12:10 -1.2 C 3.97 g/m*3 -1.2 C 0 km/h
2191 17-12-2008 06:24:10 -1.2 C 3.97 g/m*3 -1.2 C 0 km/h
2192 17-12-2008 06:36:10 -1.2 C 3.97 g/m*3 -1.2 C 0 km/h
2193 17-12-2008 06:48:10 -1.2 C 3.92 g/m*3 -1.2 C 0 km/h
2194 17-12-2008 07:00:10 -1.2 C 3.92 g/m*3 -1.2 C 0 km/h
2195 17-12-2008 07:12:09 -1.2 C 3.92 g/m*3 -1.2 C 0 km/h
2196 17-12-2008 07:24:08 -1.2 C 3.88 g/m*3 -1.2 C 0 km/h
2197 17-12-2008 07:36:08 -1.2 C 3.88 g/m*3 -1.2 C 0 km/h
2198 17-12-2008 07:48:08 -1.1 C 3.86 g/m*3 -1.1 C 0 km/h
2199 17-12-2008 08:00:08 -1 C 3.89 g/m*3 -1 C 0 km/h
2200 17-12-2008 08:12:08 -1 C 3.89 g/m*3 -1 C 0 km/h
Sensor: Nr:Datum:Temp:Abs-Feuchte:Windchill:Wind:
Aussen-T/F 2201 17-12-2008 08:24:08 -1.1 C 3.82 g/m*3 -1.1 C 0 km/h
2202 17-12-2008 08:36:08 -1.2 C 3.74 g/m*3 -1.2 C 0 km/h
2203 17-12-2008 08:48:08 -1.2 C 3.74 g/m*3 -1.2 C 0 km/h
2204 17-12-2008 09:00:08 -1.1 C 3.82 g/m*3 -1.1 C 0 km/h
2205 17-12-2008 09:12:08 -1.1 C 3.77 g/m*3 -1.1 C 0 km/h
2206 17-12-2008 09:24:07 -0.9 C 3.82 g/m*3 -0.9 C 0 km/h
2207 17-12-2008 09:36:07 -1 C 3.8 g/m*3 -1 C 0 km/h
2208 17-12-2008 09:48:07 -0.9 C 3.78 g/m*3 -0.9 C 0 km/h
2209 17-12-2008 10:00:07 -0.9 C 3.78 g/m*3 -0.9 C 0 km/h
2210 17-12-2008 10:12:07 -0.7 C 3.78 g/m*3 -0.7 C 0 km/h
2211 17-12-2008 10:24:06 -0.7 C 3.78 g/m*3 -0.7 C 0 km/h
2212 17-12-2008 10:36:07 -0.6 C 3.76 g/m*3 -0.6 C 0 km/h
2213 17-12-2008 10:48:06 -0.4 C 3.82 g/m*3 -0.4 C 0 km/h
2214 17-12-2008 11:00:06 -0.3 C 3.8 g/m*3 -0.3 C 0 km/h
2215 17-12-2008 11:12:06 -0.1 C 3.85 g/m*3 -0.1 C 0 km/h
2216 17-12-2008 11:24:07 0.1 C 3.85 g/m*3 0.1 C 0 km/h
2217 17-12-2008 11:36:06 0.1 C 3.81 g/m*3 0.1 C 0 km/h
2218 17-12-2008 11:48:06 0 C 3.73 g/m*3 0 C 0 km/h
2219 17-12-2008 12:00:06 0.1 C 3.76 g/m*3 0.1 C 0 km/h
2220 17-12-2008 12:12:06 0.1 C 3.76 g/m*3 0.1 C 0 km/h
2221 17-12-2008 12:24:06 0.2 C 3.78 g/m*3 0.2 C 0 km/h
2222 17-12-2008 12:36:05 0.2 C 3.78 g/m*3 0.2 C 0 km/h
2223 17-12-2008 12:48:06 0.3 C 3.81 g/m*3 0.3 C 0 km/h
2224 17-12-2008 13:00:07 0.4 C 3.88 g/m*3 0.4 C 0 km/h
2225 17-12-2008 13:12:05 0.5 C 3.86 g/m*3 0.5 C 0 km/h
Sensor: Nr:Datum:Temp:Abs-Feuchte:Windchill:Wind:
Aussen-T/F 2226 17-12-2008 13:24:05 0.5 C 3.91 g/m*3 0.5 C 0 km/h
2227 17-12-2008 13:36:05 0.6 C 3.94 g/m*3 0.6 C 0 km/h
2228 17-12-2008 13:48:05 0.6 C 3.94 g/m*3 0.6 C 0 km/h
2229 17-12-2008 14:00:05 0.6 C 3.99 g/m*3 0.6 C 0 km/h
2230 17-12-2008 14:12:05 0.4 C 4.03 g/m*3 0.4 C 0 km/h
2231 17-12-2008 14:24:04 0.3 C 4.16 g/m*3 0.3 C 0 km/h
2232 17-12-2008 14:36:05 0.2 C 4.22 g/m*3 0.2 C 0 km/h
2233 17-12-2008 14:48:04 0.1 C 4.29 g/m*3 0.1 C 0 km/h
2234 17-12-2008 15:00:04 0.1 C 4.34 g/m*3 0.1 C 0 km/h
2235 17-12-2008 15:12:05 0.1 C 4.39 g/m*3 0.1 C 0 km/h
2236 17-12-2008 15:24:04 0.1 C 4.44 g/m*3 0.1 C 0 km/h
2237 17-12-2008 15:36:04 0.1 C 4.44 g/m*3 0.1 C 0 km/h
2238 17-12-2008 15:48:04 0.2 C 4.47 g/m*3 0.2 C 0 km/h
2239 17-12-2008 16:00:04 0.2 C 4.52 g/m*3 0.2 C 0 km/h
2240 17-12-2008 16:12:04 0.2 C 4.52 g/m*3 0.2 C 0 km/h
2241 17-12-2008 16:24:03 0.1 C 4.49 g/m*3 0.1 C 0 km/h
2242 17-12-2008 16:36:03 0 C 4.51 g/m*3 0 C 0 km/h
2243 17-12-2008 16:48:03 0 C 4.51 g/m*3 0 C 0 km/h
2244 17-12-2008 17:00:03 0 C 4.55 g/m*3 0 C 0 km/h
2245 17-12-2008 17:12:03 0.1 C 4.59 g/m*3 0.1 C 0 km/h
2246 17-12-2008 17:24:03 0.1 C 4.59 g/m*3 0.1 C 0 km/h
2247 17-12-2008 17:36:03 0.1 C 4.59 g/m*3 0.1 C 0 km/h
2248 17-12-2008 17:48:03 0.1 C 4.59 g/m*3 0.1 C 0 km/h
2249 17-12-2008 18:00:03 0.2 C 4.67 g/m*3 0.2 C 0 km/h
2250 17-12-2008 18:12:02 0.2 C 4.67 g/m*3 0.2 C 0 km/h
Sensor: Nr:Datum:Temp:Abs-Feuchte:Windchill:Wind:
Aussen-T/F 2251 17-12-2008 18:24:03 0.3 C 4.7 g/m*3 0.3 C 0 km/h
2252 17-12-2008 18:36:02 0.3 C 4.7 g/m*3 0.3 C 0 km/h
2253 17-12-2008 18:48:02 0.4 C 4.73 g/m*3 0.4 C 0 km/h
2254 17-12-2008 19:00:02 0.5 C 4.76 g/m*3 0.5 C 0 km/h
2255 17-12-2008 19:12:02 0.5 C 4.76 g/m*3 0.5 C 0 km/h
2256 17-12-2008 19:24:02 0.5 C 4.76 g/m*3 0.5 C 0 km/h
2257 17-12-2008 19:36:02 0.5 C 4.76 g/m*3 0.5 C 0 km/h
2258 17-12-2008 19:48:02 0.5 C 4.76 g/m*3 0.5 C 0 km/h
2259 17-12-2008 20:00:02 0.5 C 4.76 g/m*3 0.5 C 0 km/h
2260 17-12-2008 20:12:01 0.6 C 4.8 g/m*3 0.6 C 0 km/h
2261 17-12-2008 20:24:01 0.6 C 4.8 g/m*3 0.6 C 0 km/h
2262 17-12-2008 20:36:01 0.6 C 4.8 g/m*3 0.6 C 0 km/h
2263 17-12-2008 20:48:02 0.6 C 4.8 g/m*3 0.6 C 0 km/h
2264 17-12-2008 21:00:02 0.7 C 4.83 g/m*3 0.7 C 0 km/h
2265 17-12-2008 21:12:01 0.7 C 4.83 g/m*3 0.7 C 0 km/h
2266 17-12-2008 21:24:00 0.7 C 4.83 g/m*3 0.7 C 0 km/h
2267 17-12-2008 21:36:01 0.7 C 4.83 g/m*3 0.7 C 0 km/h
2268 17-12-2008 21:49:03 0.8 C 4.86 g/m*3 0.8 C 0 km/h
2269 17-12-2008 22:01:03 0.8 C 4.86 g/m*3 0.8 C 0 km/h
2270 17-12-2008 22:13:03 0.8 C 4.86 g/m*3 0.8 C 0 km/h
2271 17-12-2008 22:25:03 0.8 C 4.86 g/m*3 0.8 C 0 km/h
2272 17-12-2008 22:37:03 0.9 C 4.9 g/m*3 0.9 C 0 km/h
2273 17-12-2008 22:49:03 0.9 C 4.9 g/m*3 0.9 C 0 km/h
2274 17-12-2008 23:01:03 1 C 4.93 g/m*3 1 C 0 km/h
2275 17-12-2008 23:13:03 1 C 4.93 g/m*3 1 C 0 km/h
Sensor: Nr:Datum:Temp:Abs-Feuchte:Windchill:Wind:
Aussen-T/F 2276 17-12-2008 23:25:03 1 C 4.93 g/m*3 1 C 0 km/h
2277 17-12-2008 23:37:03 1 C 4.93 g/m*3 1 C 0 km/h
2278 17-12-2008 23:49:03 1 C 4.93 g/m*3 1 C 0 km/h
2279 18-12-2008 00:01:03 1 C 4.93 g/m*3 1 C 0 km/h
2280 18-12-2008 00:13:03 1 C 4.93 g/m*3 1 C 0 km/h
2281 18-12-2008 00:25:03 1.1 C 4.96 g/m*3 1.1 C 0 km/h
2282 18-12-2008 00:37:03 1.1 C 4.96 g/m*3 1.1 C 0 km/h
2283 18-12-2008 00:49:03 1.1 C 4.96 g/m*3 1.1 C 0 km/h
2284 18-12-2008 01:01:03 1.2 C 5 g/m*3 1.2 C 0 km/h
2285 18-12-2008 01:13:03 1.2 C 5 g/m*3 1.2 C 0 km/h
2286 18-12-2008 01:25:03 1.2 C 5 g/m*3 1.2 C 0 km/h
2287 18-12-2008 01:37:04 1.2 C 5 g/m*3 1.2 C 0 km/h
2288 18-12-2008 01:49:04 1.2 C 5 g/m*3 1.2 C 0 km/h
2289 18-12-2008 02:01:04 1.2 C 5 g/m*3 1.2 C 0 km/h
2290 18-12-2008 02:13:04 1.3 C 5.03 g/m*3 1.3 C 0 km/h
2291 18-12-2008 02:25:04 1.3 C 5.03 g/m*3 1.3 C 0 km/h
2292 18-12-2008 02:37:04 1.3 C 5.03 g/m*3 1.3 C 0 km/h
2293 18-12-2008 02:49:04 1.3 C 5.03 g/m*3 1.3 C 0 km/h
2294 18-12-2008 03:01:04 1.3 C 5.03 g/m*3 1.3 C 0 km/h
2295 18-12-2008 03:13:04 1.4 C 5.07 g/m*3 1.4 C 0 km/h
2296 18-12-2008 03:25:04 1.4 C 5.07 g/m*3 1.4 C 0 km/h
2297 18-12-2008 03:37:04 1.4 C 5.07 g/m*3 1.4 C 0 km/h
2298 18-12-2008 03:49:04 1.4 C 5.07 g/m*3 1.4 C 0 km/h
2299 18-12-2008 04:01:04 1.5 C 5.1 g/m*3 1.5 C 0 km/h
2300 18-12-2008 04:13:04 1.5 C 5.1 g/m*3 1.5 C 0 km/h
Sensor: Nr:Datum:Temp:Abs-Feuchte:Windchill:Wind:
Aussen-T/F 2301 18-12-2008 04:25:04 1.5 C 5.1 g/m*3 1.5 C 0 km/h
2302 18-12-2008 04:37:04 1.5 C 5.1 g/m*3 1.5 C 0 km/h
2303 18-12-2008 04:49:04 1.5 C 5.1 g/m*3 1.5 C 0 km/h
2304 18-12-2008 05:01:04 1.5 C 5.1 g/m*3 1.5 C 0 km/h
2305 18-12-2008 05:13:04 1.5 C 5.1 g/m*3 1.5 C 0 km/h
2306 18-12-2008 05:25:05 1.6 C 5.14 g/m*3 1.6 C 0 km/h
2307 18-12-2008 05:37:05 1.6 C 5.14 g/m*3 1.6 C 0 km/h
2308 18-12-2008 05:49:05 1.6 C 5.14 g/m*3 1.6 C 0 km/h
2309 18-12-2008 06:01:02 1.6 C 5.14 g/m*3 1.6 C 0 km/h
2310 18-12-2008 06:13:02 1.6 C 5.14 g/m*3 1.6 C 0 km/h
2311 18-12-2008 06:25:03 1.6 C 5.14 g/m*3 1.6 C 0 km/h
2312 18-12-2008 06:37:02 1.6 C 5.14 g/m*3 1.6 C 0 km/h
2313 18-12-2008 06:49:02 1.6 C 5.14 g/m*3 1.6 C 0 km/h
2314 18-12-2008 07:01:02 1.6 C 5.14 g/m*3 1.6 C 0 km/h
2315 18-12-2008 07:13:02 1.6 C 5.14 g/m*3 1.6 C 0 km/h
2316 18-12-2008 07:25:02 1.6 C 5.14 g/m*3 1.6 C 0 km/h
2317 18-12-2008 07:37:02 1.6 C 5.14 g/m*3 1.6 C 0 km/h
2318 18-12-2008 07:49:02 1.7 C 5.17 g/m*3 1.7 C 0 km/h
2319 18-12-2008 08:01:02 1.7 C 5.17 g/m*3 1.7 C 0 km/h
2320 18-12-2008 08:13:02 1.7 C 5.17 g/m*3 1.7 C 0 km/h
2321 18-12-2008 08:25:01 1.7 C 5.17 g/m*3 1.7 C 0 km/h
2322 18-12-2008 08:37:02 1.7 C 5.17 g/m*3 1.7 C 0 km/h
2323 18-12-2008 08:49:01 1.7 C 5.17 g/m*3 1.7 C 0 km/h
2324 18-12-2008 09:01:01 1.8 C 5.21 g/m*3 1.8 C 0 km/h
2325 18-12-2008 09:13:01 1.8 C 5.21 g/m*3 1.8 C 0 km/h
Sensor: Nr:Datum:Temp:Abs-Feuchte:Windchill:Wind:
Aussen-T/F 2326 18-12-2008 09:25:01 1.9 C 5.24 g/m*3 1.9 C 0 km/h
2327 18-12-2008 09:37:01 1.9 C 5.24 g/m*3 1.9 C 0 km/h
2328 18-12-2008 09:49:00 2 C 5.22 g/m*3 2 C 0 km/h
2329 18-12-2008 10:01:01 2.1 C 5.26 g/m*3 2.1 C 0 km/h
2330 18-12-2008 10:13:01 2 C 5.17 g/m*3 2 C 0 km/h
2331 18-12-2008 10:25:00 2.2 C 5.24 g/m*3 2.2 C 0 km/h
2332 18-12-2008 10:37:00 2.4 C 5.31 g/m*3 2.4 C 0 km/h
2333 18-12-2008 10:49:00 2.5 C 5.29 g/m*3 2.5 C 0 km/h
2334 18-12-2008 11:01:00 2.5 C 5.23 g/m*3 2.5 C 0 km/h
2335 18-12-2008 11:13:00 2.6 C 5.21 g/m*3 2.6 C 0 km/h
2336 18-12-2008 11:25:00 2.7 C 5.13 g/m*3 2.7 C 0 km/h
2337 18-12-2008 11:36:59 2.7 C 5.07 g/m*3 2.7 C 0 km/h
2338 18-12-2008 11:49:00 2.7 C 5.01 g/m*3 2.7 C 0 km/h
2339 18-12-2008 12:01:59 2.6 C 4.92 g/m*3 2.6 C 0 km/h
2340 18-12-2008 12:13:59 2.5 C 4.89 g/m*3 2.5 C 0 km/h
2341 18-12-2008 12:25:00 2.6 C 4.92 g/m*3 2.6 C 0 km/h
2342 18-12-2008 12:37:59 2.6 C 4.86 g/m*3 2.6 C 0 km/h
2343 18-12-2008 12:49:59 2.7 C 4.84 g/m*3 2.7 C 0 km/h
2344 18-12-2008 13:01:59 2.7 C 4.72 g/m*3 2.7 C 0 km/h
2345 18-12-2008 13:13:59 2.5 C 4.6 g/m*3 2.5 C 0 km/h
2346 18-12-2008 13:25:59 2.5 C 4.66 g/m*3 2.5 C 0 km/h
2347 18-12-2008 13:37:58 2.6 C 4.63 g/m*3 2.6 C 0 km/h
2348 18-12-2008 13:49:59 2.8 C 4.63 g/m*3 2.8 C 0 km/h
2349 18-12-2008 14:01:58 3 C 4.58 g/m*3 3 C 0 km/h
2350 18-12-2008 14:13:58 3.1 C 4.55 g/m*3 3.1 C 0 km/h
Sensor: Nr:Datum:Temp:Abs-Feuchte:Windchill:Wind:
Aussen-T/F 2351 18-12-2008 14:25:58 3.1 C 4.55 g/m*3 3.1 C 0 km/h
2352 18-12-2008 14:37:58 3.1 C 4.61 g/m*3 3.1 C 0 km/h
2353 18-12-2008 14:49:58 3.1 C 4.61 g/m*3 3.1 C 0 km/h
2354 18-12-2008 15:01:58 3 C 4.52 g/m*3 3 C 0 km/h
2355 18-12-2008 15:13:58 2.9 C 4.55 g/m*3 2.9 C 0 km/h
2356 18-12-2008 15:25:57 2.9 C 4.61 g/m*3 2.9 C 0 km/h
2357 18-12-2008 15:37:58 3 C 4.64 g/m*3 3 C 0 km/h
2358 18-12-2008 15:49:57 3 C 4.64 g/m*3 3 C 0 km/h
2359 18-12-2008 16:01:57 2.9 C 4.72 g/m*3 2.9 C 0 km/h
2360 18-12-2008 16:13:57 2.9 C 4.72 g/m*3 2.9 C 0 km/h
2361 18-12-2008 16:25:57 2.8 C 4.69 g/m*3 2.8 C 0 km/h
2362 18-12-2008 16:37:57 2.7 C 4.72 g/m*3 2.7 C 0 km/h
2363 18-12-2008 16:49:57 2.7 C 4.78 g/m*3 2.7 C 0 km/h
2364 18-12-2008 17:01:56 2.6 C 4.75 g/m*3 2.6 C 0 km/h
2365 18-12-2008 17:13:56 2.5 C 4.77 g/m*3 2.5 C 0 km/h
2366 18-12-2008 17:25:57 2.4 C 4.85 g/m*3 2.4 C 0 km/h
2367 18-12-2008 17:37:56 2.3 C 4.88 g/m*3 2.3 C 0 km/h
2368 18-12-2008 17:49:57 2.3 C 4.93 g/m*3 2.3 C 0 km/h
2369 18-12-2008 18:01:56 2.3 C 4.93 g/m*3 2.3 C 0 km/h
2370 18-12-2008 18:13:56 2.3 C 4.99 g/m*3 2.3 C 0 km/h
2371 18-12-2008 18:25:56 2.3 C 4.99 g/m*3 2.3 C 0 km/h
2372 18-12-2008 18:37:55 2.3 C 4.99 g/m*3 2.3 C 0 km/h
2373 18-12-2008 18:49:56 2.4 C 5.02 g/m*3 2.4 C 0 km/h
2374 18-12-2008 19:01:55 2.5 C 5.06 g/m*3 2.5 C 0 km/h
2375 18-12-2008 19:13:55 2.5 C 5.06 g/m*3 2.5 C 0 km/h
Sensor: Nr:Datum:Temp:Abs-Feuchte:Windchill:Wind:
Aussen-T/F 2376 18-12-2008 19:25:55 2.5 C 5.06 g/m*3 2.5 C 0 km/h
2377 18-12-2008 19:37:56 2.6 C 5.09 g/m*3 2.6 C 0 km/h
2378 18-12-2008 19:49:55 2.7 C 5.13 g/m*3 2.7 C 0 km/h
2379 18-12-2008 20:01:55 2.6 C 5.09 g/m*3 2.6 C 0 km/h
2380 18-12-2008 20:13:55 2.6 C 5.09 g/m*3 2.6 C 0 km/h
2381 18-12-2008 20:25:55 2.5 C 5.12 g/m*3 2.5 C 0 km/h
2382 18-12-2008 20:37:55 2.5 C 5.12 g/m*3 2.5 C 0 km/h
2383 18-12-2008 20:49:54 2.5 C 5.12 g/m*3 2.5 C 0 km/h
2384 18-12-2008 21:01:54 2.6 C 5.15 g/m*3 2.6 C 0 km/h
2385 18-12-2008 21:13:54 2.6 C 5.15 g/m*3 2.6 C 0 km/h
2386 18-12-2008 21:25:55 2.6 C 5.15 g/m*3 2.6 C 0 km/h
2387 18-12-2008 21:37:54 2.7 C 5.13 g/m*3 2.7 C 0 km/h
2388 18-12-2008 21:49:54 2.8 C 5.1 g/m*3 2.8 C 0 km/h
2389 18-12-2008 22:01:54 2.8 C 5.04 g/m*3 2.8 C 0 km/h
2390 18-12-2008 22:13:54 2.9 C 5.02 g/m*3 2.9 C 0 km/h
2391 18-12-2008 22:26:55 2.8 C 4.99 g/m*3 2.8 C 0 km/h
2392 18-12-2008 22:38:55 2.8 C 4.99 g/m*3 2.8 C 0 km/h
2393 18-12-2008 22:50:55 2.7 C 5.01 g/m*3 2.7 C 0 km/h
2394 18-12-2008 23:02:55 2.7 C 5.07 g/m*3 2.7 C 0 km/h
2395 18-12-2008 23:14:55 2.5 C 5.12 g/m*3 2.5 C 0 km/h
2396 18-12-2008 23:26:55 2.6 C 5.21 g/m*3 2.6 C 0 km/h
2397 18-12-2008 23:38:55 2.6 C 5.21 g/m*3 2.6 C 0 km/h
2398 18-12-2008 23:50:55 2.6 C 5.21 g/m*3 2.6 C 0 km/h
2399 19-12-2008 00:02:55 2.7 C 5.24 g/m*3 2.7 C 0 km/h
2400 19-12-2008 00:14:55 2.8 C 5.28 g/m*3 2.8 C 0 km/h
Sensor: Nr:Datum:Temp:Abs-Feuchte:Windchill:Wind:
Aussen-T/F 2401 19-12-2008 00:26:55 2.9 C 5.26 g/m*3 2.9 C 0 km/h
2402 19-12-2008 00:38:55 2.9 C 5.26 g/m*3 2.9 C 0 km/h
2403 19-12-2008 00:50:55 2.8 C 5.22 g/m*3 2.8 C 0 km/h
2404 19-12-2008 01:02:55 2.8 C 5.22 g/m*3 2.8 C 0 km/h
2405 19-12-2008 01:14:55 2.9 C 5.26 g/m*3 2.9 C 0 km/h
2406 19-12-2008 01:26:55 3 C 5.23 g/m*3 3 C 0 km/h
2407 19-12-2008 01:38:55 3.1 C 5.27 g/m*3 3.1 C 0 km/h
2408 19-12-2008 01:50:56 3.2 C 5.3 g/m*3 3.2 C 0 km/h
2409 19-12-2008 02:02:56 3.3 C 5.34 g/m*3 3.3 C 0 km/h
2410 19-12-2008 02:14:56 3.3 C 5.28 g/m*3 3.3 C 0 km/h
2411 19-12-2008 02:26:56 3.5 C 5.35 g/m*3 3.5 C 0 km/h
2412 19-12-2008 02:38:56 3.5 C 5.35 g/m*3 3.5 C 0 km/h
2413 19-12-2008 02:50:56 3.6 C 5.39 g/m*3 3.6 C 0 km/h
2414 19-12-2008 03:02:56 3.5 C 5.35 g/m*3 3.5 C 0 km/h
2415 19-12-2008 03:14:56 3.6 C 5.32 g/m*3 3.6 C 0 km/h
2416 19-12-2008 03:26:56 3.6 C 5.32 g/m*3 3.6 C 0 km/h
2417 19-12-2008 03:38:56 3.5 C 5.29 g/m*3 3.5 C 0 km/h
2418 19-12-2008 03:50:56 3.4 C 5.25 g/m*3 3.4 C 0 km/h
2419 19-12-2008 04:02:56 3.4 C 5.31 g/m*3 3.4 C 0 km/h
2420 19-12-2008 04:14:56 3.4 C 5.31 g/m*3 3.4 C 0 km/h
2421 19-12-2008 04:26:56 3.5 C 5.35 g/m*3 3.5 C 0 km/h
2422 19-12-2008 04:38:56 3.4 C 5.37 g/m*3 3.4 C 0 km/h
2423 19-12-2008 04:50:56 3.2 C 5.36 g/m*3 3.2 C 0 km/h
2424 19-12-2008 05:02:56 3.2 C 5.42 g/m*3 3.2 C 0 km/h
2425 19-12-2008 05:14:56 3.3 C 5.52 g/m*3 3.3 C 0 km/h
Sensor: Nr:Datum:Temp:Abs-Feuchte:Windchill:Wind:
Aussen-T/F 2426 19-12-2008 05:26:56 3.3 C 5.58 g/m*3 3.3 C 0 km/h
2427 19-12-2008 05:38:57 3.3 C 5.64 g/m*3 3.3 C 0 km/h
2428 19-12-2008 05:50:57 3.4 C 5.68 g/m*3 3.4 C 0 km/h
2429 19-12-2008 06:02:57 3.4 C 5.68 g/m*3 3.4 C 0 km/h
2430 19-12-2008 06:14:57 3.4 C 5.68 g/m*3 3.4 C 0 km/h
2431 19-12-2008 06:26:57 3.4 C 5.68 g/m*3 3.4 C 0 km/h
2432 19-12-2008 06:38:57 3.5 C 5.78 g/m*3 3.5 C 0 km/h
2433 19-12-2008 06:50:55 3.5 C 5.78 g/m*3 3.5 C 0 km/h
2434 19-12-2008 07:02:55 3.6 C 5.82 g/m*3 3.6 C 0 km/h
2435 19-12-2008 07:14:54 3.6 C 5.88 g/m*3 3.6 C 0 km/h
2436 19-12-2008 07:26:54 3.7 C 5.92 g/m*3 3.7 C 0 km/h
2437 19-12-2008 07:38:54 3.8 C 5.96 g/m*3 3.8 C 0 km/h
2438 19-12-2008 07:50:54 3.9 C 6 g/m*3 3.9 C 0 km/h
2439 19-12-2008 08:02:53 3.8 C 5.96 g/m*3 3.8 C 0 km/h
2440 19-12-2008 08:14:54 4 C 6.04 g/m*3 4 C 0 km/h
2441 19-12-2008 08:26:54 4.2 C 6.06 g/m*3 4.2 C 0 km/h
2442 19-12-2008 08:38:54 4.3 C 6.1 g/m*3 4.3 C 0 km/h
2443 19-12-2008 08:50:53 4.3 C 6.1 g/m*3 4.3 C 0 km/h
2444 19-12-2008 09:02:54 4.3 C 6.1 g/m*3 4.3 C 0 km/h
2445 19-12-2008 09:14:53 4.4 C 6.14 g/m*3 4.4 C 0 km/h
2446 19-12-2008 09:26:53 4.5 C 6.18 g/m*3 4.5 C 0 km/h
2447 19-12-2008 09:38:53 4.6 C 6.22 g/m*3 4.6 C 0 km/h
2448 19-12-2008 09:50:53 4.7 C 6.19 g/m*3 4.7 C 0 km/h
2449 19-12-2008 10:02:53 4.8 C 6.24 g/m*3 4.8 C 0 km/h
2450 19-12-2008 10:14:52 5 C 6.25 g/m*3 5 C 0 km/h
Sensor: Nr:Datum:Temp:Abs-Feuchte:Windchill:Wind:
Aussen-T/F 2451 19-12-2008 10:26:52 5 C 6.18 g/m*3 5 C 0 km/h
2452 19-12-2008 10:38:52 5.2 C 6.27 g/m*3 5.2 C 0 km/h
2453 19-12-2008 10:50:52 5.4 C 6.28 g/m*3 5.4 C 0 km/h
2454 19-12-2008 11:02:52 5.3 C 6.17 g/m*3 5.3 C 0 km/h
2455 19-12-2008 11:14:53 5.4 C 6.21 g/m*3 5.4 C 0 km/h
2456 19-12-2008 11:26:53 5.6 C 6.29 g/m*3 5.6 C 0 km/h
2457 19-12-2008 11:38:52 5.8 C 6.02 g/m*3 5.8 C 0 km/h
2458 19-12-2008 11:50:52 5.9 C 5.91 g/m*3 5.9 C 0 km/h
2459 19-12-2008 12:02:52 6.1 C 5.7 g/m*3 6.1 C 0 km/h
2460 19-12-2008 12:14:52 6.5 C 5.77 g/m*3 6.5 C 0 km/h
2461 19-12-2008 12:26:52 6.7 C 5.24 g/m*3 6.7 C 0 km/h
2462 19-12-2008 12:38:51 6.8 C 5.05 g/m*3 6.8 C 0 km/h
2463 19-12-2008 12:50:51 6.8 C 5.2 g/m*3 6.8 C 0 km/h
2464 19-12-2008 13:02:51 6.5 C 5.1 g/m*3 6.5 C 0 km/h
2465 19-12-2008 13:14:51 6.6 C 5.21 g/m*3 6.6 C 0 km/h
2466 19-12-2008 13:26:51 6.9 C 5.16 g/m*3 6.9 C 0 km/h
2467 19-12-2008 13:38:51 7 C 5.11 g/m*3 7 C 0 km/h
2468 19-12-2008 13:50:51 6.5 C 5.02 g/m*3 6.5 C 0 km/h
2469 19-12-2008 14:02:51 6.1 C 4.89 g/m*3 6.1 C 0 km/h
2470 19-12-2008 14:14:50 5.8 C 4.87 g/m*3 5.8 C 0 km/h
2471 19-12-2008 14:26:50 6.3 C 4.96 g/m*3 6.3 C 0 km/h
2472 19-12-2008 14:38:51 6.1 C 4.82 g/m*3 6.1 C 0 km/h
2473 19-12-2008 14:50:50 6.2 C 4.78 g/m*3 6.2 C 0 km/h
2474 19-12-2008 15:02:50 6.6 C 4.76 g/m*3 6.6 C 0 km/h
2475 19-12-2008 15:14:50 6.6 C 4.6 g/m*3 6.6 C 0 km/h
Sensor: Nr:Datum:Temp:Abs-Feuchte:Windchill:Wind:
Aussen-T/F 2476 19-12-2008 15:26:50 6.5 C 4.72 g/m*3 6.5 C 0 km/h
2477 19-12-2008 15:38:50 6.4 C 4.77 g/m*3 6.4 C 0 km/h
2478 19-12-2008 15:50:49 6.5 C 4.8 g/m*3 6.5 C 0 km/h
2479 19-12-2008 16:02:49 6.4 C 4.62 g/m*3 6.4 C 0 km/h
2480 19-12-2008 16:14:50 6.2 C 4.41 g/m*3 6.2 C 0 km/h
2481 19-12-2008 16:26:50 6 C 4.43 g/m*3 6 C 0 km/h
2482 19-12-2008 16:38:49 6 C 4.35 g/m*3 6 C 0 km/h
2483 19-12-2008 16:50:49 5.8 C 4.37 g/m*3 5.8 C 0 km/h
2484 19-12-2008 17:02:49 5.6 C 4.45 g/m*3 5.6 C 0 km/h
2485 19-12-2008 17:14:49 5.5 C 4.49 g/m*3 5.5 C 0 km/h
2486 19-12-2008 17:26:49 5.2 C 4.54 g/m*3 5.2 C 0 km/h
2487 19-12-2008 17:38:48 5.1 C 4.45 g/m*3 5.1 C 0 km/h
2488 19-12-2008 17:50:49 4.9 C 4.52 g/m*3 4.9 C 0 km/h
2489 19-12-2008 18:02:48 4.5 C 4.47 g/m*3 4.5 C 0 km/h
2490 19-12-2008 18:14:48 4.1 C 4.42 g/m*3 4.1 C 0 km/h
2491 19-12-2008 18:26:48 3.8 C 4.52 g/m*3 3.8 C 0 km/h
2492 19-12-2008 18:38:49 3.5 C 4.49 g/m*3 3.5 C 0 km/h
2493 19-12-2008 18:50:48 3.4 C 4.52 g/m*3 3.4 C 0 km/h
2494 19-12-2008 19:02:48 3.4 C 4.58 g/m*3 3.4 C 0 km/h
2495 19-12-2008 19:14:48 3.1 C 4.49 g/m*3 3.1 C 0 km/h
2496 19-12-2008 19:26:48 3.1 C 4.55 g/m*3 3.1 C 0 km/h
2497 19-12-2008 19:38:48 2.8 C 4.52 g/m*3 2.8 C 0 km/h
2498 19-12-2008 19:50:47 2.7 C 4.54 g/m*3 2.7 C 0 km/h
2499 19-12-2008 20:02:48 2.7 C 4.6 g/m*3 2.7 C 0 km/h
2500 19-12-2008 20:14:47 2.6 C 4.57 g/m*3 2.6 C 0 km/h
Sensor: Nr:Datum:Temp:Abs-Feuchte:Windchill:Wind:
Aussen-T/F 2501 19-12-2008 20:26:47 2.4 C 4.51 g/m*3 2.4 C 0 km/h
2502 19-12-2008 20:38:47 2.4 C 4.51 g/m*3 2.4 C 0 km/h
2503 19-12-2008 20:50:47 2.3 C 4.48 g/m*3 2.3 C 0 km/h
2504 19-12-2008 21:02:47 2.1 C 4.48 g/m*3 2.1 C 0 km/h
2505 19-12-2008 21:14:47 2.2 C 4.56 g/m*3 2.2 C 0 km/h
2506 19-12-2008 21:26:47 2.3 C 4.59 g/m*3 2.3 C 0 km/h
2507 19-12-2008 21:38:47 2.5 C 4.66 g/m*3 2.5 C 0 km/h
2508 19-12-2008 21:50:46 2.8 C 4.75 g/m*3 2.8 C 0 km/h
2509 19-12-2008 22:02:47 2.8 C 4.69 g/m*3 2.8 C 0 km/h
2510 19-12-2008 22:14:46 3.2 C 4.76 g/m*3 3.2 C 0 km/h
2511 19-12-2008 22:26:46 3.1 C 4.67 g/m*3 3.1 C 0 km/h
2512 19-12-2008 22:38:46 3 C 4.7 g/m*3 3 C 0 km/h
2513 19-12-2008 22:51:46 3.1 C 4.73 g/m*3 3.1 C 0 km/h
2514 19-12-2008 23:03:46 3.2 C 4.76 g/m*3 3.2 C 0 km/h
2515 19-12-2008 23:15:46 3.2 C 4.76 g/m*3 3.2 C 0 km/h
2516 19-12-2008 23:27:46 3.3 C 4.79 g/m*3 3.3 C 0 km/h
2517 19-12-2008 23:39:46 3.7 C 4.86 g/m*3 3.7 C 0 km/h
2518 19-12-2008 23:51:46 3.7 C 4.8 g/m*3 3.7 C 0 km/h
2519 20-12-2008 00:03:46 3.7 C 4.8 g/m*3 3.7 C 0 km/h
2520 20-12-2008 00:15:46 3.8 C 4.77 g/m*3 3.8 C 0 km/h
2521 20-12-2008 00:27:46 3.7 C 4.86 g/m*3 3.7 C 0 km/h
2522 20-12-2008 00:39:46 3.4 C 4.95 g/m*3 3.4 C 0 km/h
2523 20-12-2008 00:51:47 3.2 C 5.12 g/m*3 3.2 C 0 km/h
2524 20-12-2008 01:03:47 3.1 C 5.21 g/m*3 3.1 C 0 km/h
2525 20-12-2008 01:15:47 3.1 C 5.27 g/m*3 3.1 C 0 km/h
Sensor: Nr:Datum:Temp:Abs-Feuchte:Windchill:Wind:
Aussen-T/F 2526 20-12-2008 01:27:47 3 C 5.29 g/m*3 3 C 0 km/h
2527 20-12-2008 01:39:47 3 C 5.29 g/m*3 3 C 0 km/h
2528 20-12-2008 01:51:47 3 C 5.35 g/m*3 3 C 0 km/h
2529 20-12-2008 02:03:47 3.1 C 5.45 g/m*3 3.1 C 0 km/h
2530 20-12-2008 02:15:47 3.4 C 5.62 g/m*3 3.4 C 0 km/h
2531 20-12-2008 02:27:47 3.7 C 5.73 g/m*3 3.7 C 0 km/h
2532 20-12-2008 02:39:47 3.8 C 5.71 g/m*3 3.8 C 0 km/h
2533 20-12-2008 02:51:47 3.8 C 5.65 g/m*3 3.8 C 0 km/h
2534 20-12-2008 03:03:47 3.9 C 5.68 g/m*3 3.9 C 0 km/h
2535 20-12-2008 03:15:47 3.9 C 5.68 g/m*3 3.9 C 0 km/h
2536 20-12-2008 03:27:47 4.1 C 5.7 g/m*3 4.1 C 0 km/h
2537 20-12-2008 03:39:47 4.2 C 5.73 g/m*3 4.2 C 0 km/h
2538 20-12-2008 03:51:47 4.3 C 5.77 g/m*3 4.3 C 0 km/h
2539 20-12-2008 04:03:47 4.3 C 5.77 g/m*3 4.3 C 0 km/h
2540 20-12-2008 04:15:47 4.4 C 5.81 g/m*3 4.4 C 0 km/h
2541 20-12-2008 04:27:47 4.4 C 5.81 g/m*3 4.4 C 0 km/h
2542 20-12-2008 04:39:48 4.4 C 5.88 g/m*3 4.4 C 0 km/h
2543 20-12-2008 04:51:48 4.4 C 5.88 g/m*3 4.4 C 0 km/h
2544 20-12-2008 05:03:48 4.5 C 5.98 g/m*3 4.5 C 0 km/h
2545 20-12-2008 05:15:48 4.5 C 5.98 g/m*3 4.5 C 0 km/h
2546 20-12-2008 05:27:48 4.5 C 5.98 g/m*3 4.5 C 0 km/h
2547 20-12-2008 05:39:48 4.6 C 6.02 g/m*3 4.6 C 0 km/h
2548 20-12-2008 05:51:48 4.7 C 6.06 g/m*3 4.7 C 0 km/h
2549 20-12-2008 06:03:48 4.8 C 6.1 g/m*3 4.8 C 0 km/h
2550 20-12-2008 06:15:48 4.9 C 6.14 g/m*3 4.9 C 0 km/h
Sensor: Nr:Datum:Temp:Abs-Feuchte:Windchill:Wind:
Aussen-T/F 2551 20-12-2008 06:27:48 5 C 6.12 g/m*3 5 C 0 km/h
2552 20-12-2008 06:39:48 5.2 C 6.13 g/m*3 5.2 C 0 km/h
2553 20-12-2008 06:51:48 5.3 C 6.1 g/m*3 5.3 C 0 km/h
2554 20-12-2008 07:03:48 5.3 C 6.1 g/m*3 5.3 C 0 km/h
2555 20-12-2008 07:15:48 5.4 C 6.14 g/m*3 5.4 C 0 km/h
2556 20-12-2008 07:27:48 5.4 C 6.07 g/m*3 5.4 C 0 km/h
2557 20-12-2008 07:39:48 5.6 C 6.15 g/m*3 5.6 C 0 km/h
2558 20-12-2008 07:51:48 5.6 C 6.15 g/m*3 5.6 C 0 km/h
2559 20-12-2008 08:03:48 5.9 C 6.2 g/m*3 5.9 C 0 km/h
2560 20-12-2008 08:15:48 6 C 6.1 g/m*3 6 C 0 km/h
2561 20-12-2008 08:27:49 6 C 6.1 g/m*3 6 C 0 km/h
2562 20-12-2008 08:39:49 6 C 6.1 g/m*3 6 C 0 km/h
2563 20-12-2008 08:51:49 6 C 6.17 g/m*3 6 C 0 km/h
2564 20-12-2008 09:03:47 6 C 6.17 g/m*3 6 C 0 km/h
2565 20-12-2008 09:15:46 5.9 C 6.27 g/m*3 5.9 C 0 km/h
2566 20-12-2008 09:27:46 6 C 6.24 g/m*3 6 C 0 km/h
2567 20-12-2008 09:39:46 6 C 6.31 g/m*3 6 C 0 km/h
2568 20-12-2008 09:51:46 6.2 C 6.4 g/m*3 6.2 C 0 km/h
2569 20-12-2008 10:03:46 6.3 C 6.44 g/m*3 6.3 C 0 km/h
2570 20-12-2008 10:15:45 6.5 C 6.52 g/m*3 6.5 C 0 km/h
2571 20-12-2008 10:27:45 6.7 C 6.53 g/m*3 6.7 C 0 km/h
2572 20-12-2008 10:39:46 6.8 C 6.5 g/m*3 6.8 C 0 km/h
2573 20-12-2008 10:51:45 6.9 C 6.54 g/m*3 6.9 C 0 km/h
2574 20-12-2008 11:03:45 7 C 6.43 g/m*3 7 C 0 km/h
2575 20-12-2008 11:15:46 7 C 6.51 g/m*3 7 C 0 km/h
Sensor: Nr:Datum:Temp:Abs-Feuchte:Windchill:Wind:
Aussen-T/F 2576 20-12-2008 11:27:46 7.2 C 6.59 g/m*3 7.2 C 0 km/h
2577 20-12-2008 11:39:45 7.4 C 6.68 g/m*3 7.4 C 0 km/h
2578 20-12-2008 11:51:45 7.5 C 6.72 g/m*3 7.5 C 0 km/h
2579 20-12-2008 12:03:45 7.7 C 6.81 g/m*3 7.7 C 0 km/h
2580 20-12-2008 12:15:45 7.8 C 6.69 g/m*3 7.8 C 0 km/h
2581 20-12-2008 12:27:45 8.1 C 6.66 g/m*3 8.1 C 0 km/h
2582 20-12-2008 12:39:44 8.5 C 6.66 g/m*3 8.5 C 0 km/h
2583 20-12-2008 12:51:45 8.7 C 6.66 g/m*3 8.7 C 0 km/h
2584 20-12-2008 13:03:44 8.8 C 6.7 g/m*3 8.8 C 0 km/h
2585 20-12-2008 13:15:44 8.9 C 6.75 g/m*3 8.9 C 0 km/h
2586 20-12-2008 13:27:44 9.1 C 6.65 g/m*3 9.1 C 0 km/h
2587 20-12-2008 13:39:44 9 C 6.7 g/m*3 9 C 0 km/h
2588 20-12-2008 13:51:44 9 C 6.7 g/m*3 9 C 0 km/h
2589 20-12-2008 14:03:44 8.9 C 6.83 g/m*3 8.9 C 0 km/h
2590 20-12-2008 14:15:43 8.8 C 6.88 g/m*3 8.8 C 0 km/h
2591 20-12-2008 14:27:43 8.7 C 7.01 g/m*3 8.7 C 0 km/h
2592 20-12-2008 14:39:44 8.4 C 7.13 g/m*3 8.4 C 0 km/h
2593 20-12-2008 14:51:43 8.3 C 7.25 g/m*3 8.3 C 0 km/h
2594 20-12-2008 15:03:43 8.4 C 7.3 g/m*3 8.4 C 0 km/h
2595 20-12-2008 15:15:43 8.5 C 7.17 g/m*3 8.5 C 0 km/h
2596 20-12-2008 15:27:43 8.7 C 7.18 g/m*3 8.7 C 0 km/h
2597 20-12-2008 15:39:43 9 C 7.14 g/m*3 9 C 0 km/h
2598 20-12-2008 15:51:42 8.9 C 7.1 g/m*3 8.9 C 0 km/h
2599 20-12-2008 16:03:43 8.9 C 7.1 g/m*3 8.9 C 0 km/h
2600 20-12-2008 16:15:43 8.8 C 6.96 g/m*3 8.8 C 0 km/h
Sensor: Nr:Datum:Temp:Abs-Feuchte:Windchill:Wind:
Aussen-T/F 2601 20-12-2008 16:27:43 8.8 C 6.96 g/m*3 8.8 C 0 km/h
2602 20-12-2008 16:39:42 8.8 C 6.96 g/m*3 8.8 C 0 km/h
2603 20-12-2008 16:51:42 8.8 C 6.96 g/m*3 8.8 C 0 km/h
2604 20-12-2008 17:03:43 8.8 C 6.96 g/m*3 8.8 C 0 km/h
2605 20-12-2008 17:15:42 8.8 C 7.05 g/m*3 8.8 C 0 km/h
2606 20-12-2008 17:27:42 8.9 C 7.1 g/m*3 8.9 C 0 km/h
2607 20-12-2008 17:39:42 8.9 C 7.1 g/m*3 8.9 C 0 km/h
2608 20-12-2008 17:51:42 8.8 C 7.14 g/m*3 8.8 C 0 km/h
2609 20-12-2008 18:03:41 8.7 C 7.18 g/m*3 8.7 C 0 km/h
2610 20-12-2008 18:15:42 8.5 C 7.34 g/m*3 8.5 C 0 km/h
2611 20-12-2008 18:27:42 8.5 C 7.43 g/m*3 8.5 C 0 km/h
2612 20-12-2008 18:39:41 8.4 C 7.47 g/m*3 8.4 C 0 km/h
2613 20-12-2008 18:51:41 8.4 C 7.55 g/m*3 8.4 C 0 km/h
2614 20-12-2008 19:03:42 8.3 C 7.59 g/m*3 8.3 C 0 km/h
2615 20-12-2008 19:15:41 8.5 C 7.85 g/m*3 8.5 C 0 km/h
2616 20-12-2008 19:27:41 8.4 C 7.8 g/m*3 8.4 C 0 km/h
2617 20-12-2008 19:39:41 8.4 C 7.8 g/m*3 8.4 C 0 km/h
2618 20-12-2008 19:51:41 8.3 C 7.75 g/m*3 8.3 C 0 km/h
2619 20-12-2008 20:03:41 8 C 7.61 g/m*3 8 C 0 km/h
2620 20-12-2008 20:15:40 7.8 C 7.59 g/m*3 7.8 C 0 km/h
2621 20-12-2008 20:27:40 7.8 C 7.59 g/m*3 7.8 C 0 km/h
2622 20-12-2008 20:39:40 7.5 C 7.44 g/m*3 7.5 C 0 km/h
2623 20-12-2008 20:51:40 7.2 C 7.3 g/m*3 7.2 C 0 km/h
2624 20-12-2008 21:03:40 7 C 7.21 g/m*3 7 C 0 km/h
2625 20-12-2008 21:15:40 7 C 7.21 g/m*3 7 C 0 km/h
Sensor: Nr:Datum:Temp:Abs-Feuchte:Windchill:Wind:
Aussen-T/F 2626 20-12-2008 21:27:40 6.7 C 7.07 g/m*3 6.7 C 0 km/h
2627 20-12-2008 21:39:40 6.5 C 6.97 g/m*3 6.5 C 0 km/h
2628 20-12-2008 21:51:40 6.4 C 6.93 g/m*3 6.4 C 0 km/h
2629 20-12-2008 22:03:40 6.2 C 6.84 g/m*3 6.2 C 0 km/h
2630 20-12-2008 22:15:39 6 C 6.75 g/m*3 6 C 0 km/h
2631 20-12-2008 22:27:39 6 C 6.75 g/m*3 6 C 0 km/h
2632 20-12-2008 22:39:39 6.1 C 6.79 g/m*3 6.1 C 0 km/h
2633 20-12-2008 22:51:39 6.1 C 6.79 g/m*3 6.1 C 0 km/h
2634 20-12-2008 23:03:39 6.1 C 6.79 g/m*3 6.1 C 0 km/h
2635 20-12-2008 23:15:38 6 C 6.75 g/m*3 6 C 0 km/h
2636 20-12-2008 23:27:38 6 C 6.82 g/m*3 6 C 0 km/h
2637 20-12-2008 23:39:39 5.9 C 6.78 g/m*3 5.9 C 0 km/h
2638 20-12-2008 23:51:38 5.9 C 6.78 g/m*3 5.9 C 0 km/h
2639 21-12-2008 00:03:38 5.9 C 6.78 g/m*3 5.9 C 0 km/h
2640 21-12-2008 00:15:38 5.9 C 6.71 g/m*3 5.9 C 0 km/h
2641 21-12-2008 00:27:38 5.9 C 6.71 g/m*3 5.9 C 0 km/h
2642 21-12-2008 00:39:38 5.9 C 6.71 g/m*3 5.9 C 0 km/h
2643 21-12-2008 00:51:38 5.9 C 6.71 g/m*3 5.9 C 0 km/h
2644 21-12-2008 01:03:38 5.9 C 6.71 g/m*3 5.9 C 0 km/h
2645 21-12-2008 01:15:37 5.9 C 6.71 g/m*3 5.9 C 0 km/h
2646 21-12-2008 01:27:37 5.9 C 6.63 g/m*3 5.9 C 0 km/h
2647 21-12-2008 01:39:38 5.9 C 6.63 g/m*3 5.9 C 0 km/h
2648 21-12-2008 01:51:37 5.9 C 6.63 g/m*3 5.9 C 0 km/h
2649 21-12-2008 02:03:37 5.9 C 6.63 g/m*3 5.9 C 0 km/h
2650 21-12-2008 02:15:37 6 C 6.6 g/m*3 6 C 0 km/h
Sensor: Nr:Datum:Temp:Abs-Feuchte:Windchill:Wind:
Aussen-T/F 2651 21-12-2008 02:27:37 6.1 C 6.65 g/m*3 6.1 C 0 km/h
2652 21-12-2008 02:39:37 6.1 C 6.65 g/m*3 6.1 C 0 km/h
2653 21-12-2008 02:52:01 6.1 C 6.65 g/m*3 6.1 C 0 km/h
2654 21-12-2008 03:04:01 6.1 C 6.65 g/m*3 6.1 C 0 km/h
2655 21-12-2008 03:16:01 6.2 C 6.69 g/m*3 6.2 C 0 km/h
2656 21-12-2008 03:28:01 6.2 C 6.69 g/m*3 6.2 C 0 km/h
2657 21-12-2008 03:40:01 6.2 C 6.69 g/m*3 6.2 C 0 km/h
2658 21-12-2008 03:52:02 6.1 C 6.65 g/m*3 6.1 C 0 km/h
2659 21-12-2008 04:04:01 6.1 C 6.65 g/m*3 6.1 C 0 km/h
2660 21-12-2008 04:16:01 6.1 C 6.65 g/m*3 6.1 C 0 km/h
2661 21-12-2008 04:28:01 6.1 C 6.65 g/m*3 6.1 C 0 km/h
2662 21-12-2008 04:40:02 6.1 C 6.65 g/m*3 6.1 C 0 km/h
2663 21-12-2008 04:52:01 6.1 C 6.65 g/m*3 6.1 C 0 km/h
2664 21-12-2008 05:04:01 6.1 C 6.65 g/m*3 6.1 C 0 km/h
2665 21-12-2008 05:16:02 6.1 C 6.72 g/m*3 6.1 C 0 km/h
2666 21-12-2008 05:28:02 6.1 C 6.72 g/m*3 6.1 C 0 km/h
2667 21-12-2008 05:40:01 6.1 C 6.72 g/m*3 6.1 C 0 km/h
2668 21-12-2008 05:52:01 6.1 C 6.72 g/m*3 6.1 C 0 km/h
2669 21-12-2008 06:04:01 6.2 C 6.77 g/m*3 6.2 C 0 km/h
2670 21-12-2008 06:16:01 6.2 C 6.77 g/m*3 6.2 C 0 km/h
2671 21-12-2008 06:28:01 6.2 C 6.77 g/m*3 6.2 C 0 km/h
2672 21-12-2008 06:40:01 6.2 C 6.84 g/m*3 6.2 C 0 km/h
2673 21-12-2008 06:52:01 6.4 C 6.93 g/m*3 6.4 C 0 km/h
2674 21-12-2008 07:04:01 6.9 C 7.24 g/m*3 6.9 C 0 km/h
2675 21-12-2008 07:16:02 7.3 C 7.51 g/m*3 7.3 C 0 km/h
Sensor: Nr:Datum:Temp:Abs-Feuchte:Windchill:Wind:
Aussen-T/F 2676 21-12-2008 07:28:02 7.5 C 7.6 g/m*3 7.5 C 0 km/h
2677 21-12-2008 07:40:01 7.1 C 7.41 g/m*3 7.1 C 0 km/h
2678 21-12-2008 07:52:02 6.7 C 7.22 g/m*3 6.7 C 0 km/h
2679 21-12-2008 08:04:01 6.6 C 7.17 g/m*3 6.6 C 0 km/h
2680 21-12-2008 08:16:02 6.6 C 7.17 g/m*3 6.6 C 0 km/h
2681 21-12-2008 08:28:02 7.1 C 7.41 g/m*3 7.1 C 0 km/h
2682 21-12-2008 08:40:01 7.7 C 7.7 g/m*3 7.7 C 0 km/h
2683 21-12-2008 08:52:02 7.8 C 7.75 g/m*3 7.8 C 0 km/h
2684 21-12-2008 09:04:01 7.9 C 7.8 g/m*3 7.9 C 0 km/h
2685 21-12-2008 09:16:01 7.8 C 7.75 g/m*3 7.8 C 0 km/h
2686 21-12-2008 09:28:01 7.7 C 7.7 g/m*3 7.7 C 0 km/h
2687 21-12-2008 09:40:02 7.4 C 7.55 g/m*3 7.4 C 0 km/h
2688 21-12-2008 09:52:01 7.1 C 7.41 g/m*3 7.1 C 0 km/h
2689 21-12-2008 10:04:02 7.2 C 7.46 g/m*3 7.2 C 0 km/h
2690 21-12-2008 10:16:01 7.3 C 7.51 g/m*3 7.3 C 0 km/h
2691 21-12-2008 10:28:01 7.4 C 7.55 g/m*3 7.4 C 0 km/h
2692 21-12-2008 10:40:02 7.5 C 7.6 g/m*3 7.5 C 0 km/h
2693 21-12-2008 10:52:01 7.5 C 7.6 g/m*3 7.5 C 0 km/h
2694 21-12-2008 11:04:02 7.6 C 7.65 g/m*3 7.6 C 0 km/h
2695 21-12-2008 11:16:01 7.9 C 7.8 g/m*3 7.9 C 0 km/h
2696 21-12-2008 11:28:01 7.9 C 7.8 g/m*3 7.9 C 0 km/h
2697 21-12-2008 11:40:01 8.1 C 7.9 g/m*3 8.1 C 0 km/h
2698 21-12-2008 11:52:01 8.7 C 8.22 g/m*3 8.7 C 0 km/h
2699 21-12-2008 12:04:01 9.1 C 8.43 g/m*3 9.1 C 0 km/h
2700 21-12-2008 12:16:01 9.4 C 8.41 g/m*3 9.4 C 0 km/h
Sensor: Nr:Datum:Temp:Abs-Feuchte:Windchill:Wind:
Aussen-T/F 2701 21-12-2008 12:28:01 9.7 C 8.11 g/m*3 9.7 C 0 km/h
2702 21-12-2008 12:40:01 9.8 C 7.61 g/m*3 9.8 C 0 km/h
2703 21-12-2008 12:52:01 9.8 C 7.42 g/m*3 9.8 C 0 km/h
2704 21-12-2008 13:04:01 10 C 7.14 g/m*3 10 C 0 km/h
2705 21-12-2008 13:16:02 10.2 C 7.23 g/m*3 10.2 C 0 km/h
2706 21-12-2008 13:28:02 10.7 C 7.07 g/m*3 10.7 C 0 km/h
2707 21-12-2008 13:40:01 10.7 C 6.97 g/m*3 10.7 C 0 km/h
2708 21-12-2008 13:52:02 10.7 C 6.68 g/m*3 10.7 C 0 km/h
2709 21-12-2008 14:04:01 10.5 C 6.6 g/m*3 10.5 C 0 km/h
2710 21-12-2008 14:16:01 10.4 C 6.65 g/m*3 10.4 C 0 km/h
2711 21-12-2008 14:28:02 10.2 C 6.66 g/m*3 10.2 C 0 km/h
2712 21-12-2008 14:40:01 10.1 C 6.71 g/m*3 10.1 C 0 km/h
2713 21-12-2008 14:52:01 10.1 C 6.52 g/m*3 10.1 C 0 km/h
2714 21-12-2008 15:04:01 10 C 6.48 g/m*3 10 C 0 km/h
2715 21-12-2008 15:16:01 9.9 C 6.54 g/m*3 9.9 C 0 km/h
2716 21-12-2008 15:28:01 9.8 C 6.59 g/m*3 9.8 C 0 km/h
2717 21-12-2008 15:40:02 9.7 C 6.64 g/m*3 9.7 C 0 km/h
2718 21-12-2008 15:52:01 9.6 C 6.6 g/m*3 9.6 C 0 km/h
2719 21-12-2008 16:04:02 9.6 C 6.5 g/m*3 9.6 C 0 km/h
2720 21-12-2008 16:16:01 9.5 C 6.28 g/m*3 9.5 C 0 km/h
2721 21-12-2008 16:28:01 9.5 C 6.28 g/m*3 9.5 C 0 km/h
2722 21-12-2008 16:40:02 9.4 C 6.24 g/m*3 9.4 C 0 km/h
2723 21-12-2008 16:52:01 9.2 C 6.25 g/m*3 9.2 C 0 km/h
2724 21-12-2008 17:04:02 9.2 C 6.16 g/m*3 9.2 C 0 km/h
2725 21-12-2008 17:16:01 9.1 C 6.12 g/m*3 9.1 C 0 km/h
Sensor: Nr:Datum:Temp:Abs-Feuchte:Windchill:Wind:
Aussen-T/F 2726 21-12-2008 17:28:01 9.1 C 6.12 g/m*3 9.1 C 0 km/h
2727 21-12-2008 17:40:01 9 C 6.08 g/m*3 9 C 0 km/h
2728 21-12-2008 17:52:01 9 C 6.08 g/m*3 9 C 0 km/h
2729 21-12-2008 18:04:01 9 C 6.08 g/m*3 9 C 0 km/h
2730 21-12-2008 18:16:02 9.1 C 6.03 g/m*3 9.1 C 0 km/h
2731 21-12-2008 18:28:02 9.1 C 6.03 g/m*3 9.1 C 0 km/h
2732 21-12-2008 18:40:01 9 C 5.99 g/m*3 9 C 0 km/h
2733 21-12-2008 18:52:02 8.9 C 6.04 g/m*3 8.9 C 0 km/h
2734 21-12-2008 19:04:01 8.9 C 6.04 g/m*3 8.9 C 0 km/h
2735 21-12-2008 19:16:02 8.8 C 6.09 g/m*3 8.8 C 0 km/h
2736 21-12-2008 19:28:02 8.7 C 6.14 g/m*3 8.7 C 0 km/h
2737 21-12-2008 19:40:01 8.7 C 6.31 g/m*3 8.7 C 0 km/h
2738 21-12-2008 19:52:02 8.7 C 6.31 g/m*3 8.7 C 0 km/h
2739 21-12-2008 20:04:01 8.7 C 6.31 g/m*3 8.7 C 0 km/h
2740 21-12-2008 20:16:01 8.7 C 6.23 g/m*3 8.7 C 0 km/h
2741 21-12-2008 20:28:01 8.7 C 6.23 g/m*3 8.7 C 0 km/h
2742 21-12-2008 20:40:02 8.8 C 6.18 g/m*3 8.8 C 0 km/h
2743 21-12-2008 20:52:01 8.9 C 6.13 g/m*3 8.9 C 0 km/h
2744 21-12-2008 21:04:01 8.9 C 6.13 g/m*3 8.9 C 0 km/h
2745 21-12-2008 21:16:01 8.9 C 6.04 g/m*3 8.9 C 0 km/h
2746 21-12-2008 21:28:01 8.9 C 6.13 g/m*3 8.9 C 0 km/h
2747 21-12-2008 21:40:02 8.8 C 6.18 g/m*3 8.8 C 0 km/h
2748 21-12-2008 21:52:01 8.7 C 6.14 g/m*3 8.7 C 0 km/h
2749 21-12-2008 22:04:02 8.7 C 6.23 g/m*3 8.7 C 0 km/h
2750 21-12-2008 22:16:01 8.6 C 6.19 g/m*3 8.6 C 0 km/h
Sensor: Nr:Datum:Temp:Abs-Feuchte:Windchill:Wind:
Aussen-T/F 2751 21-12-2008 22:28:01 8.6 C 6.19 g/m*3 8.6 C 0 km/h
2752 21-12-2008 22:40:02 8.6 C 6.19 g/m*3 8.6 C 0 km/h
2753 21-12-2008 22:52:01 8.5 C 6.23 g/m*3 8.5 C 0 km/h
2754 21-12-2008 23:04:01 8.5 C 6.23 g/m*3 8.5 C 0 km/h
2755 21-12-2008 23:16:01 8.5 C 6.23 g/m*3 8.5 C 0 km/h
2756 21-12-2008 23:28:01 8.5 C 6.23 g/m*3 8.5 C 0 km/h
2757 21-12-2008 23:40:01 8.5 C 6.32 g/m*3 8.5 C 0 km/h
2758 21-12-2008 23:52:01 8.5 C 6.32 g/m*3 8.5 C 0 km/h
2759 22-12-2008 00:04:01 8.6 C 6.36 g/m*3 8.6 C 0 km/h
2760 22-12-2008 00:16:02 8.6 C 6.36 g/m*3 8.6 C 0 km/h
2761 22-12-2008 00:28:02 8.6 C 6.36 g/m*3 8.6 C 0 km/h
2762 22-12-2008 00:40:01 8.6 C 6.44 g/m*3 8.6 C 0 km/h
2763 22-12-2008 00:52:02 8.6 C 6.44 g/m*3 8.6 C 0 km/h
2764 22-12-2008 01:04:01 8.8 C 6.44 g/m*3 8.8 C 0 km/h
2765 22-12-2008 01:16:02 8.8 C 6.44 g/m*3 8.8 C 0 km/h
2766 22-12-2008 01:28:02 8.8 C 6.44 g/m*3 8.8 C 0 km/h
2767 22-12-2008 01:40:01 8.9 C 6.39 g/m*3 8.9 C 0 km/h
2768 22-12-2008 01:52:02 8.9 C 6.39 g/m*3 8.9 C 0 km/h
2769 22-12-2008 02:04:01 8.9 C 6.48 g/m*3 8.9 C 0 km/h
2770 22-12-2008 02:16:01 8.7 C 6.49 g/m*3 8.7 C 0 km/h
2771 22-12-2008 02:28:01 8.7 C 6.57 g/m*3 8.7 C 0 km/h
2772 22-12-2008 02:40:01 8.8 C 6.61 g/m*3 8.8 C 0 km/h
2773 22-12-2008 02:52:27 8.9 C 6.57 g/m*3 8.9 C 0 km/h
2774 22-12-2008 03:04:27 8.9 C 6.57 g/m*3 8.9 C 0 km/h
2775 22-12-2008 03:16:27 8.9 C 6.57 g/m*3 8.9 C 0 km/h
Sensor: Nr:Datum:Temp:Abs-Feuchte:Windchill:Wind:
Aussen-T/F 2776 22-12-2008 03:28:27 8.7 C 6.57 g/m*3 8.7 C 0 km/h
2777 22-12-2008 03:40:27 8.6 C 6.7 g/m*3 8.6 C 0 km/h
2778 22-12-2008 03:52:27 8.2 C 6.95 g/m*3 8.2 C 0 km/h
2779 22-12-2008 04:04:26 8.1 C 7.16 g/m*3 8.1 C 0 km/h
2780 22-12-2008 04:16:27 8.1 C 7.24 g/m*3 8.1 C 0 km/h
2781 22-12-2008 04:28:27 8.1 C 7.32 g/m*3 8.1 C 0 km/h
2782 22-12-2008 04:40:26 8.1 C 7.32 g/m*3 8.1 C 0 km/h
2783 22-12-2008 04:52:26 8.3 C 7.25 g/m*3 8.3 C 0 km/h
2784 22-12-2008 05:04:26 8.3 C 7.16 g/m*3 8.3 C 0 km/h
2785 22-12-2008 05:16:26 8.3 C 7.16 g/m*3 8.3 C 0 km/h
2786 22-12-2008 05:28:26 8.2 C 7.2 g/m*3 8.2 C 0 km/h
2787 22-12-2008 05:40:26 8.1 C 7.16 g/m*3 8.1 C 0 km/h
2788 22-12-2008 05:52:25 8.1 C 7.24 g/m*3 8.1 C 0 km/h
2789 22-12-2008 06:04:26 8.1 C 7.24 g/m*3 8.1 C 0 km/h
2790 22-12-2008 06:16:26 8.1 C 7.24 g/m*3 8.1 C 0 km/h
2791 22-12-2008 06:28:26 8.1 C 7.16 g/m*3 8.1 C 0 km/h
2792 22-12-2008 06:40:25 8.3 C 7.16 g/m*3 8.3 C 0 km/h
2793 22-12-2008 06:52:26 8.6 C 7.05 g/m*3 8.6 C 0 km/h
2794 22-12-2008 07:04:25 8.6 C 6.96 g/m*3 8.6 C 0 km/h
2795 22-12-2008 07:16:25 8.8 C 6.88 g/m*3 8.8 C 0 km/h
2796 22-12-2008 07:28:25 8.9 C 6.83 g/m*3 8.9 C 0 km/h
2797 22-12-2008 07:40:24 8.9 C 6.83 g/m*3 8.9 C 0 km/h
2798 22-12-2008 07:52:25 8.9 C 6.83 g/m*3 8.9 C 0 km/h
2799 22-12-2008 08:04:24 8.9 C 6.83 g/m*3 8.9 C 0 km/h
2800 22-12-2008 08:16:24 9 C 6.7 g/m*3 9 C 0 km/h
Sensor: Nr:Datum:Temp:Abs-Feuchte:Windchill:Wind:
Aussen-T/F 2801 22-12-2008 08:28:24 9 C 6.61 g/m*3 9 C 0 km/h
2802 22-12-2008 08:40:25 9.1 C 6.65 g/m*3 9.1 C 0 km/h
2803 22-12-2008 08:52:24 9 C 6.61 g/m*3 9 C 0 km/h
2804 22-12-2008 09:04:24 9.1 C 6.65 g/m*3 9.1 C 0 km/h
2805 22-12-2008 09:16:24 9 C 6.61 g/m*3 9 C 0 km/h
2806 22-12-2008 09:28:24 9.1 C 6.65 g/m*3 9.1 C 0 km/h
2807 22-12-2008 09:40:24 9 C 6.7 g/m*3 9 C 0 km/h
2808 22-12-2008 09:52:23 9.1 C 6.74 g/m*3 9.1 C 0 km/h
2809 22-12-2008 10:04:24 9.2 C 6.79 g/m*3 9.2 C 0 km/h
2810 22-12-2008 10:16:23 9.3 C 6.74 g/m*3 9.3 C 0 km/h
2811 22-12-2008 10:28:23 9.2 C 6.79 g/m*3 9.2 C 0 km/h
2812 22-12-2008 10:40:23 9.2 C 6.97 g/m*3 9.2 C 0 km/h
2813 22-12-2008 10:52:23 9.3 C 7.01 g/m*3 9.3 C 0 km/h
2814 22-12-2008 11:04:23 9.3 C 7.1 g/m*3 9.3 C 0 km/h
2815 22-12-2008 11:16:23 9.4 C 7.24 g/m*3 9.4 C 0 km/h
2816 22-12-2008 11:28:23 9.5 C 7.19 g/m*3 9.5 C 0 km/h
2817 22-12-2008 11:40:23 9.6 C 7.24 g/m*3 9.6 C 0 km/h
2818 22-12-2008 11:52:23 9.6 C 7.24 g/m*3 9.6 C 0 km/h
2819 22-12-2008 12:04:22 9.9 C 7.28 g/m*3 9.9 C 0 km/h
2820 22-12-2008 12:16:22 10 C 7.14 g/m*3 10 C 0 km/h
2821 22-12-2008 12:28:22 10 C 7.14 g/m*3 10 C 0 km/h
2822 22-12-2008 12:40:22 9.9 C 7.38 g/m*3 9.9 C 0 km/h
2823 22-12-2008 12:52:22 9.9 C 7.66 g/m*3 9.9 C 0 km/h
2824 22-12-2008 13:04:22 9.9 C 7.56 g/m*3 9.9 C 0 km/h
2825 22-12-2008 13:16:22 10 C 7.42 g/m*3 10 C 0 km/h
Sensor: Nr:Datum:Temp:Abs-Feuchte:Windchill:Wind:
Aussen-T/F 2826 22-12-2008 13:28:22 10 C 7.42 g/m*3 10 C 0 km/h
2827 22-12-2008 13:40:22 9.9 C 7.47 g/m*3 9.9 C 0 km/h
2828 22-12-2008 13:52:21 10 C 7.33 g/m*3 10 C 0 km/h
2829 22-12-2008 14:04:21 10.1 C 7.19 g/m*3 10.1 C 0 km/h
2830 22-12-2008 14:16:21 10.3 C 6.99 g/m*3 10.3 C 0 km/h
2831 22-12-2008 14:28:21 10.3 C 6.9 g/m*3 10.3 C 0 km/h
2832 22-12-2008 14:40:22 9.7 C 7.01 g/m*3 9.7 C 0 km/h
2833 22-12-2008 14:52:21 9.6 C 7.05 g/m*3 9.6 C 0 km/h
2834 22-12-2008 15:04:21 9.6 C 7.05 g/m*3 9.6 C 0 km/h
2835 22-12-2008 15:16:21 9.7 C 6.91 g/m*3 9.7 C 0 km/h
2836 22-12-2008 15:28:21 9.7 C 6.82 g/m*3 9.7 C 0 km/h
2837 22-12-2008 15:40:21 9.7 C 6.45 g/m*3 9.7 C 0 km/h
2838 22-12-2008 15:52:20 9.6 C 6.32 g/m*3 9.6 C 0 km/h
2839 22-12-2008 16:04:21 9.6 C 6.23 g/m*3 9.6 C 0 km/h
2840 22-12-2008 16:16:20 9.5 C 6.19 g/m*3 9.5 C 0 km/h
2841 22-12-2008 16:28:20 9.6 C 6.05 g/m*3 9.6 C 0 km/h
2842 22-12-2008 16:40:20 9.5 C 6.01 g/m*3 9.5 C 0 km/h
2843 22-12-2008 16:52:02 9.5 C 5.92 g/m*3 9.5 C 0 km/h
2844 22-12-2008 17:04:02 9.5 C 6.01 g/m*3 9.5 C 0 km/h
2845 22-12-2008 17:16:02 9.3 C 5.93 g/m*3 9.3 C 0 km/h
2846 22-12-2008 17:28:02 9.1 C 6.03 g/m*3 9.1 C 0 km/h
2847 22-12-2008 17:40:02 8.8 C 6.18 g/m*3 8.8 C 0 km/h
2848 22-12-2008 17:52:02 8.5 C 6.15 g/m*3 8.5 C 0 km/h
2849 22-12-2008 18:04:01 8 C 6.12 g/m*3 8 C 0 km/h
2850 22-12-2008 18:16:02 7.6 C 6.28 g/m*3 7.6 C 0 km/h
Sensor: Nr:Datum:Temp:Abs-Feuchte:Windchill:Wind:
Aussen-T/F 2851 22-12-2008 18:28:02 7.3 C 6.32 g/m*3 7.3 C 0 km/h
2852 22-12-2008 18:40:02 7.1 C 6.32 g/m*3 7.1 C 0 km/h
2853 22-12-2008 18:52:02 6.9 C 6.39 g/m*3 6.9 C 0 km/h
2854 22-12-2008 19:04:02 6.9 C 6.47 g/m*3 6.9 C 0 km/h
2855 22-12-2008 19:16:02 6.7 C 6.38 g/m*3 6.7 C 0 km/h
2856 22-12-2008 19:28:02 6.3 C 6.22 g/m*3 6.3 C 0 km/h
2857 22-12-2008 19:40:01 6.2 C 6.25 g/m*3 6.2 C 0 km/h
2858 22-12-2008 19:52:02 5.9 C 6.2 g/m*3 5.9 C 0 km/h
2859 22-12-2008 20:04:01 5.8 C 6.16 g/m*3 5.8 C 0 km/h
2860 22-12-2008 20:16:01 6.1 C 6.28 g/m*3 6.1 C 0 km/h
2861 22-12-2008 20:28:01 6.1 C 6.28 g/m*3 6.1 C 0 km/h
2862 22-12-2008 20:40:00 6.2 C 6.25 g/m*3 6.2 C 0 km/h
2863 22-12-2008 20:52:01 6.3 C 6.29 g/m*3 6.3 C 0 km/h
2864 22-12-2008 21:04:01 6.3 C 6.22 g/m*3 6.3 C 0 km/h
2865 22-12-2008 21:16:00 6.5 C 6.3 g/m*3 6.5 C 0 km/h
2866 22-12-2008 21:28:00 6.4 C 6.18 g/m*3 6.4 C 0 km/h
2867 22-12-2008 21:40:00 6.4 C 6.18 g/m*3 6.4 C 0 km/h
2868 22-12-2008 21:52:00 6.5 C 6.3 g/m*3 6.5 C 0 km/h
2869 22-12-2008 22:05:02 6.5 C 6.22 g/m*3 6.5 C 0 km/h
2870 22-12-2008 22:17:02 6.5 C 6.3 g/m*3 6.5 C 0 km/h
2871 22-12-2008 22:29:02 7 C 6.51 g/m*3 7 C 0 km/h
2872 22-12-2008 22:41:03 7.2 C 6.52 g/m*3 7.2 C 0 km/h
2873 22-12-2008 22:53:03 7.1 C 6.47 g/m*3 7.1 C 0 km/h
2874 22-12-2008 23:05:03 7.1 C 6.47 g/m*3 7.1 C 0 km/h
2875 22-12-2008 23:17:03 7 C 6.43 g/m*3 7 C 0 km/h
Sensor: Nr:Datum:Temp:Abs-Feuchte:Windchill:Wind:
Aussen-T/F 2876 22-12-2008 23:29:03 6.8 C 6.42 g/m*3 6.8 C 0 km/h
2877 22-12-2008 23:41:03 6.9 C 6.54 g/m*3 6.9 C 0 km/h
2878 22-12-2008 23:53:03 6.9 C 6.54 g/m*3 6.9 C 0 km/h
2879 23-12-2008 00:05:03 6.8 C 6.5 g/m*3 6.8 C 0 km/h
2880 23-12-2008 00:17:03 6.4 C 6.26 g/m*3 6.4 C 0 km/h
2881 23-12-2008 00:29:03 6.8 C 6.5 g/m*3 6.8 C 0 km/h
2882 23-12-2008 00:41:03 7.1 C 6.4 g/m*3 7.1 C 0 km/h
2883 23-12-2008 00:53:03 7.2 C 6.36 g/m*3 7.2 C 0 km/h
2884 23-12-2008 01:05:03 7.2 C 6.28 g/m*3 7.2 C 0 km/h
2885 23-12-2008 01:17:03 7.2 C 6.2 g/m*3 7.2 C 0 km/h
2886 23-12-2008 01:29:03 7.2 C 6.2 g/m*3 7.2 C 0 km/h
2887 23-12-2008 01:41:03 7.1 C 6.16 g/m*3 7.1 C 0 km/h
2888 23-12-2008 01:53:03 6.9 C 6.24 g/m*3 6.9 C 0 km/h
2889 23-12-2008 02:05:03 6.9 C 6.24 g/m*3 6.9 C 0 km/h
2890 23-12-2008 02:17:03 6.7 C 6.23 g/m*3 6.7 C 0 km/h
2891 23-12-2008 02:29:03 6.7 C 6.31 g/m*3 6.7 C 0 km/h
2892 23-12-2008 02:41:04 6.7 C 6.31 g/m*3 6.7 C 0 km/h
2893 23-12-2008 02:53:04 6.4 C 6.18 g/m*3 6.4 C 0 km/h
2894 23-12-2008 03:05:04 6.3 C 6.22 g/m*3 6.3 C 0 km/h
2895 23-12-2008 03:17:04 6.3 C 6.29 g/m*3 6.3 C 0 km/h
2896 23-12-2008 03:29:04 6.2 C 6.25 g/m*3 6.2 C 0 km/h
2897 23-12-2008 03:41:04 6.1 C 6.21 g/m*3 6.1 C 0 km/h
2898 23-12-2008 03:53:04 6.1 C 6.21 g/m*3 6.1 C 0 km/h
2899 23-12-2008 04:05:04 6 C 6.17 g/m*3 6 C 0 km/h
2900 23-12-2008 04:17:04 5.7 C 6.12 g/m*3 5.7 C 0 km/h
Sensor: Nr:Datum:Temp:Abs-Feuchte:Windchill:Wind:
Aussen-T/F 2901 23-12-2008 04:29:04 5.6 C 6.15 g/m*3 5.6 C 0 km/h
2902 23-12-2008 04:41:04 5.6 C 6.15 g/m*3 5.6 C 0 km/h
2903 23-12-2008 04:53:04 5.4 C 6.14 g/m*3 5.4 C 0 km/h
2904 23-12-2008 05:05:04 5.3 C 6.1 g/m*3 5.3 C 0 km/h
2905 23-12-2008 05:17:04 5.2 C 6.06 g/m*3 5.2 C 0 km/h
2906 23-12-2008 05:29:04 5.1 C 6.02 g/m*3 5.1 C 0 km/h
2907 23-12-2008 05:41:04 4.7 C 5.86 g/m*3 4.7 C 0 km/h
2908 23-12-2008 05:53:04 4.4 C 5.81 g/m*3 4.4 C 0 km/h
2909 23-12-2008 06:05:04 4.2 C 5.73 g/m*3 4.2 C 0 km/h
2910 23-12-2008 06:17:04 4.6 C 5.96 g/m*3 4.6 C 0 km/h
2911 23-12-2008 06:29:04 4.9 C 6.14 g/m*3 4.9 C 0 km/h
2912 23-12-2008 06:41:04 4.8 C 6.04 g/m*3 4.8 C 0 km/h
2913 23-12-2008 06:53:05 4.7 C 6 g/m*3 4.7 C 0 km/h
2914 23-12-2008 07:05:05 5 C 6.12 g/m*3 5 C 0 km/h
2915 23-12-2008 07:17:02 5 C 6.12 g/m*3 5 C 0 km/h
2916 23-12-2008 07:29:02 4.9 C 6.08 g/m*3 4.9 C 0 km/h
2917 23-12-2008 07:41:01 5.4 C 6.28 g/m*3 5.4 C 0 km/h
2918 23-12-2008 07:53:01 5.3 C 6.17 g/m*3 5.3 C 0 km/h
2919 23-12-2008 08:05:01 5.3 C 6.1 g/m*3 5.3 C 0 km/h
2920 23-12-2008 08:17:01 5.1 C 5.95 g/m*3 5.1 C 0 km/h
2921 23-12-2008 08:29:01 4.9 C 5.94 g/m*3 4.9 C 0 km/h
2922 23-12-2008 08:41:01 5 C 5.91 g/m*3 5 C 0 km/h
2923 23-12-2008 08:53:01 5 C 5.91 g/m*3 5 C 0 km/h
2924 23-12-2008 09:05:01 5 C 5.91 g/m*3 5 C 0 km/h
2925 23-12-2008 09:17:00 4.9 C 5.94 g/m*3 4.9 C 0 km/h
Sensor: Nr:Datum:Temp:Abs-Feuchte:Windchill:Wind:
Aussen-T/F 2926 23-12-2008 09:29:00 4.9 C 5.94 g/m*3 4.9 C 0 km/h
2927 23-12-2008 09:41:01 4.9 C 5.94 g/m*3 4.9 C 0 km/h
2928 23-12-2008 09:53:00 4.7 C 5.8 g/m*3 4.7 C 0 km/h
2929 23-12-2008 10:05:00 4.9 C 5.94 g/m*3 4.9 C 0 km/h
2930 23-12-2008 10:16:59 4.9 C 5.94 g/m*3 4.9 C 0 km/h
2931 23-12-2008 10:28:59 5 C 5.84 g/m*3 5 C 0 km/h
2932 23-12-2008 10:41:00 5.2 C 5.92 g/m*3 5.2 C 0 km/h
2933 23-12-2008 10:53:59 5.5 C 5.97 g/m*3 5.5 C 0 km/h
2934 23-12-2008 11:05:59 5.6 C 5.94 g/m*3 5.6 C 0 km/h
2935 23-12-2008 11:17:00 5.7 C 5.91 g/m*3 5.7 C 0 km/h
2936 23-12-2008 11:29:00 5.9 C 5.98 g/m*3 5.9 C 0 km/h
2937 23-12-2008 11:41:59 6.1 C 5.92 g/m*3 6.1 C 0 km/h
2938 23-12-2008 11:53:59 6.2 C 5.88 g/m*3 6.2 C 0 km/h
2939 23-12-2008 12:05:59 6.3 C 5.85 g/m*3 6.3 C 0 km/h
2940 23-12-2008 12:17:59 6.5 C 5.85 g/m*3 6.5 C 0 km/h
2941 23-12-2008 12:29:59 6.7 C 5.85 g/m*3 6.7 C 0 km/h
2942 23-12-2008 12:41:59 6.9 C 5.85 g/m*3 6.9 C 0 km/h
2943 23-12-2008 12:53:59 7.1 C 5.85 g/m*3 7.1 C 0 km/h
2944 23-12-2008 13:05:59 7.4 C 5.88 g/m*3 7.4 C 0 km/h
2945 23-12-2008 13:17:58 7.4 C 5.88 g/m*3 7.4 C 0 km/h
2946 23-12-2008 13:29:58 7.4 C 5.81 g/m*3 7.4 C 0 km/h
2947 23-12-2008 13:41:58 7.5 C 5.84 g/m*3 7.5 C 0 km/h
2948 23-12-2008 13:53:58 7.6 C 5.88 g/m*3 7.6 C 0 km/h
2949 23-12-2008 14:05:58 7.7 C 5.84 g/m*3 7.7 C 0 km/h
2950 23-12-2008 14:17:57 7.6 C 5.72 g/m*3 7.6 C 0 km/h
Sensor: Nr:Datum:Temp:Abs-Feuchte:Windchill:Wind:
Aussen-T/F 2951 23-12-2008 14:29:57 7.6 C 5.64 g/m*3 7.6 C 0 km/h
2952 23-12-2008 14:41:58 7.4 C 5.49 g/m*3 7.4 C 0 km/h
2953 23-12-2008 14:53:57 7.3 C 5.45 g/m*3 7.3 C 0 km/h
2954 23-12-2008 15:05:57 7.4 C 5.49 g/m*3 7.4 C 0 km/h
2955 23-12-2008 15:17:58 7.5 C 5.44 g/m*3 7.5 C 0 km/h
2956 23-12-2008 15:29:58 7.5 C 5.44 g/m*3 7.5 C 0 km/h
2957 23-12-2008 15:41:57 7.5 C 5.28 g/m*3 7.5 C 0 km/h
2958 23-12-2008 15:53:57 7.3 C 5.21 g/m*3 7.3 C 0 km/h
2959 23-12-2008 16:05:57 7.1 C 5.3 g/m*3 7.1 C 0 km/h
2960 23-12-2008 16:17:57 7.1 C 5.38 g/m*3 7.1 C 0 km/h
2961 23-12-2008 16:29:57 7 C 5.42 g/m*3 7 C 0 km/h
2962 23-12-2008 16:41:57 6.9 C 5.47 g/m*3 6.9 C 0 km/h
2963 23-12-2008 16:53:56 6.9 C 5.39 g/m*3 6.9 C 0 km/h
2964 23-12-2008 17:05:56 6.8 C 5.43 g/m*3 6.8 C 0 km/h
2965 23-12-2008 17:17:56 6.8 C 5.43 g/m*3 6.8 C 0 km/h
2966 23-12-2008 17:29:56 6.7 C 5.47 g/m*3 6.7 C 0 km/h
2967 23-12-2008 17:41:56 6.6 C 5.44 g/m*3 6.6 C 0 km/h
2968 23-12-2008 17:53:55 6.5 C 5.47 g/m*3 6.5 C 0 km/h
2969 23-12-2008 18:05:56 6.5 C 5.47 g/m*3 6.5 C 0 km/h
2970 23-12-2008 18:17:56 6.6 C 5.51 g/m*3 6.6 C 0 km/h
2971 23-12-2008 18:29:56 6.6 C 5.59 g/m*3 6.6 C 0 km/h
2972 23-12-2008 18:41:55 6.5 C 5.55 g/m*3 6.5 C 0 km/h
2973 23-12-2008 18:53:56 6.6 C 5.59 g/m*3 6.6 C 0 km/h
2974 23-12-2008 19:05:55 6.5 C 5.55 g/m*3 6.5 C 0 km/h
2975 23-12-2008 19:17:55 6.5 C 5.55 g/m*3 6.5 C 0 km/h
Sensor: Nr:Datum:Temp:Abs-Feuchte:Windchill:Wind:
Aussen-T/F 2976 23-12-2008 19:29:55 6.5 C 5.62 g/m*3 6.5 C 0 km/h
2977 23-12-2008 19:41:54 6.5 C 5.62 g/m*3 6.5 C 0 km/h
2978 23-12-2008 19:53:55 6.5 C 5.62 g/m*3 6.5 C 0 km/h
2979 23-12-2008 20:05:55 6.5 C 5.7 g/m*3 6.5 C 0 km/h
2980 23-12-2008 20:17:54 6.5 C 5.7 g/m*3 6.5 C 0 km/h
2981 23-12-2008 20:29:54 6.5 C 5.7 g/m*3 6.5 C 0 km/h
2982 23-12-2008 20:41:55 6.4 C 5.74 g/m*3 6.4 C 0 km/h
2983 23-12-2008 20:53:54 6.5 C 5.77 g/m*3 6.5 C 0 km/h
2984 23-12-2008 21:05:54 6.4 C 5.74 g/m*3 6.4 C 0 km/h
2985 23-12-2008 21:17:54 6.4 C 5.74 g/m*3 6.4 C 0 km/h
2986 23-12-2008 21:29:54 6.3 C 5.77 g/m*3 6.3 C 0 km/h
2987 23-12-2008 21:41:54 6.3 C 5.77 g/m*3 6.3 C 0 km/h
2988 23-12-2008 21:53:53 6.1 C 5.7 g/m*3 6.1 C 0 km/h
2989 23-12-2008 22:05:54 6.1 C 5.7 g/m*3 6.1 C 0 km/h
2990 23-12-2008 22:17:54 6.2 C 5.66 g/m*3 6.2 C 0 km/h
2991 23-12-2008 22:29:54 6.2 C 5.59 g/m*3 6.2 C 0 km/h
2992 23-12-2008 22:41:53 6.2 C 5.59 g/m*3 6.2 C 0 km/h
2993 23-12-2008 22:53:53 6.2 C 5.59 g/m*3 6.2 C 0 km/h
2994 23-12-2008 23:05:53 6.1 C 5.55 g/m*3 6.1 C 0 km/h
2995 23-12-2008 23:17:53 6.2 C 5.44 g/m*3 6.2 C 0 km/h
2996 23-12-2008 23:29:53 6.2 C 5.44 g/m*3 6.2 C 0 km/h
2997 23-12-2008 23:41:52 6.2 C 5.44 g/m*3 6.2 C 0 km/h
2998 23-12-2008 23:53:53 6.1 C 5.41 g/m*3 6.1 C 0 km/h
2999 24-12-2008 00:05:53 6.1 C 5.41 g/m*3 6.1 C 0 km/h
3000 24-12-2008 00:17:53 6 C 5.37 g/m*3 6 C 0 km/h
Sensor: Nr:Datum:Temp:Abs-Feuchte:Windchill:Wind:
Aussen-T/F 3001 24-12-2008 00:29:53 6.1 C 5.41 g/m*3 6.1 C 0 km/h
3002 24-12-2008 00:41:52 6.1 C 5.33 g/m*3 6.1 C 0 km/h
3003 24-12-2008 00:53:53 6 C 5.37 g/m*3 6 C 0 km/h
3004 24-12-2008 01:05:52 6 C 5.37 g/m*3 6 C 0 km/h
3005 24-12-2008 01:17:52 5.8 C 5.37 g/m*3 5.8 C 0 km/h
3006 24-12-2008 01:29:53 5.5 C 5.34 g/m*3 5.5 C 0 km/h
3007 24-12-2008 01:41:51 5.3 C 5.34 g/m*3 5.3 C 0 km/h
3008 24-12-2008 01:53:52 5.2 C 5.3 g/m*3 5.2 C 0 km/h
3009 24-12-2008 02:05:51 5.3 C 5.41 g/m*3 5.3 C 0 km/h
3010 24-12-2008 02:17:51 5.2 C 5.44 g/m*3 5.2 C 0 km/h
3011 24-12-2008 02:29:51 5.3 C 5.48 g/m*3 5.3 C 0 km/h
3012 24-12-2008 02:41:52 5.1 C 5.4 g/m*3 5.1 C 0 km/h
3013 24-12-2008 02:54:52 4.9 C 5.47 g/m*3 4.9 C 0 km/h
3014 24-12-2008 03:06:52 4.7 C 5.4 g/m*3 4.7 C 0 km/h
3015 24-12-2008 03:18:53 4.5 C 5.39 g/m*3 4.5 C 0 km/h
3016 24-12-2008 03:30:52 4.1 C 5.18 g/m*3 4.1 C 0 km/h
3017 24-12-2008 03:42:52 3.7 C 5.17 g/m*3 3.7 C 0 km/h
3018 24-12-2008 03:54:52 3.5 C 5.1 g/m*3 3.5 C 0 km/h
3019 24-12-2008 04:06:52 3.3 C 5.1 g/m*3 3.3 C 0 km/h
3020 24-12-2008 04:18:52 3 C 4.99 g/m*3 3 C 0 km/h
3021 24-12-2008 04:30:52 2.9 C 5.08 g/m*3 2.9 C 0 km/h
3022 24-12-2008 04:42:52 2.7 C 5.01 g/m*3 2.7 C 0 km/h
3023 24-12-2008 04:54:52 2.5 C 4.94 g/m*3 2.5 C 0 km/h
3024 24-12-2008 05:06:51 2.3 C 4.93 g/m*3 2.3 C 0 km/h
3025 24-12-2008 05:18:51 2.3 C 4.93 g/m*3 2.3 C 0 km/h
Sensor: Nr:Datum:Temp:Abs-Feuchte:Windchill:Wind:
Aussen-T/F 3026 24-12-2008 05:30:51 2.1 C 4.92 g/m*3 2.1 C 0 km/h
3027 24-12-2008 05:42:51 2 C 4.89 g/m*3 2 C 0 km/h
3028 24-12-2008 05:54:50 2.3 C 5.05 g/m*3 2.3 C 0 km/h
3029 24-12-2008 06:06:51 2.8 C 5.34 g/m*3 2.8 C 0 km/h
3030 24-12-2008 06:18:51 2.9 C 5.37 g/m*3 2.9 C 0 km/h
3031 24-12-2008 06:30:50 2.8 C 5.28 g/m*3 2.8 C 0 km/h
3032 24-12-2008 06:42:50 2.7 C 5.24 g/m*3 2.7 C 0 km/h
3033 24-12-2008 06:54:51 2.8 C 5.22 g/m*3 2.8 C 0 km/h
3034 24-12-2008 07:06:50 2.9 C 5.26 g/m*3 2.9 C 0 km/h
3035 24-12-2008 07:18:50 3 C 5.29 g/m*3 3 C 0 km/h
3036 24-12-2008 07:30:50 3.3 C 5.4 g/m*3 3.3 C 0 km/h
3037 24-12-2008 07:42:50 3.3 C 5.4 g/m*3 3.3 C 0 km/h
3038 24-12-2008 07:54:50 3.2 C 5.36 g/m*3 3.2 C 0 km/h
3039 24-12-2008 08:06:50 3.2 C 5.36 g/m*3 3.2 C 0 km/h
3040 24-12-2008 08:18:49 3.3 C 5.4 g/m*3 3.3 C 0 km/h
3041 24-12-2008 08:30:50 3.5 C 5.47 g/m*3 3.5 C 0 km/h
3042 24-12-2008 08:42:50 3.6 C 5.51 g/m*3 3.6 C 0 km/h
3043 24-12-2008 08:54:49 3.5 C 5.47 g/m*3 3.5 C 0 km/h
3044 24-12-2008 09:06:49 3.5 C 5.47 g/m*3 3.5 C 0 km/h
3045 24-12-2008 09:18:49 3.4 C 5.44 g/m*3 3.4 C 0 km/h
3046 24-12-2008 09:30:49 3.4 C 5.44 g/m*3 3.4 C 0 km/h
3047 24-12-2008 09:42:49 3.5 C 5.53 g/m*3 3.5 C 0 km/h
3048 24-12-2008 09:54:48 3.6 C 5.51 g/m*3 3.6 C 0 km/h
3049 24-12-2008 10:06:49 3.6 C 5.51 g/m*3 3.6 C 0 km/h
3050 24-12-2008 10:18:49 3.7 C 5.55 g/m*3 3.7 C 0 km/h
Sensor: Nr:Datum:Temp:Abs-Feuchte:Windchill:Wind:
Aussen-T/F 3051 24-12-2008 10:30:48 3.9 C 5.68 g/m*3 3.9 C 0 km/h
3052 24-12-2008 10:42:48 4 C 5.66 g/m*3 4 C 0 km/h
3053 24-12-2008 10:54:49 4 C 5.66 g/m*3 4 C 0 km/h
3054 24-12-2008 11:06:48 4.1 C 5.76 g/m*3 4.1 C 0 km/h
3055 24-12-2008 11:18:48 4.1 C 5.76 g/m*3 4.1 C 0 km/h
3056 24-12-2008 11:30:47 4.2 C 5.8 g/m*3 4.2 C 0 km/h
3057 24-12-2008 11:42:47 4.3 C 5.77 g/m*3 4.3 C 0 km/h
3058 24-12-2008 11:54:48 4.3 C 5.77 g/m*3 4.3 C 0 km/h
3059 24-12-2008 12:06:47 4.4 C 5.75 g/m*3 4.4 C 0 km/h
3060 24-12-2008 12:18:47 4.5 C 5.72 g/m*3 4.5 C 0 km/h
3061 24-12-2008 12:30:48 4.8 C 5.77 g/m*3 4.8 C 0 km/h
3062 24-12-2008 12:42:48 5 C 5.71 g/m*3 5 C 0 km/h
3063 24-12-2008 12:54:47 5.3 C 5.68 g/m*3 5.3 C 0 km/h
3064 24-12-2008 13:06:47 5.6 C 5.66 g/m*3 5.6 C 0 km/h
3065 24-12-2008 13:18:47 5.5 C 5.55 g/m*3 5.5 C 0 km/h
3066 24-12-2008 13:30:47 5.3 C 5.48 g/m*3 5.3 C 0 km/h
3067 24-12-2008 13:42:47 5.3 C 5.48 g/m*3 5.3 C 0 km/h
3068 24-12-2008 13:54:46 5.2 C 5.44 g/m*3 5.2 C 0 km/h
3069 24-12-2008 14:06:47 5.2 C 5.44 g/m*3 5.2 C 0 km/h
3070 24-12-2008 14:18:47 5.2 C 5.44 g/m*3 5.2 C 0 km/h
3071 24-12-2008 14:30:46 5.3 C 5.48 g/m*3 5.3 C 0 km/h
3072 24-12-2008 14:42:46 5.3 C 5.48 g/m*3 5.3 C 0 km/h
3073 24-12-2008 14:54:46 5.2 C 5.44 g/m*3 5.2 C 0 km/h
3074 24-12-2008 15:06:46 5.2 C 5.44 g/m*3 5.2 C 0 km/h
3075 24-12-2008 15:18:46 5.1 C 5.47 g/m*3 5.1 C 0 km/h
Sensor: Nr:Datum:Temp:Abs-Feuchte:Windchill:Wind:
Aussen-T/F 3076 24-12-2008 15:30:45 4.9 C 5.6 g/m*3 4.9 C 0 km/h
3077 24-12-2008 15:42:45 4.9 C 5.74 g/m*3 4.9 C 0 km/h
3078 24-12-2008 15:54:46 5.1 C 5.88 g/m*3 5.1 C 0 km/h
3079 24-12-2008 16:06:45 5.3 C 6.1 g/m*3 5.3 C 0 km/h
3080 24-12-2008 16:18:45 5.3 C 6.17 g/m*3 5.3 C 0 km/h
3081 24-12-2008 16:30:45 5.4 C 6.21 g/m*3 5.4 C 0 km/h
3082 24-12-2008 16:42:45 5.4 C 6.21 g/m*3 5.4 C 0 km/h
3083 24-12-2008 16:54:45 5.3 C 6.17 g/m*3 5.3 C 0 km/h
3084 24-12-2008 17:06:45 5.2 C 6.13 g/m*3 5.2 C 0 km/h
3085 24-12-2008 17:18:44 5.2 C 6.13 g/m*3 5.2 C 0 km/h
3086 24-12-2008 17:30:45 5.1 C 6.02 g/m*3 5.1 C 0 km/h
3087 24-12-2008 17:42:45 5.2 C 5.99 g/m*3 5.2 C 0 km/h
3088 24-12-2008 17:54:44 5.2 C 5.85 g/m*3 5.2 C 0 km/h
3089 24-12-2008 18:06:44 5.3 C 5.82 g/m*3 5.3 C 0 km/h
3090 24-12-2008 18:18:45 5.3 C 5.82 g/m*3 5.3 C 0 km/h
3091 24-12-2008 18:30:44 5.3 C 5.82 g/m*3 5.3 C 0 km/h
3092 24-12-2008 18:42:44 5.3 C 5.82 g/m*3 5.3 C 0 km/h
3093 24-12-2008 18:54:44 5.3 C 5.82 g/m*3 5.3 C 0 km/h
3094 24-12-2008 19:06:44 5.2 C 5.85 g/m*3 5.2 C 0 km/h
3095 24-12-2008 19:18:44 5.2 C 5.92 g/m*3 5.2 C 0 km/h
3096 24-12-2008 19:30:43 5.2 C 5.92 g/m*3 5.2 C 0 km/h
3097 24-12-2008 19:42:43 5.2 C 5.92 g/m*3 5.2 C 0 km/h
3098 24-12-2008 19:54:44 5.2 C 5.92 g/m*3 5.2 C 0 km/h
3099 24-12-2008 20:06:43 5.3 C 5.96 g/m*3 5.3 C 0 km/h
3100 24-12-2008 20:18:43 5.2 C 5.92 g/m*3 5.2 C 0 km/h
Sensor: Nr:Datum:Temp:Abs-Feuchte:Windchill:Wind:
Aussen-T/F 3101 24-12-2008 20:30:43 5.2 C 5.99 g/m*3 5.2 C 0 km/h
3102 24-12-2008 20:42:43 5.2 C 6.06 g/m*3 5.2 C 0 km/h
3103 24-12-2008 20:54:43 5.2 C 6.06 g/m*3 5.2 C 0 km/h
3104 24-12-2008 21:06:43 5.2 C 6.13 g/m*3 5.2 C 0 km/h
3105 24-12-2008 21:18:42 5.2 C 6.13 g/m*3 5.2 C 0 km/h
3106 24-12-2008 21:30:42 5.2 C 6.13 g/m*3 5.2 C 0 km/h
3107 24-12-2008 21:42:42 5.2 C 6.13 g/m*3 5.2 C 0 km/h
3108 24-12-2008 21:54:43 5.3 C 6.17 g/m*3 5.3 C 0 km/h
3109 24-12-2008 22:06:42 5.3 C 6.17 g/m*3 5.3 C 0 km/h
3110 24-12-2008 22:18:42 5.3 C 6.17 g/m*3 5.3 C 0 km/h
3111 24-12-2008 22:30:42 5.3 C 6.17 g/m*3 5.3 C 0 km/h
3112 24-12-2008 22:42:42 5.3 C 6.17 g/m*3 5.3 C 0 km/h
3113 24-12-2008 22:54:42 5.3 C 6.17 g/m*3 5.3 C 0 km/h
3114 24-12-2008 23:06:41 5.3 C 6.1 g/m*3 5.3 C 0 km/h
3115 24-12-2008 23:18:42 5.3 C 6.1 g/m*3 5.3 C 0 km/h
3116 24-12-2008 23:30:42 5.3 C 6.1 g/m*3 5.3 C 0 km/h
3117 24-12-2008 23:42:42 5.4 C 6.07 g/m*3 5.4 C 0 km/h
3118 24-12-2008 23:54:41 5.4 C 6 g/m*3 5.4 C 0 km/h
3119 25-12-2008 00:06:42 5.4 C 5.86 g/m*3 5.4 C 0 km/h
3120 25-12-2008 00:18:41 5.3 C 5.82 g/m*3 5.3 C 0 km/h
3121 25-12-2008 00:30:41 5.2 C 5.78 g/m*3 5.2 C 0 km/h
3122 25-12-2008 00:42:41 5.2 C 5.78 g/m*3 5.2 C 0 km/h
3123 25-12-2008 00:54:41 5.2 C 5.78 g/m*3 5.2 C 0 km/h
3124 25-12-2008 01:06:40 5.1 C 5.75 g/m*3 5.1 C 0 km/h
3125 25-12-2008 01:18:41 5 C 5.71 g/m*3 5 C 0 km/h
Sensor: Nr:Datum:Temp:Abs-Feuchte:Windchill:Wind:
Aussen-T/F 3126 25-12-2008 01:30:40 5 C 5.64 g/m*3 5 C 0 km/h
3127 25-12-2008 01:42:40 5.1 C 5.47 g/m*3 5.1 C 0 km/h
3128 25-12-2008 01:54:40 5.2 C 5.37 g/m*3 5.2 C 0 km/h
3129 25-12-2008 02:06:40 5.3 C 5.41 g/m*3 5.3 C 0 km/h
3130 25-12-2008 02:18:40 4.7 C 5.26 g/m*3 4.7 C 0 km/h
3131 25-12-2008 02:30:40 4.8 C 5.43 g/m*3 4.8 C 0 km/h
3132 25-12-2008 02:42:40 4.9 C 5.54 g/m*3 4.9 C 0 km/h
3133 25-12-2008 02:55:41 5 C 5.5 g/m*3 5 C 0 km/h
3134 25-12-2008 03:07:41 5 C 5.57 g/m*3 5 C 0 km/h
3135 25-12-2008 03:19:41 4.8 C 5.5 g/m*3 4.8 C 0 km/h
3136 25-12-2008 03:31:41 4.5 C 5.46 g/m*3 4.5 C 0 km/h
3137 25-12-2008 03:43:41 4.3 C 5.38 g/m*3 4.3 C 0 km/h
3138 25-12-2008 03:55:41 4.2 C 5.41 g/m*3 4.2 C 0 km/h
3139 25-12-2008 04:07:40 4.4 C 5.55 g/m*3 4.4 C 0 km/h
3140 25-12-2008 04:19:40 4.5 C 5.59 g/m*3 4.5 C 0 km/h
3141 25-12-2008 04:31:41 4.6 C 5.62 g/m*3 4.6 C 0 km/h
3142 25-12-2008 04:43:41 4.6 C 5.62 g/m*3 4.6 C 0 km/h
3143 25-12-2008 04:55:40 4.6 C 5.56 g/m*3 4.6 C 0 km/h
3144 25-12-2008 05:07:40 4.6 C 5.56 g/m*3 4.6 C 0 km/h
3145 25-12-2008 05:19:40 4.6 C 5.56 g/m*3 4.6 C 0 km/h
3146 25-12-2008 05:31:40 4.6 C 5.56 g/m*3 4.6 C 0 km/h
3147 25-12-2008 05:43:40 4.7 C 5.6 g/m*3 4.7 C 0 km/h
3148 25-12-2008 05:55:40 4.7 C 5.53 g/m*3 4.7 C 0 km/h
3149 25-12-2008 06:07:40 4.7 C 5.53 g/m*3 4.7 C 0 km/h
3150 25-12-2008 06:19:39 4.7 C 5.53 g/m*3 4.7 C 0 km/h
Sensor: Nr:Datum:Temp:Abs-Feuchte:Windchill:Wind:
Aussen-T/F 3151 25-12-2008 06:31:39 4.7 C 5.53 g/m*3 4.7 C 0 km/h
3152 25-12-2008 06:43:39 4.7 C 5.46 g/m*3 4.7 C 0 km/h
3153 25-12-2008 06:55:39 4.7 C 5.46 g/m*3 4.7 C 0 km/h
3154 25-12-2008 07:07:39 4.8 C 5.5 g/m*3 4.8 C 0 km/h
3155 25-12-2008 07:19:38 4.8 C 5.43 g/m*3 4.8 C 0 km/h
3156 25-12-2008 07:31:39 4.8 C 5.43 g/m*3 4.8 C 0 km/h
3157 25-12-2008 07:43:39 4.8 C 5.43 g/m*3 4.8 C 0 km/h
3158 25-12-2008 07:55:38 4.8 C 5.43 g/m*3 4.8 C 0 km/h
3159 25-12-2008 08:07:38 4.7 C 5.4 g/m*3 4.7 C 0 km/h
3160 25-12-2008 08:19:39 4.7 C 5.4 g/m*3 4.7 C 0 km/h
3161 25-12-2008 08:31:38 4.7 C 5.4 g/m*3 4.7 C 0 km/h
3162 25-12-2008 08:43:38 4.8 C 5.43 g/m*3 4.8 C 0 km/h
3163 25-12-2008 08:55:38 4.8 C 5.43 g/m*3 4.8 C 0 km/h
3164 25-12-2008 09:07:38 4.8 C 5.43 g/m*3 4.8 C 0 km/h
3165 25-12-2008 09:24:38 5 C 5.44 g/m*3 5 C 0 km/h
3166 25-12-2008 09:36:37 5.1 C 5.47 g/m*3 5.1 C 0 km/h
3167 25-12-2008 09:48:38 5.3 C 5.48 g/m*3 5.3 C 0 km/h
3168 25-12-2008 10:00:37 5.4 C 5.58 g/m*3 5.4 C 0 km/h
3169 25-12-2008 10:12:37 5.7 C 5.62 g/m*3 5.7 C 0 km/h
3170 25-12-2008 10:24:37 5.8 C 5.59 g/m*3 5.8 C 0 km/h
3171 25-12-2008 10:36:37 6 C 5.52 g/m*3 6 C 0 km/h
3172 25-12-2008 10:48:37 6.2 C 5.44 g/m*3 6.2 C 0 km/h
3173 25-12-2008 11:00:36 6.3 C 5.4 g/m*3 6.3 C 0 km/h
3174 25-12-2008 11:12:36 6.3 C 5.33 g/m*3 6.3 C 0 km/h
3175 25-12-2008 11:25:37 6.3 C 5.26 g/m*3 6.3 C 0 km/h
Sensor: Nr:Datum:Temp:Abs-Feuchte:Windchill:Wind:
Aussen-T/F 3176 25-12-2008 11:37:36 6.4 C 5.07 g/m*3 6.4 C 0 km/h
3177 25-12-2008 11:49:37 6.9 C 4.93 g/m*3 6.9 C 0 km/h
3178 25-12-2008 12:01:36 7 C 4.8 g/m*3 7 C 0 km/h
3179 25-12-2008 12:13:36 7 C 4.8 g/m*3 7 C 0 km/h
3180 25-12-2008 12:25:36 6.9 C 4.85 g/m*3 6.9 C 0 km/h
3181 25-12-2008 12:37:36 7.1 C 4.76 g/m*3 7.1 C 0 km/h
3182 25-12-2008 12:49:36 7.1 C 4.6 g/m*3 7.1 C 0 km/h
3183 25-12-2008 13:01:35 7 C 4.65 g/m*3 7 C 0 km/h
3184 25-12-2008 13:13:35 7 C 4.65 g/m*3 7 C 0 km/h
3185 25-12-2008 13:25:36 6.9 C 4.7 g/m*3 6.9 C 0 km/h
3186 25-12-2008 13:37:35 7 C 4.57 g/m*3 7 C 0 km/h
3187 25-12-2008 13:49:35 7 C 4.49 g/m*3 7 C 0 km/h
3188 25-12-2008 14:01:35 7.1 C 4.37 g/m*3 7.1 C 0 km/h
3189 25-12-2008 14:13:35 7.1 C 4.52 g/m*3 7.1 C 0 km/h
3190 25-12-2008 14:25:35 7.1 C 4.37 g/m*3 7.1 C 0 km/h
3191 25-12-2008 14:37:35 7 C 4.26 g/m*3 7 C 0 km/h
3192 25-12-2008 14:49:35 7.1 C 4.21 g/m*3 7.1 C 0 km/h
3193 25-12-2008 15:01:35 7.2 C 4.24 g/m*3 7.2 C 0 km/h
3194 25-12-2008 15:13:35 7.1 C 4.29 g/m*3 7.1 C 0 km/h
3195 25-12-2008 15:25:35 7 C 4.26 g/m*3 7 C 0 km/h
3196 25-12-2008 15:37:34 6.9 C 4.39 g/m*3 6.9 C 0 km/h
3197 25-12-2008 15:49:34 6.6 C 4.45 g/m*3 6.6 C 0 km/h
3198 25-12-2008 16:01:34 6.1 C 4.24 g/m*3 6.1 C 0 km/h
3199 25-12-2008 16:13:34 5.9 C 4.33 g/m*3 5.9 C 0 km/h
3200 25-12-2008 16:25:34 5.6 C 4.31 g/m*3 5.6 C 0 km/h
Sensor: Nr:Datum:Temp:Abs-Feuchte:Windchill:Wind:
Aussen-T/F 3201 25-12-2008 16:37:34 5.1 C 4.24 g/m*3 5.1 C 0 km/h
3202 25-12-2008 16:49:33 4.8 C 4.29 g/m*3 4.8 C 0 km/h
3203 25-12-2008 17:01:34 4.7 C 4.26 g/m*3 4.7 C 0 km/h
3204 25-12-2008 17:13:34 4.5 C 4.14 g/m*3 4.5 C 0 km/h
3205 25-12-2008 17:25:33 4.2 C 4.12 g/m*3 4.2 C 0 km/h
3206 25-12-2008 17:37:34 4 C 4.07 g/m*3 4 C 0 km/h
3207 25-12-2008 17:49:34 3.7 C 3.99 g/m*3 3.7 C 0 km/h
3208 25-12-2008 18:01:33 3.5 C 3.87 g/m*3 3.5 C 0 km/h
3209 25-12-2008 18:13:34 3.3 C 3.76 g/m*3 3.3 C 0 km/h
3210 25-12-2008 18:25:33 3.1 C 3.47 g/m*3 3.1 C 0 km/h
3211 25-12-2008 18:37:33 3 C 3.33 g/m*3 3 C 0 km/h
3212 25-12-2008 18:49:33 2.7 C 3.38 g/m*3 2.7 C 0 km/h
3213 25-12-2008 19:01:32 2.4 C 3.31 g/m*3 2.4 C 0 km/h
3214 25-12-2008 19:13:32 2.2 C 3.27 g/m*3 2.2 C 0 km/h
3215 25-12-2008 19:25:33 1.8 C 3.18 g/m*3 1.8 C 0 km/h
3216 25-12-2008 19:37:32 1.5 C 3.12 g/m*3 1.5 C 0 km/h
3217 25-12-2008 19:49:32 1.3 C 3.07 g/m*3 1.3 C 0 km/h
3218 25-12-2008 20:01:32 1.1 C 3.08 g/m*3 1.1 C 0 km/h
3219 25-12-2008 20:13:32 1 C 3.11 g/m*3 1 C 0 km/h
3220 25-12-2008 20:25:31 1 C 3.06 g/m*3 1 C 0 km/h
3221 25-12-2008 20:37:32 1 C 3.06 g/m*3 1 C 0 km/h
3222 25-12-2008 20:49:32 1.1 C 3.08 g/m*3 1.1 C 0 km/h
3223 25-12-2008 21:01:32 1 C 3.01 g/m*3 1 C 0 km/h
3224 25-12-2008 21:13:32 1 C 3.01 g/m*3 1 C 0 km/h
3225 25-12-2008 21:25:31 0.9 C 2.99 g/m*3 0.9 C 0 km/h
Sensor: Nr:Datum:Temp:Abs-Feuchte:Windchill:Wind:
Aussen-T/F 3226 25-12-2008 21:37:31 0.8 C 2.97 g/m*3 0.8 C 0 km/h
3227 25-12-2008 21:49:31 0.7 C 2.9 g/m*3 0.7 C 0 km/h
3228 25-12-2008 22:01:31 0.6 C 2.88 g/m*3 0.6 C 0 km/h
3229 25-12-2008 22:13:31 0.6 C 2.88 g/m*3 0.6 C 0 km/h
3230 25-12-2008 22:25:31 0.5 C 2.86 g/m*3 0.5 C 0 km/h
3231 25-12-2008 22:37:31 0.6 C 2.93 g/m*3 0.6 C 0 km/h
3232 25-12-2008 22:49:30 0.7 C 2.9 g/m*3 0.7 C 0 km/h
3233 25-12-2008 23:01:30 0.5 C 2.86 g/m*3 0.5 C 0 km/h
3234 25-12-2008 23:13:30 0.3 C 2.82 g/m*3 0.3 C 0 km/h
3235 25-12-2008 23:25:30 0 C 2.81 g/m*3 0 C 0 km/h
3236 25-12-2008 23:37:30 -0.4 C 2.83 g/m*3 -0.4 C 0 km/h
3237 25-12-2008 23:49:29 -0.5 C 2.81 g/m*3 -0.5 C 0 km/h
3238 26-12-2008 00:01:30 -0.6 C 2.79 g/m*3 -0.6 C 0 km/h
3239 26-12-2008 00:13:30 -0.6 C 2.79 g/m*3 -0.6 C 0 km/h
3240 26-12-2008 00:25:30 -0.7 C 2.82 g/m*3 -0.7 C 0 km/h
3241 26-12-2008 00:37:29 -0.7 C 2.82 g/m*3 -0.7 C 0 km/h
3242 26-12-2008 00:49:30 -0.5 C 2.86 g/m*3 -0.5 C 0 km/h
3243 26-12-2008 01:01:29 -0.2 C 2.91 g/m*3 -0.2 C 0 km/h
3244 26-12-2008 01:13:29 0.2 C 2.95 g/m*3 0.2 C 0 km/h
3245 26-12-2008 01:25:29 0.4 C 2.94 g/m*3 0.4 C 0 km/h
3246 26-12-2008 01:37:29 0.5 C 2.91 g/m*3 0.5 C 0 km/h
3247 26-12-2008 01:49:29 0.5 C 2.86 g/m*3 0.5 C 0 km/h
3248 26-12-2008 02:01:28 0.5 C 2.81 g/m*3 0.5 C 0 km/h
3249 26-12-2008 02:13:28 0.4 C 2.84 g/m*3 0.4 C 0 km/h
3250 26-12-2008 02:25:29 0.2 C 2.8 g/m*3 0.2 C 0 km/h
Sensor: Nr:Datum:Temp:Abs-Feuchte: